
Distance (Route):
Temperature : -28.7°C
Humidity : 47.5%
Pressure : 388.3hPa| Receiver | Frames | First received | Last received |
|---|---|---|---|
| SQ9EZE-13 | 305 | 2026-09-02 11:20:06 | 2026-09-02 12:59:57 |
| SP9SOS | 132 | 2026-09-02 11:47:08 | 2026-09-02 13:00:06 |
| GYPAP8-17 | 78 | 2026-09-02 11:19:10 | 2026-09-02 12:59:42 |
| SQ9EZE-14 | 77 | 2026-09-02 11:21:12 | 2026-09-02 12:59:57 |
| HA6NAB-11 | 77 | 2026-09-02 11:30:54 | 2026-09-02 12:51:20 |
| OM5KV | 30 | 2026-09-02 11:26:30 | 2026-09-02 11:29:02 |
| OE3JTB-15 | 24 | 2026-09-02 11:34:12 | 2026-09-02 12:11:21 |
| OE5DRO-10 | 8 | 2026-09-02 12:31:13 | 2026-09-02 12:39:58 |
| LZ4TU-5 | 2 | 2026-09-02 12:51:04 | 2026-09-02 12:51:08 |
| SP9KGR-15 | 1 | 2026-09-02 13:08:31 | 2026-09-02 13:08:31 |
| Receiver | Date | Latitude | Longitude | Direction | Speed | Altitude | Climb | Temperature | Humidity | Pressure | Voltage | Killtimer | Uptime | BKT | XDATA |
|---|---|---|---|---|---|---|---|---|---|---|---|---|---|---|---|
| SP9KGR-15 | 2026-09-02 13:08:31 | 49.13521 | 21.19369 | 97° | 42km/h | 7655m | -22.7m/s | -28.7°C | 47.5% | 388.3hPa | 2.7V | 00:00:00 | 00:00:00 | 00:00:00 | |
| SP9SOS | 2026-09-02 13:00:06 | -18.87147 | -74.21547 | 0° | 0km/h | 2220m | 0.0m/s | -46.6°C | 1.0% | 22.7hPa | 2.7V | 00:00:00 | 00:00:00 | 00:00:00 | |
| SQ9EZE-14 | 2026-09-02 12:59:57 | -8.89430 | -23.33941 | 0° | 0km/h | 507m | 0.0m/s | -44.6°C | 0.9% | 20.7hPa | 2.7V | 00:00:00 | 00:00:00 | 00:00:00 | |
| SQ9EZE-13 | 2026-09-02 12:59:57 | -8.89430 | -23.33941 | 0° | 0km/h | 507m | 0.0m/s | -44.6°C | 0.9% | 20.7hPa | 2.7V | 00:00:00 | 00:00:00 | 00:00:00 | |
| SQ9EZE-14 | 2026-09-02 12:59:42 | -7.19005 | -81.77771 | 0° | 0km/h | 332m | 0.0m/s | -42.7°C | 0.8% | 17.3hPa | 2.7V | 00:00:00 | 00:00:00 | 00:00:00 | |
| GYPAP8-17 | 2026-09-02 12:59:42 | -7.19005 | -81.77771 | 0° | 0km/h | 332m | 0.0m/s | -42.7°C | 0.8% | 17.3hPa | 2.7V | 00:00:00 | 00:00:00 | 00:00:00 | |
| SQ9EZE-13 | 2026-09-02 12:59:42 | -7.19005 | -81.77771 | 0° | 0km/h | 332m | 0.0m/s | -42.7°C | 0.8% | 17.3hPa | 2.7V | 00:00:00 | 00:00:00 | 00:00:00 | |
| SP9SOS | 2026-09-02 12:59:39 | -7.19005 | -81.77771 | 0° | 0km/h | 332m | 0.0m/s | -42.2°C | 0.7% | 16.8hPa | 2.7V | 00:00:00 | 00:00:00 | 00:00:00 | |
| SQ9EZE-13 | 2026-09-02 12:59:26 | -29.68547 | -80.87870 | 0° | 0km/h | 5212m | 0.0m/s | -40.0°C | 0.7% | 14.0hPa | 2.7V | 00:00:00 | 00:00:00 | 00:00:00 | |
| SP9SOS | 2026-09-02 12:59:14 | -29.68547 | -80.87870 | 0° | 0km/h | 5212m | 0.0m/s | -38.3°C | 0.7% | 11.8hPa | 2.7V | 00:00:00 | 00:00:00 | 00:00:00 | |
| SQ9EZE-13 | 2026-09-02 12:59:10 | -29.68547 | -80.87870 | 0° | 0km/h | 5212m | 0.0m/s | -37.6°C | 0.6% | 11.3hPa | 2.7V | 00:00:00 | 00:00:00 | 00:00:00 | |
| SQ9EZE-13 | 2026-09-02 12:58:55 | -29.68547 | -80.87870 | 0° | 0km/h | 5212m | 0.0m/s | -33.4°C | 0.5% | 8.8hPa | 2.7V | 00:00:00 | 00:00:00 | 00:00:00 | |
| SP9SOS | 2026-09-02 12:58:48 | -29.68547 | -80.87870 | 0° | 0km/h | 5212m | 0.0m/s | -33.6°C | 0.5% | 8.0hPa | 2.7V | 00:00:00 | 00:00:00 | 00:00:00 | |
| GYPAP8-17 | 2026-09-02 12:58:45 | -4.91132 | -55.31408 | 0° | 0km/h | 155m | 0.0m/s | -33.7°C | 0.5% | 7.6hPa | 2.7V | 00:00:00 | 00:00:00 | 00:00:00 | |
| SQ9EZE-13 | 2026-09-02 12:58:37 | -29.68547 | -80.87870 | 0° | 0km/h | 5212m | 0.0m/s | -33.0°C | 0.5% | 6.9hPa | 2.7V | 00:00:00 | 00:00:00 | 00:00:00 | |
| SP9SOS | 2026-09-02 12:58:22 | -22.70384 | -82.19788 | 0° | 0km/h | 3163m | 0.0m/s | -30.1°C | 0.4% | 5.8hPa | 2.7V | 00:00:00 | 00:00:00 | 00:00:00 | |
| SQ9EZE-13 | 2026-09-02 12:58:21 | -8.29547 | -61.82919 | 0° | 0km/h | 442m | 0.0m/s | -30.0°C | 0.4% | 5.7hPa | 2.7V | 00:00:00 | 00:00:00 | 00:00:00 | |
| SQ9EZE-13 | 2026-09-02 12:58:07 | -8.29547 | -61.82919 | 0° | 0km/h | 442m | 0.0m/s | -30.3°C | 0.4% | 5.5hPa | 2.7V | 00:00:00 | 00:00:00 | 00:00:00 | |
| SP9SOS | 2026-09-02 12:57:57 | -22.70384 | -82.19788 | 0° | 0km/h | 3163m | 0.0m/s | -30.5°C | 0.4% | 5.6hPa | 2.7V | 00:00:00 | 00:00:00 | 00:00:00 | |
| SQ9EZE-13 | 2026-09-02 12:57:49 | -8.29547 | -61.82919 | 0° | 0km/h | 442m | 0.0m/s | -30.6°C | 0.4% | 5.6hPa | 2.7V | 00:00:00 | 00:00:00 | 00:00:00 | |
| GYPAP8-17 | 2026-09-02 12:57:40 | -4.91132 | -55.31408 | 0° | 0km/h | 155m | 0.0m/s | -30.5°C | 0.4% | 5.6hPa | 2.7V | 00:00:00 | 00:00:00 | 00:00:00 | |
| SQ9EZE-14 | 2026-09-02 12:57:36 | -1.69513 | -66.94364 | 0° | 0km/h | 19m | 0.0m/s | -30.4°C | 0.4% | 5.7hPa | 2.7V | 00:00:00 | 00:00:00 | 00:00:00 | |
| SQ9EZE-13 | 2026-09-02 12:57:34 | -8.29547 | -61.82919 | 0° | 0km/h | 442m | 0.0m/s | -30.3°C | 0.4% | 5.7hPa | 2.7V | 00:00:00 | 00:00:00 | 00:00:00 | |
| SP9SOS | 2026-09-02 12:57:31 | -22.70384 | -82.19788 | 0° | 0km/h | 3163m | 0.0m/s | -30.4°C | 0.4% | 5.7hPa | 2.7V | 00:00:00 | 00:00:00 | 00:00:00 | |
| SQ9EZE-14 | 2026-09-02 12:57:21 | -1.69513 | -66.94364 | 0° | 0km/h | 19m | 0.0m/s | -30.5°C | 0.4% | 5.7hPa | 2.7V | 00:00:00 | 00:00:00 | 00:00:00 | |
| SP9SOS | 2026-09-02 12:57:05 | -22.70384 | -82.19788 | 0° | 0km/h | 3163m | 0.0m/s | -30.6°C | 0.4% | 5.9hPa | 2.7V | 00:00:00 | 00:00:00 | 00:00:00 | |
| SQ9EZE-13 | 2026-09-02 12:57:04 | -8.29547 | -61.82919 | 0° | 0km/h | 442m | 0.0m/s | -30.5°C | 0.4% | 5.8hPa | 2.7V | 00:00:00 | 00:00:00 | 00:00:00 | |
| SQ9EZE-13 | 2026-09-02 12:56:48 | -8.29547 | -61.82919 | 0° | 0km/h | 442m | 0.0m/s | -30.5°C | 0.4% | 5.9hPa | 2.7V | 00:00:00 | 00:00:00 | 00:00:00 | |
| SP9SOS | 2026-09-02 12:56:39 | -8.29547 | -61.82919 | 0° | 0km/h | 442m | 0.0m/s | -30.5°C | 0.4% | 6.0hPa | 2.7V | 00:00:00 | 00:00:00 | 00:00:00 | |
| GYPAP8-17 | 2026-09-02 12:56:35 | -4.91132 | -55.31408 | 0° | 0km/h | 155m | 0.0m/s | -30.5°C | 0.4% | 6.0hPa | 2.7V | 00:00:00 | 00:00:00 | 00:00:00 | |
| SQ9EZE-13 | 2026-09-02 12:56:33 | -8.29547 | -61.82919 | 0° | 0km/h | 442m | 0.0m/s | -30.5°C | 0.4% | 6.1hPa | 2.7V | 00:00:00 | 00:00:00 | 00:00:00 | |
| SQ9EZE-13 | 2026-09-02 12:56:16 | -8.29547 | -61.82919 | 0° | 0km/h | 442m | 0.0m/s | -30.3°C | 0.4% | 6.1hPa | 2.7V | 00:00:00 | 00:00:00 | 00:00:00 | |
| SP9SOS | 2026-09-02 12:56:14 | -8.29547 | -61.82919 | 0° | 0km/h | 442m | 0.0m/s | -30.5°C | 0.3% | 6.2hPa | 2.7V | 00:00:00 | 00:00:00 | 00:00:00 | |
| SQ9EZE-13 | 2026-09-02 12:55:57 | -8.29547 | -61.82919 | 0° | 0km/h | 442m | 0.0m/s | -32.3°C | 0.4% | 6.3hPa | 2.7V | 00:00:00 | 00:00:00 | 00:00:00 | |
| SP9SOS | 2026-09-02 12:55:48 | -8.29547 | -61.82919 | 0° | 0km/h | 442m | 0.0m/s | -33.6°C | 0.4% | 6.3hPa | 2.7V | 00:00:00 | 00:00:00 | 00:00:00 | |
| SQ9EZE-13 | 2026-09-02 12:55:42 | -8.29547 | -61.82919 | 0° | 0km/h | 442m | 0.0m/s | -33.6°C | 0.4% | 6.3hPa | 2.7V | 00:00:00 | 00:00:00 | 00:00:00 | |
| GYPAP8-17 | 2026-09-02 12:55:31 | -4.91132 | -55.31408 | 0° | 0km/h | 155m | 0.0m/s | -33.7°C | 0.5% | 6.4hPa | 2.7V | 00:00:00 | 00:00:00 | 00:00:00 | |
| SQ9EZE-13 | 2026-09-02 12:55:26 | -8.29547 | -61.82919 | 0° | 0km/h | 442m | 0.0m/s | -33.5°C | 0.4% | 6.4hPa | 2.7V | 00:00:00 | 00:00:00 | 00:00:00 | |
| SP9SOS | 2026-09-02 12:55:22 | -8.29547 | -61.82919 | 0° | 0km/h | 442m | 0.0m/s | -33.8°C | 0.4% | 6.5hPa | 2.7V | 00:00:00 | 00:00:00 | 00:00:00 | |
| SQ9EZE-14 | 2026-09-02 12:55:16 | -1.69513 | -66.94364 | 0° | 0km/h | 19m | 0.0m/s | -34.2°C | 0.5% | 6.5hPa | 2.7V | 00:00:00 | 00:00:00 | 00:00:00 | |
| SQ9EZE-13 | 2026-09-02 12:55:11 | -8.29547 | -61.82919 | 0° | 0km/h | 442m | 0.0m/s | -34.2°C | 0.5% | 6.5hPa | 2.7V | 00:00:00 | 00:00:00 | 00:00:00 | |
| SQ9EZE-14 | 2026-09-02 12:55:00 | -1.69513 | -66.94364 | 0° | 0km/h | 19m | 0.0m/s | -34.3°C | 0.5% | 6.6hPa | 2.7V | 00:00:00 | 00:00:00 | 00:00:00 | |
| SQ9EZE-13 | 2026-09-02 12:54:56 | -8.29547 | -61.82919 | 0° | 0km/h | 442m | 0.0m/s | -34.3°C | 0.5% | 6.6hPa | 2.7V | 00:00:00 | 00:00:00 | 00:00:00 | |
| SP9SOS | 2026-09-02 12:54:56 | -8.29547 | -61.82919 | 0° | 0km/h | 442m | 0.0m/s | -34.3°C | 0.5% | 6.6hPa | 2.7V | 00:00:00 | 00:00:00 | 00:00:00 | |
| SQ9EZE-13 | 2026-09-02 12:54:40 | -8.29547 | -61.82919 | 0° | 0km/h | 442m | 0.0m/s | -34.6°C | 0.5% | 6.7hPa | 2.7V | 00:00:00 | 00:00:00 | 00:00:00 | |
| SP9SOS | 2026-09-02 12:54:31 | -8.29547 | -61.82919 | 0° | 0km/h | 442m | 0.0m/s | -34.7°C | 0.4% | 6.7hPa | 2.7V | 00:00:00 | 00:00:00 | 00:00:00 | |
| SQ9EZE-13 | 2026-09-02 12:54:25 | -8.29547 | -61.82919 | 0° | 0km/h | 442m | 0.0m/s | -34.9°C | 0.5% | 6.8hPa | 2.7V | 00:00:00 | 00:00:00 | 00:00:00 | |
| SQ9EZE-13 | 2026-09-02 12:54:09 | -8.29547 | -61.82919 | 0° | 0km/h | 442m | 0.0m/s | -35.2°C | 0.5% | 6.9hPa | 2.7V | 00:00:00 | 00:00:00 | 00:00:00 | |
| SP9SOS | 2026-09-02 12:54:05 | -8.29547 | -61.82919 | 0° | 0km/h | 442m | 0.0m/s | -35.3°C | 0.5% | 6.9hPa | 2.7V | 00:00:00 | 00:00:00 | 00:00:00 | |
| GYPAP8-17 | 2026-09-02 12:54:02 | -4.91132 | -55.31408 | 0° | 0km/h | 155m | 0.0m/s | -35.3°C | 0.5% | 6.9hPa | 2.7V | 00:00:00 | 00:00:00 | 00:00:00 | |
| SQ9EZE-13 | 2026-09-02 12:53:54 | -8.29547 | -61.82919 | 0° | 0km/h | 442m | 0.0m/s | -35.6°C | 0.5% | 7.0hPa | 2.7V | 00:00:00 | 00:00:00 | 00:00:00 | |
| SP9SOS | 2026-09-02 12:53:39 | -8.29547 | -61.82919 | 0° | 0km/h | 442m | 0.0m/s | -36.4°C | 0.5% | 7.1hPa | 2.7V | 00:00:00 | 00:00:00 | 00:00:00 | |
| SQ9EZE-13 | 2026-09-02 12:53:38 | -8.29547 | -61.82919 | 0° | 0km/h | 442m | 0.0m/s | -36.2°C | 0.5% | 7.1hPa | 2.7V | 00:00:00 | 00:00:00 | 00:00:00 | |
| SQ9EZE-13 | 2026-09-02 12:53:23 | -8.29547 | -61.82919 | 0° | 0km/h | 442m | 0.0m/s | -36.1°C | 0.5% | 7.2hPa | 2.7V | 00:00:00 | 00:00:00 | 00:00:00 | |
| SP9SOS | 2026-09-02 12:53:14 | -8.29547 | -61.82919 | 0° | 0km/h | 442m | 0.0m/s | -36.0°C | 0.5% | 7.2hPa | 2.7V | 00:00:00 | 00:00:00 | 00:00:00 | |
| SQ9EZE-13 | 2026-09-02 12:53:08 | -8.29547 | -61.82919 | 0° | 0km/h | 442m | 0.0m/s | -35.8°C | 0.5% | 7.3hPa | 2.7V | 00:00:00 | 00:00:00 | 00:00:00 | |
| SQ9EZE-14 | 2026-09-02 12:52:52 | -1.69513 | -66.94364 | 0° | 0km/h | 19m | 0.0m/s | -36.1°C | 0.5% | 7.4hPa | 2.7V | 00:00:00 | 00:00:00 | 00:00:00 | |
| SQ9EZE-13 | 2026-09-02 12:52:52 | -8.29547 | -61.82919 | 0° | 0km/h | 442m | 0.0m/s | -36.1°C | 0.5% | 7.4hPa | 2.7V | 00:00:00 | 00:00:00 | 00:00:00 | |
| SP9SOS | 2026-09-02 12:52:48 | -8.29547 | -61.82919 | 0° | 0km/h | 442m | 0.0m/s | -36.0°C | 0.5% | 7.4hPa | 2.7V | 00:00:00 | 00:00:00 | 00:00:00 | |
| SQ9EZE-13 | 2026-09-02 12:52:37 | -8.29547 | -61.82919 | 0° | 0km/h | 442m | 0.0m/s | -36.2°C | 0.6% | 7.5hPa | 2.7V | 00:00:00 | 00:00:00 | 00:00:00 | |
| SQ9EZE-14 | 2026-09-02 12:52:37 | -1.69513 | -66.94364 | 0° | 0km/h | 19m | 0.0m/s | -36.2°C | 0.6% | 7.5hPa | 2.7V | 00:00:00 | 00:00:00 | 00:00:00 | |
| SP9SOS | 2026-09-02 12:52:23 | -8.29547 | -61.82919 | 0° | 0km/h | 442m | 0.0m/s | -36.1°C | 0.5% | 7.6hPa | 2.7V | 00:00:00 | 00:00:00 | 00:00:00 | |
| SQ9EZE-13 | 2026-09-02 12:52:22 | -8.29547 | -61.82919 | 0° | 0km/h | 442m | 0.0m/s | -36.1°C | 0.5% | 7.6hPa | 2.7V | 00:00:00 | 00:00:00 | 00:00:00 | |
| GYPAP8-17 | 2026-09-02 12:52:14 | -4.91132 | -55.31408 | 0° | 0km/h | 155m | 0.0m/s | -36.0°C | 0.5% | 7.7hPa | 2.7V | 00:00:00 | 00:00:00 | 00:00:00 | |
| SQ9EZE-13 | 2026-09-02 12:52:06 | -4.91132 | -55.31408 | 0° | 0km/h | 155m | 0.0m/s | -35.9°C | 0.6% | 7.7hPa | 2.7V | 00:00:00 | 00:00:00 | 00:00:00 | |
| SP9SOS | 2026-09-02 12:51:58 | 3.46034 | -39.78362 | 0° | 0km/h | 77m | 0.0m/s | -35.7°C | 0.5% | 7.8hPa | 2.7V | 00:00:00 | 00:00:00 | 00:00:00 | |
| SQ9EZE-13 | 2026-09-02 12:51:51 | -3.35420 | -71.36743 | 0° | 0km/h | 73m | 0.0m/s | -36.1°C | 0.5% | 7.8hPa | 2.7V | 00:00:00 | 00:00:00 | 00:00:00 | |
| SQ9EZE-13 | 2026-09-02 12:51:34 | -3.35420 | -71.36743 | 0° | 0km/h | 73m | 0.0m/s | -36.1°C | 0.5% | 8.0hPa | 2.7V | 00:00:00 | 00:00:00 | 00:00:00 | |
| SP9SOS | 2026-09-02 12:51:32 | -3.35420 | -71.36743 | 0° | 0km/h | 73m | 0.0m/s | -36.2°C | 0.5% | 8.0hPa | 2.7V | 00:00:00 | 00:00:00 | 00:00:00 | |
| SQ9EZE-13 | 2026-09-02 12:51:20 | -3.35420 | -71.36743 | 0° | 0km/h | 73m | 0.0m/s | -36.3°C | 0.5% | 8.1hPa | 2.7V | 00:00:00 | 00:00:00 | 00:00:00 | |
| HA6NAB-11 | 2026-09-02 12:51:20 | -3.35420 | -71.36743 | 0° | 0km/h | 73m | 0.0m/s | -36.3°C | 0.5% | 8.1hPa | 2.7V | 00:00:00 | 00:00:00 | 00:00:00 | |
| HA6NAB-11 | 2026-09-02 12:51:13 | -3.35420 | -71.36743 | 0° | 0km/h | 73m | 0.0m/s | -36.2°C | 0.6% | 8.1hPa | 2.7V | 00:00:00 | 00:00:00 | 00:00:00 | |
| LZ4TU-5 | 2026-09-02 12:51:08 | -3.35420 | -71.36743 | 0° | 0km/h | 73m | 0.0m/s | 0°C | 0% | 0hPa | 2.7V | 00:00:00 | 00:00:00 | 00:00:00 | |
| GYPAP8-17 | 2026-09-02 12:51:07 | -3.35420 | -71.36743 | 0° | 0km/h | 73m | 0.0m/s | -36.3°C | 0.5% | 8.2hPa | 2.7V | 00:00:00 | 00:00:00 | 00:00:00 | |
| SP9SOS | 2026-09-02 12:51:07 | -3.35420 | -71.36743 | 0° | 0km/h | 73m | 0.0m/s | -36.3°C | 0.5% | 8.2hPa | 2.7V | 00:00:00 | 00:00:00 | 00:00:00 | |
| HA6NAB-11 | 2026-09-02 12:51:06 | -3.35420 | -71.36743 | 0° | 0km/h | 73m | 0.0m/s | -36.3°C | 0.5% | 8.2hPa | 2.7V | 00:00:00 | 00:00:00 | 00:00:00 | |
| LZ4TU-5 | 2026-09-02 12:51:04 | 1.68561 | -65.57017 | 0° | 0km/h | 18m | 0.0m/s | 0°C | 0% | 0hPa | 2.7V | 00:00:00 | 00:00:00 | 00:00:00 | |
| SQ9EZE-13 | 2026-09-02 12:51:04 | 1.68561 | -65.57017 | 0° | 0km/h | 18m | 0.0m/s | -36.2°C | 0.6% | 8.2hPa | 2.7V | 00:00:00 | 00:00:00 | 00:00:00 | |
| HA6NAB-11 | 2026-09-02 12:50:57 | 1.06771 | -65.35322 | 0° | 0km/h | 7m | 0.0m/s | -36.2°C | 0.6% | 8.3hPa | 2.7V | 00:00:00 | 00:00:00 | 00:00:00 | |
| HA6NAB-11 | 2026-09-02 12:50:50 | -2.97563 | -68.76953 | 0° | 0km/h | 57m | 0.0m/s | -36.3°C | 0.5% | 8.3hPa | 2.7V | 00:00:00 | 00:00:00 | 00:00:00 | |
| SQ9EZE-13 | 2026-09-02 12:50:48 | -1.69513 | -66.94364 | 0° | 0km/h | 19m | 0.0m/s | -36.2°C | 0.5% | 8.3hPa | 2.7V | 00:00:00 | 00:00:00 | 00:00:00 | |
| SP9SOS | 2026-09-02 12:50:41 | -1.69513 | -66.94364 | 0° | 0km/h | 19m | 0.0m/s | -36.1°C | 0.5% | 8.4hPa | 2.7V | 00:00:00 | 00:00:00 | 00:00:00 | |
| HA6NAB-11 | 2026-09-02 12:50:38 | -2.97563 | -68.76953 | 0° | 0km/h | 57m | 0.0m/s | -36.2°C | 0.5% | 8.4hPa | 2.7V | 00:00:00 | 00:00:00 | 00:00:00 | |
| HA6NAB-11 | 2026-09-02 12:50:33 | -11.30984 | -71.50361 | 0° | 0km/h | 816m | 0.0m/s | -36.2°C | 0.5% | 8.5hPa | 2.7V | 00:00:00 | 00:00:00 | 00:00:00 | |
| SQ9EZE-13 | 2026-09-02 12:50:32 | -14.43179 | -74.90359 | 0° | 0km/h | 1318m | 0.0m/s | -36.2°C | 0.5% | 8.5hPa | 2.7V | 00:00:00 | 00:00:00 | 00:00:00 | |
| SQ9EZE-14 | 2026-09-02 12:50:31 | -12.87660 | -73.22218 | 0° | 0km/h | 1054m | 0.0m/s | -36.2°C | 0.5% | 8.5hPa | 2.7V | 00:00:00 | 00:00:00 | 00:00:00 | |
| HA6NAB-11 | 2026-09-02 12:50:27 | -16.42852 | -75.41726 | 0° | 0km/h | 1697m | 0.0m/s | -36.4°C | 0.5% | 8.5hPa | 2.7V | 00:00:00 | 00:00:00 | 00:00:00 | |
| HA6NAB-11 | 2026-09-02 12:50:22 | -12.89535 | -71.24752 | 0° | 0km/h | 1057m | 0.0m/s | -36.5°C | 0.5% | 8.6hPa | 2.7V | 00:00:00 | 00:00:00 | 00:00:00 | |
| SQ9EZE-13 | 2026-09-02 12:50:17 | -15.32591 | -72.62476 | 0° | 0km/h | 1482m | 0.0m/s | -36.8°C | 0.5% | 8.6hPa | 2.7V | 00:00:00 | 00:00:00 | 00:00:00 | |
| HA6NAB-11 | 2026-09-02 12:50:16 | -12.51392 | -70.80765 | 0° | 0km/h | 996m | 0.0m/s | -36.7°C | 0.5% | 8.6hPa | 2.7V | 00:00:00 | 00:00:00 | 00:00:00 | |
| SP9SOS | 2026-09-02 12:50:16 | -14.27426 | -72.86857 | 0° | 0km/h | 1290m | 0.0m/s | -36.8°C | 0.5% | 8.6hPa | 2.7V | 00:00:00 | 00:00:00 | 00:00:00 | |
| SQ9EZE-14 | 2026-09-02 12:50:16 | -14.27426 | -72.86857 | 0° | 0km/h | 1290m | 0.0m/s | -36.8°C | 0.5% | 8.6hPa | 2.7V | 00:00:00 | 00:00:00 | 00:00:00 | |
| HA6NAB-11 | 2026-09-02 12:50:09 | -11.29763 | -53.48469 | 0° | 0km/h | 814m | 0.0m/s | -37.0°C | 0.6% | 8.7hPa | 2.7V | 00:00:00 | 00:00:00 | 00:00:00 | |
| SP9SOS | 2026-09-02 12:48:59 | -39.65673 | -87.16718 | 0° | 0km/h | 8666m | 0.0m/s | -38.4°C | 0.6% | 9.2hPa | 2.7V | 00:00:00 | 00:00:00 | 00:00:00 | |
| GYPAP8-17 | 2026-09-02 12:48:51 | -32.67303 | -73.82832 | 0° | 0km/h | 6195m | 0.0m/s | -38.6°C | 0.6% | 9.3hPa | 2.7V | 00:00:00 | 00:00:00 | 00:00:00 | |
| SQ9EZE-13 | 2026-09-02 12:48:43 | -32.67303 | -73.82832 | 0° | 0km/h | 6195m | 0.0m/s | -38.6°C | 0.6% | 9.4hPa | 2.7V | 00:00:00 | 00:00:00 | 00:00:00 | |
| SP9SOS | 2026-09-02 12:48:33 | -44.23332 | -68.21011 | 0° | 0km/h | 10361m | 0.0m/s | -38.5°C | 0.6% | 9.5hPa | 2.7V | 00:00:00 | 00:00:00 | 00:00:00 | |
| SQ9EZE-13 | 2026-09-02 12:48:27 | -32.10829 | -58.30499 | 0° | 0km/h | 6005m | 0.0m/s | -38.7°C | 0.6% | 9.5hPa | 2.7V | 00:00:00 | 00:00:00 | 00:00:00 | |
| SQ9EZE-13 | 2026-09-02 12:48:11 | 22.76099 | 73.46714 | 0° | 0km/h | 3178m | 0.0m/s | -38.9°C | 0.6% | 9.7hPa | 2.7V | 00:00:00 | 00:00:00 | 00:00:00 | |
| SQ9EZE-14 | 2026-09-02 12:48:09 | -29.01654 | 45.88654 | 0° | 0km/h | 4999m | 0.0m/s | -39.0°C | 0.6% | 9.7hPa | 2.7V | 00:00:00 | 00:00:00 | 00:00:00 | |
| SP9SOS | 2026-09-02 12:48:07 | -28.42634 | 45.33340 | 0° | 0km/h | 4814m | 0.0m/s | -38.7°C | 0.6% | 9.7hPa | 2.7V | 00:00:00 | 00:00:00 | 00:00:00 | |
| SQ9EZE-13 | 2026-09-02 12:47:56 | 46.49460 | 11.26775 | 0° | 0km/h | 11205m | 0.0m/s | -39.1°C | 0.6% | 9.8hPa | 2.7V | 00:00:00 | 00:00:00 | 00:00:00 | |
| SQ9EZE-14 | 2026-09-02 12:47:54 | 46.49460 | 11.26775 | 0° | 0km/h | 11205m | 0.0m/s | -38.8°C | 0.6% | 9.8hPa | 2.7V | 00:00:00 | 00:00:00 | 00:00:00 | |
| GYPAP8-17 | 2026-09-02 12:47:44 | 46.49460 | 11.26775 | 0° | 0km/h | 11205m | 0.0m/s | -39.2°C | 0.6% | 9.9hPa | 2.7V | 00:00:00 | 00:00:00 | 00:00:00 | |
| SP9SOS | 2026-09-02 12:47:42 | 46.49460 | 11.26775 | 0° | 0km/h | 11205m | 0.0m/s | -39.1°C | 0.6% | 9.9hPa | 2.7V | 00:00:00 | 00:00:00 | 00:00:00 | |
| SQ9EZE-13 | 2026-09-02 12:47:41 | 46.49460 | 11.26775 | 0° | 0km/h | 11205m | 0.0m/s | -39.2°C | 0.6% | 10.0hPa | 2.7V | 00:00:00 | 00:00:00 | 00:00:00 | |
| SQ9EZE-13 | 2026-09-02 12:47:26 | 46.49460 | 11.26775 | 0° | 0km/h | 11205m | 0.0m/s | -39.4°C | 0.6% | 10.1hPa | 2.7V | 00:00:00 | 00:00:00 | 00:00:00 | |
| SP9SOS | 2026-09-02 12:47:17 | 46.49460 | 11.26775 | 0° | 0km/h | 11205m | 0.0m/s | -39.5°C | 0.6% | 10.2hPa | 2.7V | 00:00:00 | 00:00:00 | 00:00:00 | |
| SQ9EZE-13 | 2026-09-02 12:47:10 | 46.28162 | 11.11482 | 0° | 0km/h | 11126m | 0.0m/s | -39.6°C | 0.6% | 10.3hPa | 2.7V | 00:00:00 | 00:00:00 | 00:00:00 | |
| SQ9EZE-13 | 2026-09-02 12:46:55 | 46.78249 | 11.69616 | 0° | 0km/h | 11313m | 0.0m/s | -40.3°C | 0.6% | 10.4hPa | 2.7V | 00:00:00 | 00:00:00 | 00:00:00 | |
| SP9SOS | 2026-09-02 12:46:52 | 47.33436 | 13.67713 | 0° | 0km/h | 11518m | 0.0m/s | -40.4°C | 0.6% | 10.4hPa | 2.7V | 00:00:00 | 00:00:00 | 00:00:00 | |
| SQ9EZE-13 | 2026-09-02 12:46:40 | 46.78021 | 11.30642 | 0° | 0km/h | 11312m | 0.0m/s | -40.8°C | 0.7% | 10.6hPa | 2.7V | 00:00:00 | 00:00:00 | 00:00:00 | |
| GYPAP8-17 | 2026-09-02 12:46:30 | 47.22531 | 11.89248 | 0° | 0km/h | 11478m | 0.0m/s | -41.3°C | 0.7% | 10.7hPa | 2.7V | 00:00:00 | 00:00:00 | 00:00:00 | |
| SP9SOS | 2026-09-02 12:46:26 | 46.28048 | 21.70749 | 0° | 0km/h | 11126m | 0.0m/s | -41.2°C | 0.7% | 10.7hPa | 2.7V | 00:00:00 | 00:00:00 | 00:00:00 | |
| SQ9EZE-13 | 2026-09-02 12:46:24 | 46.35686 | 21.88290 | 0° | 0km/h | 11154m | 0.0m/s | -41.3°C | 0.7% | 10.7hPa | 2.7V | 00:00:00 | 00:00:00 | 00:00:00 | |
| SQ9EZE-13 | 2026-09-02 12:45:52 | 49.11664 | 21.05954 | 0° | 0km/h | 32058m | 0.0m/s | -41.2°C | 0.7% | 11.1hPa | 2.7V | 00:00:00 | 00:00:00 | 00:00:00 | |
| SQ9EZE-13 | 2026-09-02 12:45:36 | 49.11664 | 21.05954 | 0° | 0km/h | 32058m | 0.0m/s | -41.2°C | 0.7% | 11.3hPa | 2.7V | 00:00:00 | 00:00:00 | 00:00:00 | |
| SQ9EZE-13 | 2026-09-02 12:45:17 | 49.11664 | 21.05954 | 0° | 0km/h | 32058m | 0.0m/s | -41.4°C | 0.7% | 11.5hPa | 2.7V | 00:00:00 | 00:00:00 | 00:00:00 | |
| SP9SOS | 2026-09-02 12:45:09 | 49.11664 | 21.05954 | 0° | 0km/h | 32058m | 0.0m/s | -41.3°C | 0.7% | 11.6hPa | 2.7V | 00:00:00 | 00:00:00 | 00:00:00 | |
| SQ9EZE-13 | 2026-09-02 12:45:00 | 49.11664 | 21.05954 | 0° | 0km/h | 32058m | 0.0m/s | -41.5°C | 0.7% | 11.7hPa | 2.7V | 00:00:00 | 00:00:00 | 00:00:00 | |
| SP9SOS | 2026-09-02 12:44:44 | 49.11628 | 21.05925 | 0° | 0km/h | 31990m | 0.0m/s | -41.7°C | 0.7% | 11.8hPa | 2.7V | 00:00:00 | 00:00:00 | 00:00:00 | |
| SQ9EZE-13 | 2026-09-02 12:44:28 | 46.78919 | 13.13516 | 0° | 0km/h | 11315m | 0.0m/s | -41.7°C | 0.7% | 12.0hPa | 2.7V | 00:00:00 | 00:00:00 | 00:00:00 | |
| SP9SOS | 2026-09-02 12:44:19 | 47.44389 | 12.96896 | 0° | 0km/h | 11559m | 0.0m/s | -41.6°C | 0.7% | 12.1hPa | 2.7V | 00:00:00 | 00:00:00 | 00:00:00 | |
| SQ9EZE-13 | 2026-09-02 12:44:12 | 46.87068 | 11.32477 | 0° | 0km/h | 11345m | 0.0m/s | -41.5°C | 0.6% | 12.2hPa | 2.7V | 00:00:00 | 00:00:00 | 00:00:00 | |
| SP9SOS | 2026-09-02 12:43:54 | 47.59127 | 13.77659 | 0° | 0km/h | 11614m | 0.0m/s | -42.1°C | 0.7% | 12.4hPa | 2.7V | 00:00:00 | 00:00:00 | 00:00:00 | |
| SQ9EZE-13 | 2026-09-02 12:43:40 | 47.06399 | 11.21006 | 0° | 0km/h | 11418m | 0.0m/s | -42.6°C | 0.7% | 12.6hPa | 2.7V | 00:00:00 | 00:00:00 | 00:00:00 | |
| SP9SOS | 2026-09-02 12:43:29 | 46.95270 | 10.96622 | 0° | 0km/h | 11376m | 0.0m/s | -42.7°C | 0.7% | 12.7hPa | 2.7V | 00:00:00 | 00:00:00 | 00:00:00 | |
| SQ9EZE-13 | 2026-09-02 12:43:24 | 47.02475 | 12.10940 | 0° | 0km/h | 11403m | 0.0m/s | -42.7°C | 0.7% | 12.8hPa | 2.7V | 00:00:00 | 00:00:00 | 00:00:00 | |
| SQ9EZE-14 | 2026-09-02 12:43:18 | 46.31369 | 9.57782 | 0° | 0km/h | 11138m | 0.0m/s | -42.7°C | 0.7% | 12.8hPa | 2.7V | 00:00:00 | 00:00:00 | 00:00:00 | |
| GYPAP8-17 | 2026-09-02 12:43:16 | 47.35171 | 13.05543 | 0° | 0km/h | 11524m | 0.0m/s | -42.7°C | 0.7% | 12.9hPa | 2.7V | 00:00:00 | 00:00:00 | 00:00:00 | |
| SQ9EZE-13 | 2026-09-02 12:43:08 | 46.71871 | 10.59009 | 0° | 0km/h | 11289m | 0.0m/s | -42.9°C | 0.8% | 12.9hPa | 2.7V | 00:00:00 | 00:00:00 | 00:00:00 | |
| SQ9EZE-14 | 2026-09-02 12:43:02 | 47.68673 | 13.61183 | 0° | 0km/h | 11649m | 0.0m/s | -42.9°C | 0.7% | 13.0hPa | 2.7V | 00:00:00 | 00:00:00 | 00:00:00 | |
| SQ9EZE-13 | 2026-09-02 12:42:52 | 47.18034 | 10.99846 | 0° | 0km/h | 11461m | 0.0m/s | -43.1°C | 0.7% | 13.1hPa | 2.7V | 00:00:00 | 00:00:00 | 00:00:00 | |
| SP9SOS | 2026-09-02 12:42:38 | 46.71212 | 11.12190 | 0° | 0km/h | 11286m | 0.0m/s | -43.1°C | 0.7% | 13.3hPa | 2.7V | 00:00:00 | 00:00:00 | 00:00:00 | |
| SQ9EZE-13 | 2026-09-02 12:42:36 | 47.77019 | 14.22215 | 0° | 0km/h | 11680m | 0.0m/s | -43.1°C | 0.7% | 13.3hPa | 2.7V | 00:00:00 | 00:00:00 | 00:00:00 | |
| SQ9EZE-13 | 2026-09-02 12:42:16 | 45.72059 | 21.46266 | 0° | 0km/h | 10916m | 0.0m/s | -43.0°C | 0.7% | 13.6hPa | 2.7V | 00:00:00 | 00:00:00 | 00:00:00 | |
| SP9SOS | 2026-09-02 12:42:13 | 45.15299 | 20.30746 | 0° | 0km/h | 10705m | 0.0m/s | -42.9°C | 0.7% | 13.6hPa | 2.7V | 00:00:00 | 00:00:00 | 00:00:00 | |
| SQ9EZE-13 | 2026-09-02 12:41:56 | 45.88753 | 21.89204 | 0° | 0km/h | 10979m | 0.0m/s | -43.1°C | 0.7% | 13.8hPa | 2.7V | 00:00:00 | 00:00:00 | 00:00:00 | |
| SP9SOS | 2026-09-02 12:41:48 | 45.36220 | 20.82807 | 0° | 0km/h | 10783m | 0.0m/s | -43.1°C | 0.7% | 13.9hPa | 2.7V | 00:00:00 | 00:00:00 | 00:00:00 | |
| SQ9EZE-13 | 2026-09-02 12:41:40 | 46.81506 | 23.99713 | 0° | 0km/h | 11325m | 0.0m/s | -43.5°C | 0.7% | 14.1hPa | 2.7V | 00:00:00 | 00:00:00 | 00:00:00 | |
| SP9SOS | 2026-09-02 12:40:06 | -12.04797 | -77.04355 | 207° | 199km/h | 969m | -1.2m/s | -44.9°C | 0.8% | 15.3hPa | 2.7V | 00:00:00 | 00:00:00 | 00:00:00 | |
| SQ9EZE-13 | 2026-09-02 12:40:04 | -12.04705 | -77.04310 | 207° | 199km/h | 972m | -1.2m/s | -44.9°C | 0.8% | 15.4hPa | 2.7V | 00:00:00 | 00:00:00 | 00:00:00 | |
| OE5DRO-10 | 2026-09-02 12:39:58 | -12.04384 | -77.04154 | 206° | 199km/h | 980m | -0.9m/s | -44.9°C | 2.8% | 15.4hPa | 2.7V | 00:00:00 | 00:00:00 | 00:00:00 | |
| OE5DRO-10 | 2026-09-02 12:39:54 | -12.04200 | -77.04076 | 198° | 201km/h | 976m | -1.3m/s | -45.0°C | 2.8% | 15.5hPa | 2.7V | 00:00:00 | 00:00:00 | 00:00:00 | |
| SQ9EZE-13 | 2026-09-02 12:39:49 | -12.03948 | -77.04034 | 182° | 197km/h | 980m | 0.6m/s | -45.1°C | 0.8% | 15.6hPa | 2.7V | 00:00:00 | 00:00:00 | 00:00:00 | |
| SP9SOS | 2026-09-02 12:39:41 | -12.03601 | -77.04098 | 159° | 199km/h | 980m | 2.0m/s | -45.2°C | 0.8% | 15.7hPa | 2.7V | 00:00:00 | 00:00:00 | 00:00:00 | |
| OE5DRO-10 | 2026-09-02 12:39:41 | -12.03555 | -77.04118 | 156° | 201km/h | 979m | 0.8m/s | -45.1°C | 2.9% | 15.7hPa | 2.7V | 00:00:00 | 00:00:00 | 00:00:00 | |
| SQ9EZE-13 | 2026-09-02 12:39:32 | -12.03234 | -77.04366 | 131° | 197km/h | 979m | -0.4m/s | -45.0°C | 0.8% | 15.8hPa | 2.7V | 00:00:00 | 00:00:00 | 00:00:00 | |
| SQ9EZE-13 | 2026-09-02 12:39:17 | -12.03036 | -77.05086 | 82° | 199km/h | 977m | 0.1m/s | -45.6°C | 0.8% | 16.1hPa | 2.7V | 00:00:00 | 00:00:00 | 00:00:00 | |
| SP9SOS | 2026-09-02 12:39:15 | -12.03056 | -77.05187 | 76° | 199km/h | 977m | -0.4m/s | -45.7°C | 0.8% | 16.1hPa | 2.7V | 00:00:00 | 00:00:00 | 00:00:00 | |
| OE5DRO-10 | 2026-09-02 12:39:04 | -12.03390 | -77.05689 | 35° | 99km/h | 978m | 1.5m/s | -45.8°C | 3.0% | 16.2hPa | 2.7V | 00:00:00 | 00:00:00 | 00:00:00 | |
| GYPAP8-17 | 2026-09-02 12:39:03 | -12.03390 | -77.05688 | 35° | 208km/h | 978m | 1.5m/s | -45.9°C | 0.9% | 16.3hPa | 2.7V | 00:00:00 | 00:00:00 | 00:00:00 | |
| SQ9EZE-13 | 2026-09-02 12:39:00 | -12.03521 | -77.05770 | 27° | 197km/h | 977m | 0.5m/s | -45.9°C | 0.9% | 16.3hPa | 2.7V | 00:00:00 | 00:00:00 | 00:00:00 | |
| SP9SOS | 2026-09-02 12:38:50 | -12.04007 | -77.05868 | 355° | 195km/h | 975m | -1.3m/s | -45.8°C | 0.8% | 16.5hPa | 2.7V | 00:00:00 | 00:00:00 | 00:00:00 | |
| SQ9EZE-13 | 2026-09-02 12:38:44 | -12.04301 | -77.05790 | 337° | 201km/h | 977m | -1.7m/s | -45.9°C | 0.8% | 16.6hPa | 2.7V | 00:00:00 | 00:00:00 | 00:00:00 | |
| SQ9EZE-14 | 2026-09-02 12:38:34 | -12.04682 | -77.05462 | 305° | 199km/h | 979m | 0.9m/s | -46.0°C | 0.9% | 16.8hPa | 2.7V | 00:00:00 | 00:00:00 | 00:00:00 | |
| SQ9EZE-13 | 2026-09-02 12:38:28 | -12.04806 | -77.05182 | 285° | 199km/h | 975m | -0.0m/s | -46.1°C | 0.9% | 16.8hPa | 2.7V | 00:00:00 | 00:00:00 | 00:00:00 | |
| SP9SOS | 2026-09-02 12:38:25 | -12.04832 | -77.05031 | 268° | 208km/h | 975m | -9.5m/s | -46.1°C | 0.9% | 16.9hPa | 2.7V | 00:00:00 | 00:00:00 | 00:00:00 | |
| SQ9EZE-14 | 2026-09-02 12:38:19 | -12.04791 | -77.04675 | 253° | 199km/h | 981m | -0.2m/s | -46.1°C | 0.9% | 17.0hPa | 2.7V | 00:00:00 | 00:00:00 | 00:00:00 | |
| SQ9EZE-13 | 2026-09-02 12:38:12 | -12.04651 | -77.04401 | 234° | 199km/h | 980m | -0.2m/s | -45.9°C | 0.9% | 17.1hPa | 2.7V | 00:00:00 | 00:00:00 | 00:00:00 | |
| SP9SOS | 2026-09-02 12:38:00 | -12.04156 | -77.04064 | 195° | 199km/h | 973m | 0.2m/s | -45.9°C | 0.8% | 17.3hPa | 2.7V | 00:00:00 | 00:00:00 | 00:00:00 | |
| GYPAP8-17 | 2026-09-02 12:37:59 | 49.10158 | 21.04235 | 0° | 0km/h | 27100m | 0.0m/s | -45.9°C | 0.8% | 17.3hPa | 2.7V | 00:00:00 | 00:00:00 | 00:00:00 | |
| SQ9EZE-13 | 2026-09-02 12:37:56 | 49.10158 | 21.04235 | 0° | 0km/h | 27100m | 0.0m/s | -45.9°C | 0.8% | 17.4hPa | 2.7V | 00:00:00 | 00:00:00 | 00:00:00 | |
| SQ9EZE-13 | 2026-09-02 12:37:40 | 49.10158 | 21.04235 | 0° | 0km/h | 27100m | 0.0m/s | -46.3°C | 0.9% | 17.6hPa | 2.7V | 00:00:00 | 00:00:00 | 00:00:00 | |
| SP9SOS | 2026-09-02 12:37:34 | 49.10158 | 21.04235 | 0° | 0km/h | 27100m | 0.0m/s | -46.1°C | 0.9% | 17.7hPa | 2.7V | 00:00:00 | 00:00:00 | 00:00:00 | |
| SQ9EZE-13 | 2026-09-02 12:37:24 | 49.10168 | 21.04253 | 0° | 0km/h | 27167m | 0.0m/s | -46.4°C | 0.9% | 17.8hPa | 2.7V | 00:00:00 | 00:00:00 | 00:00:00 | |
| HA6NAB-11 | 2026-09-02 12:37:15 | 49.10168 | 21.04074 | 195° | 16km/h | 26627m | 6.8m/s | -46.1°C | 0.9% | 18.1hPa | 2.7V | 00:00:00 | 00:00:00 | 00:00:00 | |
| SP9SOS | 2026-09-02 12:37:08 | 49.10168 | 21.04253 | 0° | 0km/h | 27167m | 0.0m/s | -46.2°C | 0.9% | 18.1hPa | 2.7V | 00:00:00 | 00:00:00 | 00:00:00 | |
| SQ9EZE-13 | 2026-09-02 12:37:06 | 49.10168 | 21.04253 | 0° | 0km/h | 27167m | 0.0m/s | -46.3°C | 0.9% | 18.2hPa | 2.7V | 00:00:00 | 00:00:00 | 00:00:00 | |
| GYPAP8-17 | 2026-09-02 12:36:55 | 49.10168 | 21.04253 | 0° | 0km/h | 27167m | 0.0m/s | -46.1°C | 0.9% | 18.4hPa | 2.7V | 00:00:00 | 00:00:00 | 00:00:00 | |
| SQ9EZE-13 | 2026-09-02 12:36:50 | 49.10168 | 21.04253 | 0° | 0km/h | 27167m | 0.0m/s | -46.2°C | 0.9% | 18.5hPa | 2.7V | 00:00:00 | 00:00:00 | 00:00:00 | |
| SP9SOS | 2026-09-02 12:36:42 | 49.10168 | 21.04253 | 0° | 0km/h | 27167m | 0.0m/s | -45.9°C | 0.9% | 18.6hPa | 2.7V | 00:00:00 | 00:00:00 | 00:00:00 | |
| SQ9EZE-13 | 2026-09-02 12:36:34 | 49.10168 | 21.04253 | 0° | 0km/h | 27167m | 0.0m/s | -46.1°C | 0.9% | 18.8hPa | 2.7V | 00:00:00 | 00:00:00 | 00:00:00 | |
| SQ9EZE-13 | 2026-09-02 12:36:19 | 49.10168 | 21.04253 | 0° | 0km/h | 27167m | 0.0m/s | -46.2°C | 0.9% | 19.0hPa | 2.7V | 00:00:00 | 00:00:00 | 00:00:00 | |
| SP9SOS | 2026-09-02 12:36:17 | 49.10168 | 21.04253 | 0° | 0km/h | 27167m | 0.0m/s | -46.3°C | 0.9% | 19.1hPa | 2.7V | 00:00:00 | 00:00:00 | 00:00:00 | |
| SQ9EZE-14 | 2026-09-02 12:36:13 | 49.10168 | 21.04253 | 0° | 0km/h | 27167m | 0.0m/s | -46.4°C | 0.9% | 19.1hPa | 2.7V | 00:00:00 | 00:00:00 | 00:00:00 | |
| SQ9EZE-14 | 2026-09-02 12:35:57 | 49.10159 | 21.04237 | 52° | 5km/h | 27106m | 6.0m/s | -46.8°C | 0.9% | 19.4hPa | 2.7V | 00:00:00 | 00:00:00 | 00:00:00 | |
| SQ9EZE-13 | 2026-09-02 12:35:48 | 49.10183 | 21.04225 | 182° | 13km/h | 27036m | 6.8m/s | -46.7°C | 0.9% | 19.6hPa | 2.7V | 00:00:00 | 00:00:00 | 00:00:00 | |
| SQ9EZE-13 | 2026-09-02 12:35:32 | 49.10216 | 21.04192 | 172° | 9km/h | 26969m | 5.1m/s | -47.2°C | 0.9% | 19.9hPa | 2.7V | 00:00:00 | 00:00:00 | 00:00:00 | |
| OE5DRO-10 | 2026-09-02 12:35:06 | 49.10197 | 21.04099 | 90° | 9km/h | 26797m | 5.3m/s | -47.8°C | 3.2% | 20.4hPa | 2.7V | 00:00:00 | 00:00:00 | 00:00:00 | |
| SP9SOS | 2026-09-02 12:35:00 | 49.10189 | 21.04099 | 21° | 13km/h | 26762m | 7.0m/s | -48.0°C | 0.9% | 20.5hPa | 2.7V | 00:00:00 | 00:00:00 | 00:00:00 | |
| SQ9EZE-13 | 2026-09-02 12:34:57 | 49.10176 | 21.04086 | 31° | 13km/h | 26740m | 6.1m/s | -48.1°C | 0.9% | 20.6hPa | 2.7V | 00:00:00 | 00:00:00 | 00:00:00 | |
| OE5DRO-10 | 2026-09-02 12:34:44 | 49.10162 | 21.04077 | 44° | 11km/h | 26668m | 5.5m/s | -48.3°C | 3.3% | 20.8hPa | 2.7V | 00:00:00 | 00:00:00 | 00:00:00 | |
| GYPAP8-17 | 2026-09-02 12:34:42 | 49.10159 | 21.04073 | 38° | 16km/h | 26661m | 6.1m/s | -48.4°C | 1.0% | 20.8hPa | 2.7V | 00:00:00 | 00:00:00 | 00:00:00 | |
| SQ9EZE-13 | 2026-09-02 12:34:40 | 49.10156 | 21.04068 | 0° | 0km/h | 26650m | 6.1m/s | -48.3°C | 0.9% | 20.9hPa | 2.7V | 00:00:00 | 00:00:00 | 00:00:00 | |
| SP9SOS | 2026-09-02 12:34:35 | 49.10171 | 21.04076 | 210° | 13km/h | 26622m | 5.3m/s | -48.2°C | 1.0% | 21.0hPa | 2.7V | 00:00:00 | 00:00:00 | 00:00:00 | |
| OE5DRO-10 | 2026-09-02 12:34:25 | 49.10152 | 21.04070 | 264° | 13km/h | 26554m | 6.0m/s | -48.1°C | 3.3% | 21.2hPa | 2.7V | 00:00:00 | 00:00:00 | 00:00:00 | |
| SQ9EZE-13 | 2026-09-02 12:34:24 | 49.10152 | 21.04070 | 265° | 18km/h | 26554m | 6.1m/s | -48.2°C | 1.0% | 21.2hPa | 2.5V | 00:00:00 | 00:00:00 | 00:00:00 | |
| SP9SOS | 2026-09-02 12:34:09 | 49.10162 | 21.04109 | 249° | 13km/h | 26464m | 5.8m/s | -48.2°C | 1.0% | 21.5hPa | 2.5V | 00:00:00 | 00:00:00 | 00:00:00 | |
| SQ9EZE-13 | 2026-09-02 12:33:20 | 49.10286 | 21.04228 | 150° | 16km/h | 26168m | 7.2m/s | -48.6°C | 0.9% | 22.5hPa | 2.5V | 00:00:00 | 00:00:00 | 00:00:00 | |
| HA6NAB-11 | 2026-09-02 12:32:50 | 49.10377 | 21.04194 | 62° | 11km/h | 25990m | 5.7m/s | -48.9°C | 1.0% | 23.1hPa | 2.5V | 00:00:00 | 00:00:00 | 00:00:00 | |
| HA6NAB-11 | 2026-09-02 12:32:34 | 49.10391 | 21.04158 | 6° | 5km/h | 25895m | 5.4m/s | -49.2°C | 1.0% | 23.4hPa | 2.5V | 00:00:00 | 00:00:00 | 00:00:00 | |
| HA6NAB-11 | 2026-09-02 12:32:23 | 49.10404 | 21.04187 | 294° | 2km/h | 25828m | 5.5m/s | -49.0°C | 1.0% | 23.7hPa | 2.5V | 00:00:00 | 00:00:00 | 00:00:00 | |
| SQ9EZE-14 | 2026-09-02 12:31:30 | 49.10506 | 21.04245 | 237° | 11km/h | 25520m | 4.7m/s | -48.6°C | 1.0% | 24.8hPa | 2.5V | 00:00:00 | 00:00:00 | 00:00:00 | |
| SQ9EZE-14 | 2026-09-02 12:31:15 | 49.10550 | 21.04258 | 207° | 24km/h | 25428m | 7.0m/s | -48.7°C | 1.0% | 25.2hPa | 2.5V | 00:00:00 | 00:00:00 | 00:00:00 | |
| OE5DRO-10 | 2026-09-02 12:31:13 | 49.10565 | 21.04262 | 157° | 16km/h | 25410m | 4.6m/s | -48.8°C | 3.3% | 25.2hPa | 2.5V | 00:00:00 | 00:00:00 | 00:00:00 | |
| SQ9EZE-13 | 2026-09-02 12:31:12 | 49.10565 | 21.04262 | 158° | 13km/h | 25410m | 4.7m/s | -48.9°C | 1.0% | 25.2hPa | 2.7V | 00:00:00 | 00:00:00 | 00:00:00 | |
| SP9SOS | 2026-09-02 12:31:11 | 49.10568 | 21.04259 | 135° | 13km/h | 25404m | 6.8m/s | -48.9°C | 1.0% | 25.3hPa | 2.7V | 00:00:00 | 00:00:00 | 00:00:00 | |
| HA6NAB-11 | 2026-09-02 12:31:10 | 49.10571 | 21.04255 | 127° | 13km/h | 25399m | 5.2m/s | -49.0°C | 1.0% | 25.3hPa | 2.7V | 00:00:00 | 00:00:00 | 00:00:00 | |
| SQ9EZE-13 | 2026-09-02 12:28:11 | 49.10634 | 21.03521 | 18° | 24km/h | 24395m | 7.6m/s | -51.5°C | 1.0% | 29.6hPa | 2.7V | 00:00:00 | 00:00:00 | 00:00:00 | |
| SQ9EZE-13 | 2026-09-02 12:27:56 | 49.10527 | 21.03504 | 343° | 31km/h | 24305m | 5.3m/s | -52.2°C | 1.2% | 29.9hPa | 2.7V | 00:00:00 | 00:00:00 | 00:00:00 | |
| SQ9EZE-13 | 2026-09-02 12:27:24 | 49.10395 | 21.03595 | 314° | 18km/h | 24120m | 3.5m/s | -52.2°C | 1.1% | 30.9hPa | 2.7V | 00:00:00 | 00:00:00 | 00:00:00 | |
| SP9SOS | 2026-09-02 12:27:23 | 49.10392 | 21.03601 | 309° | 16km/h | 24117m | 5.4m/s | -52.2°C | 1.1% | 30.8hPa | 2.7V | 00:00:00 | 00:00:00 | 00:00:00 | |
| SQ9EZE-13 | 2026-09-02 12:27:08 | 49.10371 | 21.03609 | 150° | 4km/h | 24028m | 5.3m/s | -52.6°C | 1.2% | 31.3hPa | 2.7V | 00:00:00 | 00:00:00 | 00:00:00 | |
| SP9SOS | 2026-09-02 12:26:57 | 49.10349 | 21.03626 | 345° | 11km/h | 23971m | 5.2m/s | -52.3°C | 1.2% | 31.6hPa | 2.7V | 00:00:00 | 00:00:00 | 00:00:00 | |
| SQ9EZE-13 | 2026-09-02 12:26:48 | 49.10340 | 21.03612 | 196° | 4km/h | 23925m | 6.5m/s | -52.0°C | 1.2% | 31.8hPa | 2.7V | 00:00:00 | 00:00:00 | 00:00:00 | |
| SQ9EZE-14 | 2026-09-02 12:26:39 | 49.10329 | 21.03587 | 76° | 20km/h | 23867m | 7.0m/s | -52.2°C | 1.2% | 32.1hPa | 2.7V | 00:00:00 | 00:00:00 | 00:00:00 | |
| SP9SOS | 2026-09-02 12:26:32 | 49.10319 | 21.03557 | 52° | 9km/h | 23824m | 5.9m/s | -52.2°C | 1.2% | 32.3hPa | 2.7V | 00:00:00 | 00:00:00 | 00:00:00 | |
| SQ9EZE-13 | 2026-09-02 12:26:17 | 49.10287 | 21.03535 | 342° | 16km/h | 23731m | 6.9m/s | -52.9°C | 1.2% | 32.7hPa | 2.7V | 00:00:00 | 00:00:00 | 00:00:00 | |
| SP9SOS | 2026-09-02 12:25:40 | 49.10217 | 21.03521 | 56° | 11km/h | 23522m | 5.1m/s | -53.7°C | 1.2% | 33.8hPa | 2.7V | 00:00:00 | 00:00:00 | 00:00:00 | |
| SQ9EZE-13 | 2026-09-02 12:25:28 | 49.10219 | 21.03507 | 35° | 13km/h | 23454m | 6.6m/s | -53.9°C | 1.3% | 34.2hPa | 2.7V | 00:00:00 | 00:00:00 | 00:00:00 | |
| SP9SOS | 2026-09-02 12:25:15 | 49.10220 | 21.03499 | 116° | 5km/h | 23384m | 5.9m/s | -53.6°C | 1.3% | 34.6hPa | 2.7V | 00:00:00 | 00:00:00 | 00:00:00 | |
| SQ9EZE-13 | 2026-09-02 12:25:11 | 49.10217 | 21.03492 | 27° | 9km/h | 23360m | 4.9m/s | -53.5°C | 1.3% | 34.7hPa | 2.7V | 00:00:00 | 00:00:00 | 00:00:00 | |
| SQ9EZE-13 | 2026-09-02 12:24:57 | 49.10213 | 21.03473 | 180° | 4km/h | 23277m | 5.2m/s | -53.5°C | 1.3% | 35.2hPa | 2.7V | 00:00:00 | 00:00:00 | 00:00:00 | |
| SP9SOS | 2026-09-02 12:24:49 | 49.10227 | 21.03461 | 148° | 4km/h | 23237m | 5.5m/s | -53.4°C | 1.3% | 35.3hPa | 2.7V | 00:00:00 | 00:00:00 | 00:00:00 | |
| GYPAP8-17 | 2026-09-02 12:24:43 | 49.10216 | 21.03450 | 25° | 7km/h | 23205m | 4.0m/s | -53.5°C | 1.3% | 35.6hPa | 2.7V | 00:00:00 | 00:00:00 | 00:00:00 | |
| SQ9EZE-13 | 2026-09-02 12:24:40 | 49.10217 | 21.03446 | 165° | 11km/h | 23188m | 5.4m/s | -53.4°C | 1.2% | 35.6hPa | 2.7V | 00:00:00 | 00:00:00 | 00:00:00 | |
| SP9SOS | 2026-09-02 12:24:24 | 49.10245 | 21.03452 | 195° | 15km/h | 23098m | 4.2m/s | -53.2°C | 1.3% | 36.1hPa | 2.7V | 00:00:00 | 00:00:00 | 00:00:00 | |
| SQ9EZE-14 | 2026-09-02 12:24:17 | 49.10247 | 21.03455 | 318° | 7km/h | 23064m | 4.5m/s | -53.2°C | 1.3% | 36.4hPa | 2.7V | 00:00:00 | 00:00:00 | 00:00:00 | |
| SQ9EZE-13 | 2026-09-02 12:24:10 | 49.10258 | 21.03460 | 170° | 11km/h | 23019m | 6.0m/s | -53.1°C | 1.3% | 36.6hPa | 2.7V | 00:00:00 | 00:00:00 | 00:00:00 | |
| SQ9EZE-14 | 2026-09-02 12:24:02 | 49.10258 | 21.03463 | 0° | 0km/h | 22979m | 6.1m/s | -53.1°C | 1.2% | 36.8hPa | 2.7V | 00:00:00 | 00:00:00 | 00:00:00 | |
| SP9SOS | 2026-09-02 12:23:59 | 49.10263 | 21.03455 | 148° | 11km/h | 22957m | 6.3m/s | -52.8°C | 1.2% | 37.0hPa | 2.7V | 00:00:00 | 00:00:00 | 00:00:00 | |
| SQ9EZE-13 | 2026-09-02 12:23:49 | 49.10288 | 21.03430 | 144° | 9km/h | 22905m | 6.2m/s | -52.6°C | 1.2% | 37.3hPa | 2.7V | 00:00:00 | 00:00:00 | 00:00:00 | |
| GYPAP8-17 | 2026-09-02 12:23:38 | 49.10309 | 21.03378 | 149° | 15km/h | 22847m | 6.3m/s | -52.5°C | 1.2% | 37.6hPa | 2.7V | 00:00:00 | 00:00:00 | 00:00:00 | |
| SP9SOS | 2026-09-02 12:23:33 | 49.10324 | 21.03365 | 146° | 13km/h | 22819m | 5.3m/s | -52.5°C | 1.2% | 37.7hPa | 2.7V | 00:00:00 | 00:00:00 | 00:00:00 | |
| SQ9EZE-13 | 2026-09-02 12:23:32 | 49.10327 | 21.03362 | 136° | 11km/h | 22814m | 5.6m/s | -52.5°C | 1.2% | 37.8hPa | 2.7V | 00:00:00 | 00:00:00 | 00:00:00 | |
| SQ9EZE-13 | 2026-09-02 12:23:16 | 49.10371 | 21.03272 | 114° | 27km/h | 22722m | 4.3m/s | -52.2°C | 1.2% | 38.3hPa | 2.7V | 00:00:00 | 00:00:00 | 00:00:00 | |
| SP9SOS | 2026-09-02 12:23:07 | 49.10384 | 21.03185 | 119° | 22km/h | 22674m | 6.6m/s | -52.0°C | 1.2% | 38.7hPa | 2.7V | 00:00:00 | 00:00:00 | 00:00:00 | |
| SQ9EZE-13 | 2026-09-02 12:23:00 | 49.10396 | 21.03121 | 89° | 26km/h | 22636m | 6.2m/s | -52.3°C | 1.2% | 38.9hPa | 2.7V | 00:00:00 | 00:00:00 | 00:00:00 | |
| SQ9EZE-13 | 2026-09-02 12:22:43 | 49.10372 | 21.02930 | 80° | 29km/h | 22539m | 4.8m/s | -52.3°C | 1.2% | 39.4hPa | 2.7V | 00:00:00 | 00:00:00 | 00:00:00 | |
| SP9SOS | 2026-09-02 12:22:41 | 49.10370 | 21.02910 | 88° | 24km/h | 22529m | 5.0m/s | -52.4°C | 1.2% | 39.5hPa | 2.7V | 00:00:00 | 00:00:00 | 00:00:00 | |
| SQ9EZE-13 | 2026-09-02 12:22:28 | 49.10355 | 21.02794 | 95° | 26km/h | 22460m | 4.6m/s | -52.8°C | 1.2% | 39.9hPa | 2.7V | 00:00:00 | 00:00:00 | 00:00:00 | |
| SP9SOS | 2026-09-02 12:22:16 | 49.10325 | 21.02707 | 73° | 26km/h | 22394m | 5.9m/s | -52.5°C | 1.2% | 40.4hPa | 2.7V | 00:00:00 | 00:00:00 | 00:00:00 | |
| HA6NAB-11 | 2026-09-02 12:22:15 | 49.10323 | 21.02697 | 73° | 26km/h | 22389m | 4.4m/s | -52.4°C | 1.2% | 40.4hPa | 2.7V | 00:00:00 | 00:00:00 | 00:00:00 | |
| SQ9EZE-13 | 2026-09-02 12:22:12 | 49.10313 | 21.02673 | 47° | 24km/h | 22374m | 4.7m/s | -52.5°C | 1.2% | 40.5hPa | 2.7V | 00:00:00 | 00:00:00 | 00:00:00 | |
| HA6NAB-11 | 2026-09-02 12:22:09 | 49.10300 | 21.02653 | 46° | 24km/h | 22358m | 4.9m/s | -52.5°C | 1.2% | 40.6hPa | 2.7V | 00:00:00 | 00:00:00 | 00:00:00 | |
| HA6NAB-11 | 2026-09-02 12:22:03 | 49.10277 | 21.02627 | 50° | 20km/h | 22324m | 4.5m/s | -52.4°C | 1.2% | 40.8hPa | 2.7V | 00:00:00 | 00:00:00 | 00:00:00 | |
| HA6NAB-11 | 2026-09-02 12:21:58 | 49.10249 | 21.02596 | 32° | 22km/h | 22292m | 6.5m/s | -52.6°C | 1.2% | 41.0hPa | 2.7V | 00:00:00 | 00:00:00 | 00:00:00 | |
| SQ9EZE-13 | 2026-09-02 12:21:57 | 49.10244 | 21.02592 | 30° | 22km/h | 22286m | 4.9m/s | -52.5°C | 1.2% | 41.0hPa | 2.7V | 00:00:00 | 00:00:00 | 00:00:00 | |
| HA6NAB-11 | 2026-09-02 12:21:51 | 49.10219 | 21.02578 | 24° | 20km/h | 22257m | 4.9m/s | -52.3°C | 1.2% | 41.2hPa | 2.7V | 00:00:00 | 00:00:00 | 00:00:00 | |
| SP9SOS | 2026-09-02 12:21:50 | 49.10214 | 21.02575 | 25° | 24km/h | 22253m | 3.8m/s | -52.2°C | 1.2% | 41.2hPa | 2.7V | 00:00:00 | 00:00:00 | 00:00:00 | |
| HA6NAB-11 | 2026-09-02 12:21:45 | 49.10181 | 21.02556 | 23° | 26km/h | 22225m | 6.6m/s | -52.2°C | 1.2% | 41.4hPa | 2.7V | 00:00:00 | 00:00:00 | 00:00:00 | |
| SQ9EZE-13 | 2026-09-02 12:21:40 | 49.10157 | 21.02542 | 12° | 15km/h | 22197m | 6.1m/s | -52.1°C | 1.2% | 41.6hPa | 2.7V | 00:00:00 | 00:00:00 | 00:00:00 | |
| SQ9EZE-14 | 2026-09-02 12:21:36 | 49.10142 | 21.02540 | 4° | 18km/h | 22175m | 6.2m/s | -52.0°C | 1.2% | 41.8hPa | 2.7V | 00:00:00 | 00:00:00 | 00:00:00 | |
| HA6NAB-11 | 2026-09-02 12:21:33 | 49.10125 | 21.02534 | 20° | 26km/h | 22160m | 5.3m/s | -51.9°C | 1.2% | 41.8hPa | 2.7V | 00:00:00 | 00:00:00 | 00:00:00 | |
| HA6NAB-11 | 2026-09-02 12:21:27 | 49.10099 | 21.02523 | 354° | 15km/h | 22128m | 4.8m/s | -51.8°C | 1.2% | 42.1hPa | 2.7V | 00:00:00 | 00:00:00 | 00:00:00 | |
| SP9SOS | 2026-09-02 12:21:24 | 49.10090 | 21.02525 | 352° | 7km/h | 22111m | 4.8m/s | -51.6°C | 1.2% | 42.2hPa | 2.7V | 00:00:00 | 00:00:00 | 00:00:00 | |
| HA6NAB-11 | 2026-09-02 12:21:22 | 49.10083 | 21.02528 | 341° | 13km/h | 22094m | 5.1m/s | -51.6°C | 1.2% | 42.3hPa | 2.7V | 00:00:00 | 00:00:00 | 00:00:00 | |
| GYPAP8-17 | 2026-09-02 12:21:18 | 49.10072 | 21.02530 | 4° | 18km/h | 22078m | 5.4m/s | -51.6°C | 1.2% | 42.4hPa | 2.7V | 00:00:00 | 00:00:00 | 00:00:00 | |
| HA6NAB-11 | 2026-09-02 12:21:16 | 49.10062 | 21.02529 | 7° | 24km/h | 22067m | 6.5m/s | -51.6°C | 1.2% | 42.5hPa | 2.7V | 00:00:00 | 00:00:00 | 00:00:00 | |
| HA6NAB-11 | 2026-09-02 12:21:10 | 49.10036 | 21.02519 | 356° | 9km/h | 22035m | 6.3m/s | -51.4°C | 1.2% | 42.6hPa | 2.7V | 00:00:00 | 00:00:00 | 00:00:00 | |
| SQ9EZE-13 | 2026-09-02 12:21:08 | 49.10030 | 21.02527 | 303° | 13km/h | 22018m | 6.6m/s | -51.4°C | 1.2% | 42.8hPa | 2.7V | 00:00:00 | 00:00:00 | 00:00:00 | |
| SP9SOS | 2026-09-02 12:20:59 | 49.09993 | 21.02538 | 24° | 24km/h | 21974m | 4.8m/s | -51.5°C | 1.2% | 43.1hPa | 2.7V | 00:00:00 | 00:00:00 | 00:00:00 | |
| SQ9EZE-13 | 2026-09-02 12:20:52 | 49.09969 | 21.02538 | 317° | 15km/h | 21936m | 6.2m/s | -51.3°C | 1.2% | 43.3hPa | 2.7V | 00:00:00 | 00:00:00 | 00:00:00 | |
| SQ9EZE-13 | 2026-09-02 12:20:36 | 49.09937 | 21.02564 | 296° | 11km/h | 21845m | 5.5m/s | -51.0°C | 1.1% | 43.9hPa | 2.7V | 00:00:00 | 00:00:00 | 00:00:00 | |
| SP9SOS | 2026-09-02 12:20:34 | 49.09930 | 21.02576 | 324° | 15km/h | 21828m | 5.7m/s | -51.0°C | 1.1% | 44.1hPa | 2.7V | 00:00:00 | 00:00:00 | 00:00:00 | |
| SQ9EZE-13 | 2026-09-02 12:20:20 | 49.09927 | 21.02598 | 273° | 13km/h | 21758m | 7.1m/s | -51.3°C | 1.2% | 44.5hPa | 2.7V | 00:00:00 | 00:00:00 | 00:00:00 | |
| SP9SOS | 2026-09-02 12:20:07 | 49.09936 | 21.02642 | 262° | 5km/h | 21683m | 6.1m/s | -51.2°C | 1.1% | 45.1hPa | 2.7V | 00:00:00 | 00:00:00 | 00:00:00 | |
| SQ9EZE-13 | 2026-09-02 12:20:04 | 49.09937 | 21.02648 | 219° | 5km/h | 21665m | 6.2m/s | -51.2°C | 1.1% | 45.2hPa | 2.7V | 00:00:00 | 00:00:00 | 00:00:00 | |
| HA6NAB-11 | 2026-09-02 12:19:59 | 49.09944 | 21.02644 | 135° | 13km/h | 21637m | 5.6m/s | -51.0°C | 1.1% | 45.4hPa | 2.7V | 00:00:00 | 00:00:00 | 00:00:00 | |
| HA6NAB-11 | 2026-09-02 12:19:52 | 49.09958 | 21.02612 | 111° | 15km/h | 21598m | 6.7m/s | -51.2°C | 1.2% | 45.7hPa | 2.7V | 00:00:00 | 00:00:00 | 00:00:00 | |
| SQ9EZE-13 | 2026-09-02 12:19:48 | 49.09965 | 21.02595 | 130° | 9km/h | 21573m | 5.5m/s | -51.2°C | 1.1% | 45.8hPa | 2.7V | 00:00:00 | 00:00:00 | 00:00:00 | |
| HA6NAB-11 | 2026-09-02 12:19:47 | 49.09970 | 21.02589 | 149° | 13km/h | 21563m | 6.7m/s | -51.2°C | 1.1% | 45.9hPa | 2.7V | 00:00:00 | 00:00:00 | 00:00:00 | |
| SP9SOS | 2026-09-02 12:19:42 | 49.09983 | 21.02573 | 129° | 16km/h | 21540m | 5.6m/s | -51.1°C | 1.2% | 46.1hPa | 2.7V | 00:00:00 | 00:00:00 | 00:00:00 | |
| SQ9EZE-13 | 2026-09-02 12:19:32 | 49.10004 | 21.02498 | 129° | 22km/h | 21485m | 5.3m/s | -51.2°C | 1.1% | 46.4hPa | 2.7V | 00:00:00 | 00:00:00 | 00:00:00 | |
| SP9SOS | 2026-09-02 12:19:18 | 49.10015 | 21.02392 | 77° | 20km/h | 21403m | 5.3m/s | -51.9°C | 1.2% | 47.1hPa | 2.7V | 00:00:00 | 00:00:00 | 00:00:00 | |
| SQ9EZE-13 | 2026-09-02 12:19:16 | 49.10014 | 21.02384 | 70° | 20km/h | 21398m | 5.9m/s | -51.9°C | 1.1% | 47.1hPa | 2.7V | 00:00:00 | 00:00:00 | 00:00:00 | |
| SQ9EZE-14 | 2026-09-02 12:19:13 | 49.10007 | 21.02362 | 75° | 11km/h | 21375m | 5.5m/s | -52.1°C | 1.1% | 47.2hPa | 2.7V | 00:00:00 | 00:00:00 | 00:00:00 | |
| GYPAP8-17 | 2026-09-02 12:19:12 | 49.10007 | 21.02358 | 87° | 9km/h | 21370m | 4.5m/s | -52.0°C | 1.2% | 47.3hPa | 2.7V | 00:00:00 | 00:00:00 | 00:00:00 | |
| SQ9EZE-13 | 2026-09-02 12:19:01 | 49.10006 | 21.02275 | 89° | 24km/h | 21318m | 4.8m/s | -52.6°C | 1.2% | 47.7hPa | 2.7V | 00:00:00 | 00:00:00 | 00:00:00 | |
| SQ9EZE-14 | 2026-09-02 12:18:57 | 49.10010 | 21.02231 | 103° | 27km/h | 21291m | 4.9m/s | -53.0°C | 1.3% | 47.9hPa | 2.7V | 00:00:00 | 00:00:00 | 00:00:00 | |
| SP9SOS | 2026-09-02 12:18:51 | 49.10015 | 21.02186 | 88° | 20km/h | 21265m | 6.0m/s | -53.0°C | 1.3% | 48.1hPa | 2.7V | 00:00:00 | 00:00:00 | 00:00:00 | |
| SQ9EZE-13 | 2026-09-02 12:18:44 | 49.09992 | 21.02137 | 62° | 24km/h | 21228m | 5.2m/s | -52.9°C | 1.2% | 48.3hPa | 2.7V | 00:00:00 | 00:00:00 | 00:00:00 | |
| HA6NAB-11 | 2026-09-02 12:18:39 | 49.09983 | 21.02098 | 88° | 20km/h | 21202m | 5.7m/s | -52.9°C | 1.3% | 48.5hPa | 2.7V | 00:00:00 | 00:00:00 | 00:00:00 | |
| HA6NAB-11 | 2026-09-02 12:18:33 | 49.09972 | 21.02060 | 41° | 22km/h | 21170m | 5.2m/s | -52.9°C | 1.3% | 48.8hPa | 2.7V | 00:00:00 | 00:00:00 | 00:00:00 | |
| SP9SOS | 2026-09-02 12:18:26 | 49.09947 | 21.02020 | 55° | 18km/h | 21134m | 5.8m/s | -52.8°C | 1.3% | 49.1hPa | 2.7V | 00:00:00 | 00:00:00 | 00:00:00 | |
| HA6NAB-11 | 2026-09-02 12:18:21 | 49.09938 | 21.01994 | 73° | 11km/h | 21107m | 4.6m/s | -52.6°C | 1.3% | 49.3hPa | 2.7V | 00:00:00 | 00:00:00 | 00:00:00 | |
| HA6NAB-11 | 2026-09-02 12:18:15 | 49.09935 | 21.01970 | 65° | 11km/h | 21076m | 4.1m/s | -52.4°C | 1.3% | 49.5hPa | 2.7V | 00:00:00 | 00:00:00 | 00:00:00 | |
| SQ9EZE-13 | 2026-09-02 12:18:13 | 49.09932 | 21.01961 | 54° | 16km/h | 21066m | 5.0m/s | -52.4°C | 1.2% | 49.6hPa | 2.7V | 00:00:00 | 00:00:00 | 00:00:00 | |
| HA6NAB-11 | 2026-09-02 12:18:10 | 49.09923 | 21.01945 | 54° | 16km/h | 21049m | 5.2m/s | -52.3°C | 1.2% | 49.7hPa | 2.7V | 00:00:00 | 00:00:00 | 00:00:00 | |
| GYPAP8-17 | 2026-09-02 12:18:07 | 49.09914 | 21.01928 | 42° | 9km/h | 21028m | 4.8m/s | -52.2°C | 1.2% | 49.9hPa | 2.7V | 00:00:00 | 00:00:00 | 00:00:00 | |
| HA6NAB-11 | 2026-09-02 12:18:04 | 49.09911 | 21.01926 | 342° | 4km/h | 21017m | 4.5m/s | -52.1°C | 1.2% | 50.0hPa | 2.7V | 00:00:00 | 00:00:00 | 00:00:00 | |
| SP9SOS | 2026-09-02 12:18:01 | 49.09907 | 21.01926 | 23° | 9km/h | 21002m | 5.4m/s | -52.1°C | 1.2% | 50.1hPa | 2.7V | 00:00:00 | 00:00:00 | 00:00:00 | |
| HA6NAB-11 | 2026-09-02 12:17:59 | 49.09903 | 21.01921 | 39° | 11km/h | 20993m | 5.4m/s | -52.1°C | 1.2% | 50.1hPa | 2.7V | 00:00:00 | 00:00:00 | 00:00:00 | |
| SQ9EZE-13 | 2026-09-02 12:17:57 | 49.09897 | 21.01912 | 50° | 13km/h | 20978m | 4.8m/s | -52.1°C | 1.2% | 50.3hPa | 2.7V | 00:00:00 | 00:00:00 | 00:00:00 | |
| HA6NAB-11 | 2026-09-02 12:17:55 | 49.09889 | 21.01899 | 55° | 15km/h | 20962m | 4.7m/s | -52.2°C | 1.2% | 50.4hPa | 2.7V | 00:00:00 | 00:00:00 | 00:00:00 | |
| HA6NAB-11 | 2026-09-02 12:17:47 | 49.09882 | 21.01884 | 16° | 9km/h | 20932m | 4.9m/s | -52.3°C | 0% | 50.6hPa | 2.7V | 00:00:00 | 00:00:00 | 00:00:00 | |
| HA6NAB-11 | 2026-09-02 12:17:41 | 49.09869 | 21.01875 | 34° | 13km/h | 20900m | 4.7m/s | -52.4°C | 0% | 50.9hPa | 2.7V | 00:00:00 | 00:00:00 | 00:00:00 | |
| SQ9EZE-13 | 2026-09-02 12:17:38 | 49.09864 | 21.01868 | 48° | 5km/h | 20884m | 4.6m/s | -52.4°C | 1.3% | 51.0hPa | 2.7V | 00:00:00 | 00:00:00 | 00:00:00 | |
| SP9SOS | 2026-09-02 12:17:35 | 49.09860 | 21.01866 | 351° | 7km/h | 20868m | 5.5m/s | -52.3°C | 1.3% | 51.1hPa | 2.7V | 00:00:00 | 00:00:00 | 00:00:00 | |
| SQ9EZE-13 | 2026-09-02 12:17:23 | 49.09846 | 21.01896 | 278° | 9km/h | 20807m | 4.7m/s | -51.9°C | 1.2% | 51.6hPa | 2.7V | 00:00:00 | 00:00:00 | 00:00:00 | |
| SP9SOS | 2026-09-02 12:17:09 | 49.09846 | 21.01924 | 280° | 7km/h | 20733m | 5.2m/s | -51.3°C | 1.2% | 52.2hPa | 2.7V | 00:00:00 | 00:00:00 | 00:00:00 | |
| SQ9EZE-13 | 2026-09-02 12:17:08 | 49.09846 | 21.01926 | 257° | 5km/h | 20728m | 5.6m/s | -51.3°C | 1.2% | 52.2hPa | 2.7V | 00:00:00 | 00:00:00 | 00:00:00 | |
| GYPAP8-17 | 2026-09-02 12:17:03 | 49.09855 | 21.01921 | 158° | 9km/h | 20695m | 5.6m/s | -51.1°C | 1.2% | 52.5hPa | 2.7V | 00:00:00 | 00:00:00 | 00:00:00 | |
| SQ9EZE-13 | 2026-09-02 12:16:52 | 49.09866 | 21.01945 | 225° | 5km/h | 20643m | 5.9m/s | -51.1°C | 1.2% | 53.0hPa | 2.7V | 00:00:00 | 00:00:00 | 00:00:00 | |
| SQ9EZE-14 | 2026-09-02 12:16:49 | 49.09871 | 21.01942 | 144° | 13km/h | 20627m | 6.3m/s | -51.1°C | 1.1% | 53.0hPa | 2.7V | 00:00:00 | 00:00:00 | 00:00:00 | |
| SP9SOS | 2026-09-02 12:16:43 | 49.09881 | 21.01921 | 116° | 4km/h | 20594m | 6.3m/s | -51.5°C | 1.2% | 53.3hPa | 2.7V | 00:00:00 | 00:00:00 | 00:00:00 | |
| SQ9EZE-13 | 2026-09-02 12:16:36 | 49.09875 | 21.01914 | 90° | 7km/h | 20558m | 5.0m/s | -51.6°C | 1.2% | 53.6hPa | 2.7V | 00:00:00 | 00:00:00 | 00:00:00 | |
| SQ9EZE-14 | 2026-09-02 12:16:35 | 49.09875 | 21.01906 | 95° | 15km/h | 20547m | 6.3m/s | -51.5°C | 1.2% | 53.7hPa | 2.7V | 00:00:00 | 00:00:00 | 00:00:00 | |
| SQ9EZE-13 | 2026-09-02 12:16:20 | 49.09841 | 21.01842 | 39° | 22km/h | 20478m | 4.0m/s | -51.9°C | 1.2% | 54.3hPa | 2.7V | 00:00:00 | 00:00:00 | 00:00:00 | |
| SP9SOS | 2026-09-02 12:16:18 | 49.09829 | 21.01826 | 50° | 20km/h | 20463m | 4.8m/s | -52.0°C | 1.2% | 54.4hPa | 2.7V | 00:00:00 | 00:00:00 | 00:00:00 | |
| SQ9EZE-13 | 2026-09-02 12:16:04 | 49.09791 | 21.01737 | 49° | 15km/h | 20395m | 5.1m/s | -52.1°C | 1.2% | 55.0hPa | 2.7V | 00:00:00 | 00:00:00 | 00:00:00 | |
| GYPAP8-17 | 2026-09-02 12:15:58 | 49.09773 | 21.01721 | 26° | 11km/h | 20364m | 4.6m/s | -52.0°C | 1.2% | 55.3hPa | 2.7V | 00:00:00 | 00:00:00 | 00:00:00 | |
| SP9SOS | 2026-09-02 12:15:51 | 49.09764 | 21.01704 | 58° | 9km/h | 20328m | 5.7m/s | -52.1°C | 1.2% | 55.6hPa | 2.7V | 00:00:00 | 00:00:00 | 00:00:00 | |
| SQ9EZE-13 | 2026-09-02 12:15:47 | 49.09762 | 21.01693 | 109° | 9km/h | 20308m | 4.1m/s | -52.1°C | 1.2% | 55.8hPa | 2.7V | 00:00:00 | 00:00:00 | 00:00:00 | |
| SQ9EZE-13 | 2026-09-02 12:15:32 | 49.09781 | 21.01662 | 120° | 7km/h | 20233m | 5.5m/s | -52.1°C | 1.2% | 56.4hPa | 2.7V | 00:00:00 | 00:00:00 | 00:00:00 | |
| SP9SOS | 2026-09-02 12:15:26 | 49.09779 | 21.01643 | 76° | 5km/h | 20198m | 4.4m/s | -52.0°C | 1.2% | 56.7hPa | 2.7V | 00:00:00 | 00:00:00 | 00:00:00 | |
| SQ9EZE-13 | 2026-09-02 12:15:17 | 49.09801 | 21.01618 | 116° | 13km/h | 20153m | 4.6m/s | -52.3°C | 1.2% | 57.1hPa | 2.7V | 00:00:00 | 00:00:00 | 00:00:00 | |
| SP9SOS | 2026-09-02 12:15:00 | 49.09825 | 21.01545 | 118° | 13km/h | 20065m | 6.8m/s | -52.1°C | 1.2% | 57.9hPa | 2.7V | 00:00:00 | 00:00:00 | 00:00:00 | |
| GYPAP8-17 | 2026-09-02 12:14:56 | 49.09827 | 21.01537 | 88° | 7km/h | 20049m | 5.9m/s | -52.0°C | 1.2% | 58.0hPa | 2.7V | 00:00:00 | 00:00:00 | 00:00:00 | |
| SQ9EZE-13 | 2026-09-02 12:14:44 | 49.09849 | 21.01461 | 111° | 18km/h | 19987m | 6.2m/s | -52.0°C | 1.2% | 58.6hPa | 2.7V | 00:00:00 | 00:00:00 | 00:00:00 | |
| SP9SOS | 2026-09-02 12:14:33 | 49.09877 | 21.01389 | 126° | 26km/h | 19932m | 4.7m/s | -52.5°C | 1.2% | 59.1hPa | 2.7V | 00:00:00 | 00:00:00 | 00:00:00 | |
| SQ9EZE-13 | 2026-09-02 12:14:29 | 49.09892 | 21.01347 | 120° | 26km/h | 19907m | 5.8m/s | -52.8°C | 1.2% | 59.4hPa | 2.7V | 00:00:00 | 00:00:00 | 00:00:00 | |
| SQ9EZE-14 | 2026-09-02 12:14:28 | 49.09892 | 21.01347 | 120° | 26km/h | 19907m | 5.8m/s | -52.8°C | 1.2% | 59.4hPa | 2.7V | 00:00:00 | 00:00:00 | 00:00:00 | |
| HA6NAB-11 | 2026-09-02 12:14:25 | 49.09901 | 21.01319 | 112° | 27km/h | 19894m | 5.0m/s | -52.9°C | 0% | 59.5hPa | 2.7V | 00:00:00 | 00:00:00 | 00:00:00 | |
| SQ9EZE-14 | 2026-09-02 12:14:12 | 49.09925 | 21.01189 | 107° | 29km/h | 19830m | 6.1m/s | -53.4°C | 1.2% | 60.0hPa | 2.7V | 00:00:00 | 00:00:00 | 00:00:00 | |
| SP9SOS | 2026-09-02 12:14:08 | 49.09933 | 21.01142 | 101° | 31km/h | 19809m | 5.6m/s | -53.5°C | 1.3% | 60.3hPa | 2.7V | 00:00:00 | 00:00:00 | 00:00:00 | |
| SQ9EZE-13 | 2026-09-02 12:13:56 | 49.09937 | 21.00995 | 94° | 33km/h | 19749m | 6.1m/s | -53.3°C | 1.2% | 60.8hPa | 2.7V | 00:00:00 | 00:00:00 | 00:00:00 | |
| GYPAP8-17 | 2026-09-02 12:13:54 | 49.09936 | 21.00970 | 83° | 35km/h | 19738m | 5.2m/s | -53.4°C | 1.3% | 60.9hPa | 2.7V | 00:00:00 | 00:00:00 | 00:00:00 | |
| SP9SOS | 2026-09-02 12:13:42 | 49.09918 | 21.00840 | 82° | 22km/h | 19678m | 4.8m/s | -53.4°C | 1.3% | 61.5hPa | 2.7V | 00:00:00 | 00:00:00 | 00:00:00 | |
| SQ9EZE-13 | 2026-09-02 12:13:40 | 49.09916 | 21.00822 | 80° | 26km/h | 19668m | 5.2m/s | -53.4°C | 1.3% | 61.6hPa | 2.7V | 00:00:00 | 00:00:00 | 00:00:00 | |
| SQ9EZE-13 | 2026-09-02 12:13:25 | 49.09868 | 21.00692 | 51° | 27km/h | 19593m | 4.9m/s | -53.4°C | 1.3% | 62.3hPa | 2.7V | 00:00:00 | 00:00:00 | 00:00:00 | |
| SP9SOS | 2026-09-02 12:13:17 | 49.09828 | 21.00636 | 42° | 24km/h | 19553m | 4.5m/s | -53.1°C | 1.3% | 62.7hPa | 2.7V | 00:00:00 | 00:00:00 | 00:00:00 | |
| SQ9EZE-13 | 2026-09-02 12:13:09 | 49.09789 | 21.00580 | 41° | 27km/h | 19511m | 5.6m/s | -53.1°C | 1.3% | 63.1hPa | 2.7V | 00:00:00 | 00:00:00 | 00:00:00 | |
| SQ9EZE-13 | 2026-09-02 12:12:53 | 49.09726 | 21.00477 | 39° | 22km/h | 19431m | 4.1m/s | -53.0°C | 1.3% | 63.9hPa | 2.7V | 00:00:00 | 00:00:00 | 00:00:00 | |
| SP9SOS | 2026-09-02 12:12:51 | 49.09718 | 21.00467 | 46° | 20km/h | 19422m | 5.3m/s | -53.1°C | 1.3% | 64.0hPa | 2.7V | 00:00:00 | 00:00:00 | 00:00:00 | |
| GYPAP8-17 | 2026-09-02 12:12:50 | 49.09715 | 21.00461 | 51° | 18km/h | 19417m | 4.6m/s | -53.0°C | 1.3% | 64.0hPa | 2.7V | 00:00:00 | 00:00:00 | 00:00:00 | |
| SQ9EZE-13 | 2026-09-02 12:12:38 | 49.09690 | 21.00406 | 61° | 16km/h | 19357m | 4.4m/s | -53.4°C | 1.3% | 64.7hPa | 2.7V | 00:00:00 | 00:00:00 | 00:00:00 | |
| SP9SOS | 2026-09-02 12:12:26 | 49.09686 | 21.00360 | 146° | 11km/h | 19300m | 3.8m/s | -53.6°C | 1.3% | 65.2hPa | 2.7V | 00:00:00 | 00:00:00 | 00:00:00 | |
| SQ9EZE-13 | 2026-09-02 12:12:23 | 49.09692 | 21.00353 | 140° | 11km/h | 19287m | 3.9m/s | -53.5°C | 1.3% | 65.3hPa | 2.7V | 00:00:00 | 00:00:00 | 00:00:00 | |
| SQ9EZE-13 | 2026-09-02 12:12:07 | 49.09708 | 21.00245 | 108° | 20km/h | 19211m | 3.5m/s | -53.8°C | 1.3% | 66.1hPa | 2.7V | 00:00:00 | 00:00:00 | 00:00:00 | |
| SQ9EZE-14 | 2026-09-02 12:12:06 | 49.09709 | 21.00237 | 101° | 18km/h | 19208m | 3.9m/s | -53.9°C | 1.3% | 66.2hPa | 2.7V | 00:00:00 | 00:00:00 | 00:00:00 | |
| SP9SOS | 2026-09-02 12:12:00 | 49.09705 | 21.00208 | 68° | 16km/h | 19179m | 4.4m/s | -54.1°C | 1.3% | 66.5hPa | 2.7V | 00:00:00 | 00:00:00 | 00:00:00 | |
| SQ9EZE-13 | 2026-09-02 12:11:51 | 49.09681 | 21.00126 | 50° | 22km/h | 19138m | 3.6m/s | -54.2°C | 1.4% | 66.9hPa | 2.7V | 00:00:00 | 00:00:00 | 00:00:00 | |
| SQ9EZE-14 | 2026-09-02 12:11:50 | 49.09677 | 21.00120 | 48° | 20km/h | 19134m | 4.8m/s | -54.3°C | 1.4% | 67.0hPa | 2.7V | 00:00:00 | 00:00:00 | 00:00:00 | |
| GYPAP8-17 | 2026-09-02 12:11:47 | 49.09667 | 21.00103 | 50° | 20km/h | 19119m | 4.9m/s | -54.3°C | 1.4% | 67.1hPa | 2.7V | 00:00:00 | 00:00:00 | 00:00:00 | |
| SQ9EZE-13 | 2026-09-02 12:11:36 | 49.09639 | 21.00046 | 60° | 11km/h | 19065m | 4.6m/s | -53.9°C | 1.3% | 67.7hPa | 2.7V | 00:00:00 | 00:00:00 | 00:00:00 | |
| SP9SOS | 2026-09-02 12:11:34 | 49.09635 | 21.00037 | 56° | 18km/h | 19054m | 4.4m/s | -53.9°C | 1.4% | 67.7hPa | 2.7V | 00:00:00 | 00:00:00 | 00:00:00 | |
| OE3JTB-15 | 2026-09-02 12:11:21 | 49.09616 | 20.99980 | 60° | 9km/h | 18986m | 4.8m/s | -53.6°C | 4.1% | 68.5hPa | 2.7V | 00:00:00 | 00:00:00 | 00:00:00 | |
| SP9SOS | 2026-09-02 12:11:08 | 49.09610 | 20.99946 | 98° | 9km/h | 18926m | 4.9m/s | -53.2°C | 1.3% | 69.1hPa | 2.6V | 00:00:00 | 00:00:00 | 00:00:00 | |
| SQ9EZE-13 | 2026-09-02 12:11:05 | 49.09612 | 20.99934 | 96° | 11km/h | 18911m | 6.0m/s | -53.2°C | 1.3% | 69.3hPa | 2.6V | 00:00:00 | 00:00:00 | 00:00:00 | |
| OE3JTB-15 | 2026-09-02 12:10:51 | 49.09625 | 20.99879 | 106° | 16km/h | 18835m | 6.0m/s | -53.3°C | 4.1% | 70.1hPa | 2.6V | 00:00:00 | 00:00:00 | 00:00:00 | |
| SQ9EZE-13 | 2026-09-02 12:10:49 | 49.09626 | 20.99873 | 117° | 15km/h | 18830m | 4.3m/s | -53.3°C | 1.4% | 70.2hPa | 2.6V | 00:00:00 | 00:00:00 | 00:00:00 | |
| GYPAP8-17 | 2026-09-02 12:10:43 | 49.09636 | 20.99854 | 133° | 11km/h | 18800m | 4.9m/s | -53.2°C | 1.3% | 70.5hPa | 2.6V | 00:00:00 | 00:00:00 | 00:00:00 | |
| SP9SOS | 2026-09-02 12:10:42 | 49.09638 | 20.99850 | 124° | 9km/h | 18795m | 5.6m/s | -53.1°C | 1.4% | 70.6hPa | 2.6V | 00:00:00 | 00:00:00 | 00:00:00 | |
| SQ9EZE-13 | 2026-09-02 12:10:33 | 49.09651 | 20.99797 | 112° | 15km/h | 18748m | 5.4m/s | -52.7°C | 1.3% | 71.1hPa | 2.6V | 00:00:00 | 00:00:00 | 00:00:00 | |
| OE3JTB-15 | 2026-09-02 12:10:22 | 49.09667 | 20.99724 | 111° | 46km/h | 18685m | 5.4m/s | -52.4°C | 3.9% | 71.7hPa | 2.6V | 00:00:00 | 01:32:07 | 00:00:00 | |
| SP9SOS | 2026-09-02 12:10:17 | 49.09674 | 20.99691 | 96° | 18km/h | 18665m | 6.2m/s | -52.5°C | 1.3% | 72.0hPa | 2.6V | 00:00:00 | 00:00:00 | 00:00:00 | |
| SQ9EZE-13 | 2026-09-02 12:10:01 | 49.09687 | 20.99558 | 98° | 26km/h | 18581m | 4.3m/s | -53.3°C | 1.3% | 73.0hPa | 2.6V | 00:00:00 | 00:00:00 | 00:00:00 | |
| SP9SOS | 2026-09-02 12:09:52 | 49.09709 | 20.99470 | 117° | 29km/h | 18536m | 4.9m/s | -53.4°C | 1.3% | 73.4hPa | 2.6V | 00:00:00 | 00:00:00 | 00:00:00 | |
| SQ9EZE-13 | 2026-09-02 12:09:45 | 49.09725 | 20.99376 | 105° | 42km/h | 18500m | 5.7m/s | -53.3°C | 1.4% | 73.9hPa | 2.6V | 00:00:00 | 00:00:00 | 00:00:00 | |
| SQ9EZE-14 | 2026-09-02 12:09:44 | 49.09727 | 20.99360 | 108° | 42km/h | 18494m | 5.0m/s | -53.3°C | 1.3% | 73.9hPa | 2.6V | 00:00:00 | 00:00:00 | 00:00:00 | |
| GYPAP8-17 | 2026-09-02 12:09:39 | 49.09745 | 20.99293 | 118° | 33km/h | 18467m | 4.1m/s | -53.2°C | 1.4% | 74.3hPa | 2.6V | 00:00:00 | 00:00:00 | 00:00:00 | |
| SQ9EZE-13 | 2026-09-02 12:09:31 | 49.09768 | 20.99147 | 100° | 46km/h | 18424m | 5.9m/s | -53.1°C | 1.3% | 74.7hPa | 2.6V | 00:00:00 | 00:00:00 | 00:00:00 | |
| SQ9EZE-14 | 2026-09-02 12:09:28 | 49.09772 | 20.99114 | 101° | 40km/h | 18414m | 4.8m/s | -53.1°C | 1.3% | 74.9hPa | 2.6V | 00:00:00 | 00:00:00 | 00:00:00 | |
| SP9SOS | 2026-09-02 12:09:26 | 49.09777 | 20.99086 | 109° | 37km/h | 18404m | 4.2m/s | -53.1°C | 1.4% | 75.0hPa | 2.6V | 00:00:00 | 00:00:00 | 00:00:00 | |
| HA6NAB-11 | 2026-09-02 12:09:16 | 49.09790 | 20.98915 | 91° | 46km/h | 18357m | 5.1m/s | 0°C | 0% | 75.6hPa | 2.6V | 00:00:00 | 00:00:00 | 00:00:00 | |
| SQ9EZE-13 | 2026-09-02 12:09:14 | 49.09791 | 20.98882 | 96° | 40km/h | 18348m | 4.6m/s | -52.9°C | 1.3% | 75.7hPa | 2.6V | 00:00:00 | 00:00:00 | 00:00:00 | |
| HA6NAB-11 | 2026-09-02 12:09:11 | 49.09793 | 20.98837 | 98° | 38km/h | 18333m | 4.6m/s | 0°C | 0% | 75.9hPa | 2.6V | 00:00:00 | 00:00:00 | 00:00:00 | |
| HA6NAB-11 | 2026-09-02 12:09:05 | 49.09800 | 20.98749 | 92° | 40km/h | 18305m | 4.4m/s | 0°C | 0% | 76.1hPa | 2.6V | 00:00:00 | 00:00:00 | 00:00:00 | |
| SP9SOS | 2026-09-02 12:09:00 | 49.09804 | 20.98677 | 94° | 33km/h | 18280m | 4.5m/s | -52.7°C | 1.3% | 76.4hPa | 2.6V | 00:00:00 | 00:00:00 | 00:00:00 | |
| SQ9EZE-13 | 2026-09-02 12:08:58 | 49.09805 | 20.98652 | 101° | 33km/h | 18271m | 5.1m/s | -52.6°C | 1.3% | 76.6hPa | 2.6V | 00:00:00 | 00:00:00 | 00:00:00 | |
| HA6NAB-11 | 2026-09-02 12:08:52 | 49.09810 | 20.98573 | 90° | 38km/h | 18243m | 4.2m/s | 0°C | 0% | 76.9hPa | 2.6V | 00:00:00 | 00:00:00 | 00:00:00 | |
| HA6NAB-11 | 2026-09-02 12:08:48 | 49.09809 | 20.98510 | 93° | 27km/h | 18221m | 4.5m/s | 0°C | 0% | 77.1hPa | 2.6V | 00:00:00 | 00:00:00 | 00:00:00 | |
| SQ9EZE-13 | 2026-09-02 12:08:42 | 49.09815 | 20.98464 | 100° | 24km/h | 18197m | 4.5m/s | -52.0°C | 1.3% | 77.4hPa | 2.6V | 00:00:00 | 00:00:00 | 00:00:00 | |
| HA6NAB-11 | 2026-09-02 12:08:41 | 49.09816 | 20.98455 | 99° | 26km/h | 18192m | 4.8m/s | 0°C | 0% | 77.5hPa | 2.6V | 00:00:00 | 00:00:00 | 00:00:00 | |
| GYPAP8-17 | 2026-09-02 12:08:36 | 49.09814 | 20.98399 | 82° | 31km/h | 18168m | 4.0m/s | -51.8°C | 1.3% | 77.8hPa | 2.6V | 00:00:00 | 00:00:00 | 00:00:00 | |
| SP9SOS | 2026-09-02 12:08:34 | 49.09811 | 20.98376 | 84° | 29km/h | 18158m | 4.4m/s | -51.8°C | 1.3% | 77.9hPa | 2.6V | 00:00:00 | 00:00:00 | 00:00:00 | |
| SQ9EZE-13 | 2026-09-02 12:08:27 | 49.09815 | 20.98313 | 107° | 20km/h | 18127m | 4.1m/s | -51.8°C | 1.3% | 78.3hPa | 2.6V | 00:00:00 | 00:00:00 | 00:00:00 | |
| SQ9EZE-13 | 2026-09-02 12:08:11 | 49.09805 | 20.98162 | 90° | 27km/h | 18058m | 5.1m/s | -51.7°C | 1.3% | 79.1hPa | 2.6V | 00:00:00 | 00:00:00 | 00:00:00 | |
| SP9SOS | 2026-09-02 12:08:08 | 49.09805 | 20.98132 | 89° | 20km/h | 18042m | 5.9m/s | -51.6°C | 1.3% | 79.3hPa | 2.6V | 00:00:00 | 00:00:00 | 00:00:00 | |
| SQ9EZE-13 | 2026-09-02 12:07:56 | 49.09809 | 20.98074 | 96° | 24km/h | 17986m | 3.7m/s | -51.2°C | 1.3% | 80.0hPa | 2.6V | 00:00:00 | 00:00:00 | 00:00:00 | |
| SP9SOS | 2026-09-02 12:07:42 | 49.09819 | 20.97972 | 93° | 24km/h | 17912m | 4.7m/s | -51.0°C | 1.2% | 80.9hPa | 2.6V | 00:00:00 | 00:00:00 | 00:00:00 | |
| SQ9EZE-13 | 2026-09-02 12:07:41 | 49.09819 | 20.97964 | 100° | 20km/h | 17906m | 5.9m/s | -51.0°C | 1.2% | 81.0hPa | 2.6V | 00:00:00 | 00:00:00 | 00:00:00 | |
| GYPAP8-17 | 2026-09-02 12:07:31 | 49.09835 | 20.97875 | 107° | 26km/h | 17852m | 5.5m/s | -51.7°C | 1.3% | 81.7hPa | 2.6V | 00:00:00 | 00:00:00 | 00:00:00 | |
| SQ9EZE-13 | 2026-09-02 12:07:25 | 49.09844 | 20.97790 | 113° | 46km/h | 17820m | 4.8m/s | -51.9°C | 1.3% | 82.1hPa | 2.6V | 00:00:00 | 00:00:00 | 00:00:00 | |
| SQ9EZE-14 | 2026-09-02 12:07:23 | 49.09855 | 20.97760 | 121° | 44km/h | 17812m | 4.3m/s | -51.9°C | 1.3% | 82.2hPa | 2.6V | 00:00:00 | 00:00:00 | 00:00:00 | |
| SP9SOS | 2026-09-02 12:07:17 | 49.09875 | 20.97678 | 102° | 33km/h | 17783m | 5.6m/s | -51.8°C | 1.3% | 82.5hPa | 2.6V | 00:00:00 | 00:00:00 | 00:00:00 | |
| SQ9EZE-13 | 2026-09-02 12:07:09 | 49.09887 | 20.97552 | 100° | 42km/h | 17743m | 4.7m/s | -51.7°C | 1.3% | 83.1hPa | 2.6V | 00:00:00 | 00:00:00 | 00:00:00 | |
| SQ9EZE-14 | 2026-09-02 12:07:08 | 49.09889 | 20.97536 | 98° | 44km/h | 17738m | 5.0m/s | -51.7°C | 1.3% | 83.2hPa | 2.6V | 00:00:00 | 00:00:00 | 00:00:00 | |
| SQ9EZE-13 | 2026-09-02 12:06:54 | 49.09893 | 20.97312 | 93° | 49km/h | 17667m | 4.9m/s | -51.9°C | 1.3% | 84.0hPa | 2.6V | 00:00:00 | 00:00:00 | 00:00:00 | |
| SQ9EZE-13 | 2026-09-02 12:06:39 | 49.09892 | 20.97022 | 99° | 49km/h | 17597m | 4.6m/s | -52.4°C | 1.4% | 84.9hPa | 2.6V | 00:00:00 | 00:00:00 | 00:00:00 | |
| GYPAP8-17 | 2026-09-02 12:06:29 | 49.09899 | 20.96803 | 94° | 60km/h | 17548m | 5.5m/s | -52.5°C | 1.3% | 85.6hPa | 2.6V | 00:00:00 | 00:00:00 | 00:00:00 | |
| SP9SOS | 2026-09-02 12:06:26 | 49.09903 | 20.96732 | 95° | 62km/h | 17533m | 5.8m/s | -52.4°C | 1.3% | 85.8hPa | 2.6V | 00:00:00 | 00:00:00 | 00:00:00 | |
| SQ9EZE-13 | 2026-09-02 12:06:23 | 49.09904 | 20.96662 | 91° | 58km/h | 17519m | 5.8m/s | -52.3°C | 1.3% | 86.0hPa | 2.6V | 00:00:00 | 00:00:00 | 00:00:00 | |
| SQ9EZE-13 | 2026-09-02 12:06:07 | 49.09892 | 20.96312 | 94° | 60km/h | 17441m | 4.9m/s | -52.9°C | 1.4% | 87.1hPa | 2.6V | 00:00:00 | 00:00:00 | 00:00:00 | |
| SP9SOS | 2026-09-02 12:06:01 | 49.09891 | 20.96164 | 83° | 42km/h | 17407m | 5.6m/s | -53.1°C | 1.4% | 87.5hPa | 2.6V | 00:00:00 | 00:00:00 | 00:00:00 | |
| SQ9EZE-13 | 2026-09-02 12:05:52 | 49.09883 | 20.96032 | 91° | 47km/h | 17369m | 4.7m/s | -53.2°C | 1.4% | 88.0hPa | 2.6V | 00:00:00 | 00:00:00 | 00:00:00 | |
| SQ9EZE-13 | 2026-09-02 12:05:36 | 49.09901 | 20.95752 | 101° | 58km/h | 17295m | 3.5m/s | -53.6°C | 1.4% | 89.1hPa | 2.6V | 00:00:00 | 00:00:00 | 00:00:00 | |
| SP9SOS | 2026-09-02 12:05:34 | 49.09906 | 20.95708 | 96° | 58km/h | 17286m | 5.7m/s | -53.7°C | 1.4% | 89.2hPa | 2.6V | 00:00:00 | 00:00:00 | 00:00:00 | |
| GYPAP8-17 | 2026-09-02 12:05:25 | 49.09913 | 20.95533 | 96° | 53km/h | 17244m | 4.3m/s | -53.8°C | 1.5% | 89.8hPa | 2.6V | 00:00:00 | 00:00:00 | 00:00:00 | |
| SQ9EZE-13 | 2026-09-02 12:05:20 | 49.09914 | 20.95425 | 92° | 58km/h | 17220m | 4.7m/s | -53.8°C | 1.4% | 90.1hPa | 2.6V | 00:00:00 | 00:00:00 | 00:00:00 | |
| SP9SOS | 2026-09-02 12:05:09 | 49.09904 | 20.95195 | 82° | 46km/h | 17168m | 5.6m/s | -53.8°C | 1.5% | 90.9hPa | 2.6V | 00:00:00 | 00:00:00 | 00:00:00 | |
| SQ9EZE-13 | 2026-09-02 12:05:03 | 49.09896 | 20.95087 | 85° | 55km/h | 17141m | 5.4m/s | -53.8°C | 1.5% | 91.2hPa | 2.6V | 00:00:00 | 00:00:00 | 00:00:00 | |
| SQ9EZE-14 | 2026-09-02 12:04:57 | 49.09882 | 20.94946 | 79° | 60km/h | 17113m | 4.4m/s | -53.7°C | 1.5% | 91.6hPa | 2.6V | 00:00:00 | 00:00:00 | 00:00:00 | |
| SQ9EZE-13 | 2026-09-02 12:04:47 | 49.09842 | 20.94750 | 74° | 58km/h | 17067m | 4.4m/s | -53.6°C | 1.5% | 92.3hPa | 2.6V | 00:00:00 | 00:00:00 | 00:00:00 | |
| SP9SOS | 2026-09-02 12:04:44 | 49.09831 | 20.94687 | 74° | 53km/h | 17053m | 5.1m/s | -53.5°C | 1.5% | 92.5hPa | 2.6V | 00:00:00 | 00:00:00 | 00:00:00 | |
| SQ9EZE-14 | 2026-09-02 12:04:41 | 49.09819 | 20.94635 | 72° | 44km/h | 17038m | 5.6m/s | -53.7°C | 1.5% | 92.7hPa | 2.6V | 00:00:00 | 00:00:00 | 00:00:00 | |
| SQ9EZE-13 | 2026-09-02 12:04:32 | 49.09778 | 20.94477 | 73° | 51km/h | 16997m | 5.3m/s | -53.5°C | 1.5% | 93.3hPa | 2.6V | 00:00:00 | 00:00:00 | 00:00:00 | |
| GYPAP8-17 | 2026-09-02 12:04:22 | 49.09747 | 20.94317 | 75° | 47km/h | 16947m | 5.9m/s | -53.3°C | 1.5% | 94.0hPa | 2.6V | 00:00:00 | 00:00:00 | 00:00:00 | |
| SP9SOS | 2026-09-02 12:04:18 | 49.09736 | 20.94246 | 83° | 46km/h | 16926m | 4.0m/s | -53.1°C | 1.5% | 94.3hPa | 2.6V | 00:00:00 | 00:00:00 | 00:00:00 | |
| SQ9EZE-13 | 2026-09-02 12:04:16 | 49.09732 | 20.94212 | 79° | 46km/h | 16916m | 5.9m/s | -53.2°C | 1.5% | 94.5hPa | 2.6V | 00:00:00 | 00:00:00 | 00:00:00 | |
| SQ9EZE-13 | 2026-09-02 12:04:01 | 49.09711 | 20.93942 | 95° | 49km/h | 16835m | 7.8m/s | -53.6°C | 1.5% | 95.7hPa | 2.6V | 00:00:00 | 00:00:00 | 00:00:00 | |
| SP9SOS | 2026-09-02 12:03:53 | 49.09711 | 20.93774 | 85° | 57km/h | 16787m | 6.8m/s | -53.4°C | 1.5% | 96.4hPa | 2.6V | 00:00:00 | 00:00:00 | 00:00:00 | |
| SQ9EZE-13 | 2026-09-02 12:03:44 | 49.09697 | 20.93596 | 95° | 51km/h | 16733m | 2.3m/s | -53.2°C | 1.5% | 97.3hPa | 2.6V | 00:00:00 | 00:00:00 | 00:00:00 | |
| SQ9EZE-13 | 2026-09-02 12:03:28 | 49.09659 | 20.93326 | 85° | 55km/h | 16643m | 10.7m/s | -52.7°C | 1.4% | 98.6hPa | 2.6V | 00:00:00 | 00:00:00 | 00:00:00 | |
| SP9SOS | 2026-09-02 12:03:27 | 49.09657 | 20.93306 | 83° | 53km/h | 16635m | 5.8m/s | -52.7°C | 1.4% | 98.8hPa | 2.6V | 00:00:00 | 00:00:00 | 00:00:00 | |
| GYPAP8-17 | 2026-09-02 12:03:19 | 49.09619 | 20.93184 | 59° | 49km/h | 16576m | 4.1m/s | -52.9°C | 1.5% | 99.6hPa | 2.6V | 00:00:00 | 00:00:00 | 00:00:00 | |
| SQ9EZE-13 | 2026-09-02 12:03:13 | 49.09591 | 20.93100 | 65° | 31km/h | 16538m | 9.5m/s | -52.9°C | 1.5% | 100.2hPa | 2.6V | 00:00:00 | 00:00:00 | 00:00:00 | |
| SQ9EZE-13 | 2026-09-02 12:02:57 | 49.09536 | 20.92867 | 76° | 53km/h | 16441m | 6.6m/s | -53.9°C | 1.6% | 101.7hPa | 2.6V | 00:00:00 | 00:00:00 | 00:00:00 | |
| SQ9EZE-13 | 2026-09-02 12:02:41 | 49.09490 | 20.92550 | 82° | 57km/h | 16354m | 6.3m/s | -53.4°C | 1.6% | 103.1hPa | 2.6V | 00:00:00 | 00:00:00 | 00:00:00 | |
| SQ9EZE-14 | 2026-09-02 12:02:38 | 49.09481 | 20.92467 | 81° | 53km/h | 16330m | 7.1m/s | -53.5°C | 1.6% | 103.5hPa | 2.6V | 00:00:00 | 00:00:00 | 00:00:00 | |
| SP9SOS | 2026-09-02 12:02:37 | 49.09478 | 20.92447 | 82° | 49km/h | 16324m | 5.0m/s | -53.5°C | 1.7% | 103.7hPa | 2.6V | 00:00:00 | 00:00:00 | 00:00:00 | |
| SQ9EZE-14 | 2026-09-02 12:02:22 | 49.09447 | 20.92150 | 80° | 57km/h | 16239m | 5.5m/s | -53.0°C | 1.6% | 105.0hPa | 2.6V | 00:00:00 | 00:00:00 | 00:00:00 | |
| GYPAP8-17 | 2026-09-02 12:02:17 | 49.09430 | 20.92056 | 78° | 49km/h | 16210m | 5.3m/s | -52.9°C | 1.6% | 105.4hPa | 2.6V | 00:00:00 | 00:00:00 | 00:00:00 | |
| SP9SOS | 2026-09-02 12:02:10 | 49.09425 | 20.91934 | 91° | 58km/h | 16176m | 6.5m/s | -52.9°C | 1.6% | 106.1hPa | 2.6V | 00:00:00 | 00:00:00 | 00:00:00 | |
| SQ9EZE-13 | 2026-09-02 12:01:54 | 49.09405 | 20.91613 | 82° | 49km/h | 16088m | 5.2m/s | -53.5°C | 1.8% | 107.5hPa | 2.6V | 00:00:00 | 00:00:00 | 00:00:00 | |
| SP9SOS | 2026-09-02 12:01:46 | 49.09384 | 20.91440 | 76° | 53km/h | 16039m | 5.8m/s | -53.5°C | 1.7% | 108.3hPa | 2.6V | 00:00:00 | 00:00:00 | 00:00:00 | |
| SQ9EZE-13 | 2026-09-02 12:01:39 | 49.09372 | 20.91314 | 91° | 58km/h | 16004m | 7.1m/s | -53.3°C | 1.8% | 108.9hPa | 2.6V | 00:00:00 | 00:00:00 | 00:00:00 | |
| HA6NAB-11 | 2026-09-02 12:01:37 | 49.09371 | 20.91249 | 89° | 57km/h | 15989m | 5.3m/s | 0°C | 0% | 109.1hPa | 2.6V | 00:00:00 | 00:00:00 | 00:00:00 | |
| HA6NAB-11 | 2026-09-02 12:01:31 | 49.09368 | 20.91140 | 89° | 60km/h | 15965m | 3.2m/s | 0°C | 0% | 109.6hPa | 2.6V | 00:00:00 | 00:00:00 | 00:00:00 | |
| SQ9EZE-13 | 2026-09-02 12:01:24 | 49.09360 | 20.90952 | 86° | 57km/h | 15923m | 5.6m/s | -53.3°C | 1.8% | 110.2hPa | 2.6V | 00:00:00 | 00:00:00 | 00:00:00 | |
| SP9SOS | 2026-09-02 12:01:20 | 49.09356 | 20.90873 | 85° | 51km/h | 15901m | 4.6m/s | -53.2°C | 1.7% | 110.7hPa | 2.6V | 00:00:00 | 00:00:00 | 00:00:00 | |
| GYPAP8-17 | 2026-09-02 12:01:14 | 49.09341 | 20.90741 | 76° | 62km/h | 15868m | 5.5m/s | -53.3°C | 1.7% | 111.3hPa | 2.6V | 00:00:00 | 00:00:00 | 00:00:00 | |
| SQ9EZE-13 | 2026-09-02 12:01:07 | 49.09321 | 20.90619 | 77° | 47km/h | 15836m | 5.3m/s | -53.0°C | 1.7% | 111.8hPa | 2.6V | 00:00:00 | 00:00:00 | 00:00:00 | |
| SP9SOS | 2026-09-02 12:00:53 | 49.09287 | 20.90339 | 87° | 49km/h | 15757m | 4.2m/s | -52.8°C | 1.7% | 113.2hPa | 2.6V | 00:00:00 | 00:00:00 | 00:00:00 | |
| SQ9EZE-13 | 2026-09-02 12:00:51 | 49.09285 | 20.90302 | 88° | 47km/h | 15746m | 7.0m/s | -52.9°C | 1.7% | 113.4hPa | 2.6V | 00:00:00 | 00:00:00 | 00:00:00 | |
| SQ9EZE-13 | 2026-09-02 12:00:36 | 49.09278 | 20.89998 | 91° | 55km/h | 15667m | 4.9m/s | -52.5°C | 1.6% | 114.8hPa | 2.6V | 00:00:00 | 00:00:00 | 00:00:00 | |
| SP9SOS | 2026-09-02 12:00:29 | 49.09281 | 20.89829 | 98° | 64km/h | 15621m | 5.9m/s | -52.3°C | 1.6% | 115.5hPa | 2.6V | 00:00:00 | 00:00:00 | 00:00:00 | |
| SQ9EZE-13 | 2026-09-02 12:00:20 | 49.09287 | 20.89635 | 84° | 60km/h | 15584m | 6.8m/s | -52.6°C | 1.7% | 116.3hPa | 2.6V | 00:00:00 | 00:00:00 | 00:00:00 | |
| SQ9EZE-14 | 2026-09-02 12:00:17 | 49.09280 | 20.89564 | 83° | 62km/h | 15565m | 4.8m/s | -52.7°C | 1.7% | 116.6hPa | 2.6V | 00:00:00 | 00:00:00 | 00:00:00 | |
| GYPAP8-17 | 2026-09-02 12:00:10 | 49.09280 | 20.89379 | 94° | 69km/h | 15528m | 6.9m/s | -52.7°C | 1.7% | 117.2hPa | 2.6V | 00:00:00 | 00:00:00 | 00:00:00 | |
| SQ9EZE-13 | 2026-09-02 12:00:05 | 49.09282 | 20.89253 | 89° | 60km/h | 15500m | 7.4m/s | -52.8°C | 1.7% | 117.7hPa | 2.6V | 00:00:00 | 00:00:00 | 00:00:00 | |
| SQ9EZE-14 | 2026-09-02 12:00:01 | 49.09275 | 20.89165 | 83° | 53km/h | 15474m | 6.0m/s | -52.5°C | 1.6% | 118.2hPa | 2.6V | 00:00:00 | 00:00:00 | 00:00:00 | |
| SQ9EZE-13 | 2026-09-02 11:59:49 | 49.09224 | 20.88923 | 72° | 47km/h | 15406m | 4.2m/s | -52.2°C | 1.6% | 119.5hPa | 2.6V | 00:00:00 | 00:00:00 | 00:00:00 | |
| SP9SOS | 2026-09-02 11:59:38 | 49.09182 | 20.88707 | 61° | 42km/h | 15334m | 4.4m/s | -51.7°C | 1.6% | 120.8hPa | 2.6V | 00:00:00 | 00:00:00 | 00:00:00 | |
| SQ9EZE-13 | 2026-09-02 11:59:35 | 49.09159 | 20.88652 | 67° | 47km/h | 15313m | 4.8m/s | -51.5°C | 1.6% | 121.2hPa | 2.6V | 00:00:00 | 00:00:00 | 00:00:00 | |
| SP9SOS | 2026-09-02 11:59:11 | 49.09077 | 20.88280 | 66° | 49km/h | 15183m | 4.5m/s | -50.8°C | 1.5% | 123.6hPa | 2.6V | 00:00:00 | 00:00:00 | 00:00:00 | |
| GYPAP8-17 | 2026-09-02 11:59:06 | 49.09068 | 20.88210 | 98° | 35km/h | 15152m | 6.3m/s | -50.6°C | 1.5% | 124.2hPa | 2.6V | 00:00:00 | 00:00:00 | 00:00:00 | |
| SQ9EZE-13 | 2026-09-02 11:59:01 | 49.09066 | 20.88119 | 86° | 60km/h | 15117m | 7.2m/s | -50.3°C | 1.5% | 125.0hPa | 2.6V | 00:00:00 | 00:00:00 | 00:00:00 | |
| SP9SOS | 2026-09-02 11:58:46 | 49.09049 | 20.87821 | 93° | 57km/h | 15021m | 4.8m/s | -50.5°C | 1.5% | 126.8hPa | 2.6V | 00:00:00 | 00:00:00 | 00:00:00 | |
| SQ9EZE-13 | 2026-09-02 11:58:45 | 49.09049 | 20.87799 | 89° | 58km/h | 15016m | 6.1m/s | -50.6°C | 1.5% | 126.9hPa | 2.6V | 00:00:00 | 00:00:00 | 00:00:00 | |
| SQ9EZE-13 | 2026-09-02 11:58:29 | 49.09047 | 20.87425 | 90° | 71km/h | 14943m | 4.1m/s | -51.1°C | 1.6% | 128.3hPa | 2.6V | 00:00:00 | 00:00:00 | 00:00:00 | |
| SP9SOS | 2026-09-02 11:58:20 | 49.09043 | 20.87197 | 92° | 60km/h | 14900m | 4.7m/s | -51.4°C | 1.6% | 129.2hPa | 2.6V | 00:00:00 | 00:00:00 | 00:00:00 | |
| SQ9EZE-13 | 2026-09-02 11:58:12 | 49.09038 | 20.87013 | 83° | 55km/h | 14862m | 4.7m/s | -51.6°C | 1.6% | 129.9hPa | 2.6V | 00:00:00 | 00:00:00 | 00:00:00 | |
| GYPAP8-17 | 2026-09-02 11:58:03 | 49.09016 | 20.86814 | 85° | 64km/h | 14820m | 5.6m/s | -51.7°C | 1.6% | 130.8hPa | 2.6V | 00:00:00 | 00:00:00 | 00:00:00 | |
| SQ9EZE-14 | 2026-09-02 11:57:58 | 49.09005 | 20.86666 | 82° | 64km/h | 14790m | 5.8m/s | -51.6°C | 1.6% | 131.4hPa | 2.6V | 00:00:00 | 00:00:00 | 00:00:00 | |
| SQ9EZE-13 | 2026-09-02 11:57:55 | 49.08999 | 20.86619 | 80° | 60km/h | 14780m | 5.6m/s | -51.5°C | 1.6% | 131.5hPa | 2.6V | 00:00:00 | 00:00:00 | 00:00:00 | |
| SP9SOS | 2026-09-02 11:57:54 | 49.08997 | 20.86596 | 80° | 60km/h | 14775m | 4.5m/s | -51.5°C | 1.6% | 131.6hPa | 2.6V | 00:00:00 | 00:00:00 | 00:00:00 | |
| OE3JTB-15 | 2026-09-02 11:57:49 | 49.08980 | 20.86449 | 83° | 75km/h | 14746m | 4.4m/s | -51.3°C | 4.0% | 132.3hPa | 2.6V | 00:00:00 | 00:00:00 | 00:00:00 | |
| SQ9EZE-14 | 2026-09-02 11:57:42 | 49.08960 | 20.86257 | 83° | 73km/h | 14713m | 4.2m/s | -51.8°C | 1.6% | 132.9hPa | 2.7V | 00:00:00 | 00:00:00 | 00:00:00 | |
| SQ9EZE-13 | 2026-09-02 11:57:41 | 49.08958 | 20.86230 | 84° | 69km/h | 14708m | 5.7m/s | -51.9°C | 1.7% | 133.0hPa | 2.7V | 00:00:00 | 00:00:00 | 00:00:00 | |
| SP9SOS | 2026-09-02 11:57:29 | 49.08935 | 20.85918 | 83° | 86km/h | 14658m | 4.6m/s | -51.6°C | 1.7% | 134.1hPa | 2.7V | 00:00:00 | 00:00:00 | 00:00:00 | |
| SQ9EZE-13 | 2026-09-02 11:57:26 | 49.08923 | 20.85796 | 81° | 75km/h | 14639m | 4.3m/s | -51.5°C | 1.6% | 134.5hPa | 2.7V | 00:00:00 | 00:00:00 | 00:00:00 | |
| OE3JTB-15 | 2026-09-02 11:57:20 | 49.08903 | 20.85631 | 79° | 71km/h | 14611m | 3.7m/s | -51.3°C | 4.0% | 135.0hPa | 2.7V | 00:00:00 | 00:00:00 | 00:00:00 | |
| SQ9EZE-13 | 2026-09-02 11:57:11 | 49.08869 | 20.85380 | 80° | 69km/h | 14571m | 3.4m/s | -51.0°C | 1.7% | 135.9hPa | 2.7V | 00:00:00 | 00:00:00 | 00:00:00 | |
| SP9SOS | 2026-09-02 11:57:03 | 49.08843 | 20.85190 | 80° | 73km/h | 14540m | 4.4m/s | -50.8°C | 1.6% | 136.5hPa | 2.7V | 00:00:00 | 00:00:00 | 00:00:00 | |
| GYPAP8-17 | 2026-09-02 11:57:00 | 49.08834 | 20.85108 | 83° | 71km/h | 14527m | 4.2m/s | -50.7°C | 1.6% | 136.8hPa | 2.7V | 00:00:00 | 00:00:00 | 00:00:00 | |
| SQ9EZE-13 | 2026-09-02 11:56:55 | 49.08816 | 20.84950 | 80° | 68km/h | 14501m | 4.1m/s | -50.6°C | 1.6% | 137.4hPa | 2.7V | 00:00:00 | 00:00:00 | 00:00:00 | |
| HA6NAB-11 | 2026-09-02 11:56:51 | 49.08803 | 20.84872 | 76° | 71km/h | 14488m | 3.9m/s | 0°C | 0% | 137.6hPa | 2.7V | 00:00:00 | 00:00:00 | 00:00:00 | |
| HA6NAB-11 | 2026-09-02 11:56:44 | 49.08776 | 20.84692 | 84° | 69km/h | 14458m | 4.0m/s | 0°C | 0% | 138.3hPa | 2.7V | 00:00:00 | 00:00:00 | 00:00:00 | |
| SQ9EZE-13 | 2026-09-02 11:56:40 | 49.08763 | 20.84562 | 80° | 64km/h | 14437m | 4.7m/s | -50.9°C | 1.6% | 138.8hPa | 2.7V | 00:00:00 | 00:00:00 | 00:00:00 | |
| SP9SOS | 2026-09-02 11:56:37 | 49.08755 | 20.84514 | 74° | 64km/h | 14427m | 5.8m/s | -51.2°C | 1.6% | 139.0hPa | 2.7V | 00:00:00 | 00:00:00 | 00:00:00 | |
| SQ9EZE-13 | 2026-09-02 11:56:24 | 49.08713 | 20.84179 | 80° | 68km/h | 14368m | 3.9m/s | -51.6°C | 1.7% | 140.2hPa | 2.7V | 00:00:00 | 00:00:00 | 00:00:00 | |
| SP9SOS | 2026-09-02 11:56:12 | 49.08667 | 20.83920 | 78° | 58km/h | 14319m | 5.0m/s | -51.6°C | 1.7% | 141.3hPa | 2.7V | 00:00:00 | 00:00:00 | 00:00:00 | |
| SQ9EZE-13 | 2026-09-02 11:56:08 | 49.08657 | 20.83832 | 83° | 58km/h | 14300m | 4.7m/s | -51.6°C | 1.7% | 141.7hPa | 2.7V | 00:00:00 | 00:00:00 | 00:00:00 | |
| GYPAP8-17 | 2026-09-02 11:55:56 | 49.08625 | 20.83569 | 84° | 57km/h | 14245m | 4.7m/s | -51.4°C | 1.7% | 142.8hPa | 2.7V | 00:00:00 | 00:00:00 | 00:00:00 | |
| SQ9EZE-13 | 2026-09-02 11:55:51 | 49.08619 | 20.83451 | 88° | 62km/h | 14223m | 4.9m/s | -51.8°C | 1.8% | 143.4hPa | 2.7V | 00:00:00 | 00:00:00 | 00:00:00 | |
| SP9SOS | 2026-09-02 11:55:46 | 49.08616 | 20.83331 | 89° | 62km/h | 14200m | 4.1m/s | -51.7°C | 1.8% | 143.9hPa | 2.7V | 00:00:00 | 00:00:00 | 00:00:00 | |
| SQ9EZE-14 | 2026-09-02 11:55:38 | 49.08607 | 20.83108 | 89° | 69km/h | 14161m | 5.2m/s | -51.7°C | 1.7% | 144.8hPa | 2.7V | 00:00:00 | 00:00:00 | 00:00:00 | |
| SQ9EZE-13 | 2026-09-02 11:55:35 | 49.08607 | 20.83053 | 90° | 73km/h | 14153m | 3.7m/s | -51.7°C | 1.8% | 144.9hPa | 2.7V | 00:00:00 | 00:00:00 | 00:00:00 | |
| SQ9EZE-14 | 2026-09-02 11:55:22 | 49.08601 | 20.82640 | 88° | 80km/h | 14095m | 4.1m/s | -51.8°C | 1.8% | 146.2hPa | 2.7V | 00:00:00 | 00:00:00 | 00:00:00 | |
| SQ9EZE-13 | 2026-09-02 11:55:20 | 49.08600 | 20.82609 | 88° | 78km/h | 14091m | 5.0m/s | -51.8°C | 1.8% | 146.3hPa | 2.7V | 00:00:00 | 00:00:00 | 00:00:00 | |
| SQ9EZE-13 | 2026-09-02 11:55:04 | 49.08579 | 20.82107 | 86° | 77km/h | 14022m | 4.1m/s | -51.6°C | 1.8% | 147.9hPa | 2.7V | 00:00:00 | 00:00:00 | 00:00:00 | |
| SP9SOS | 2026-09-02 11:54:54 | 49.08557 | 20.81793 | 83° | 82km/h | 13983m | 3.9m/s | -51.3°C | 1.7% | 148.8hPa | 2.7V | 00:00:00 | 00:00:00 | 00:00:00 | |
| GYPAP8-17 | 2026-09-02 11:54:52 | 49.08552 | 20.81732 | 85° | 78km/h | 13974m | 4.6m/s | -51.3°C | 1.7% | 149.0hPa | 2.7V | 00:00:00 | 00:00:00 | 00:00:00 | |
| SQ9EZE-13 | 2026-09-02 11:54:49 | 49.08542 | 20.81612 | 82° | 80km/h | 13959m | 3.8m/s | -51.2°C | 1.7% | 149.3hPa | 2.7V | 00:00:00 | 00:00:00 | 00:00:00 | |
| HA6NAB-11 | 2026-09-02 11:54:39 | 49.08504 | 20.81340 | 76° | 82km/h | 13920m | 4.7m/s | 0°C | 0% | 150.3hPa | 2.7V | 00:00:00 | 00:00:00 | 00:00:00 | |
| HA6NAB-11 | 2026-09-02 11:54:34 | 49.08480 | 20.81190 | 78° | 80km/h | 13897m | 5.4m/s | 0°C | 0% | 150.8hPa | 2.7V | 00:00:00 | 00:00:00 | 00:00:00 | |
| SQ9EZE-13 | 2026-09-02 11:54:33 | 49.08471 | 20.81131 | 79° | 78km/h | 13889m | 3.6m/s | -51.3°C | 1.7% | 151.0hPa | 2.7V | 00:00:00 | 00:00:00 | 00:00:00 | |
| HA6NAB-11 | 2026-09-02 11:54:28 | 49.08455 | 20.81019 | 76° | 75km/h | 13870m | 4.3m/s | 0°C | 0% | 151.4hPa | 2.7V | 00:00:00 | 00:00:00 | 00:00:00 | |
| HA6NAB-11 | 2026-09-02 11:54:22 | 49.08425 | 20.80858 | 78° | 73km/h | 13845m | 3.7m/s | 0°C | 0% | 152.0hPa | 2.7V | 00:00:00 | 00:00:00 | 00:00:00 | |
| SQ9EZE-13 | 2026-09-02 11:54:17 | 49.08405 | 20.80717 | 77° | 78km/h | 13824m | 3.7m/s | -50.9°C | 1.7% | 152.5hPa | 2.7V | 00:00:00 | 00:00:00 | 00:00:00 | |
| SQ9EZE-13 | 2026-09-02 11:54:01 | 49.08329 | 20.80250 | 79° | 82km/h | 13759m | 4.9m/s | -51.2°C | 1.7% | 154.1hPa | 2.7V | 00:00:00 | 00:00:00 | 00:00:00 | |
| HA6NAB-11 | 2026-09-02 11:53:50 | 49.08280 | 20.79888 | 76° | 73km/h | 13709m | 3.6m/s | 0°C | 0% | 155.2hPa | 2.7V | 00:00:00 | 00:00:00 | 00:00:00 | |
| GYPAP8-17 | 2026-09-02 11:53:48 | 49.08275 | 20.79860 | 77° | 75km/h | 13705m | 4.3m/s | -51.3°C | 1.8% | 155.3hPa | 2.7V | 00:00:00 | 00:00:00 | 00:00:00 | |
| SQ9EZE-13 | 2026-09-02 11:53:46 | 49.08264 | 20.79774 | 82° | 78km/h | 13692m | 4.6m/s | -51.4°C | 1.8% | 155.6hPa | 2.7V | 00:00:00 | 00:00:00 | 00:00:00 | |
| SP9SOS | 2026-09-02 11:53:31 | 49.08224 | 20.79358 | 80° | 77km/h | 13634m | 4.8m/s | -51.4°C | 1.8% | 157.0hPa | 2.7V | 00:00:00 | 00:00:00 | 00:00:00 | |
| SQ9EZE-14 | 2026-09-02 11:53:16 | 49.08150 | 20.78926 | 75° | 73km/h | 13572m | 4.2m/s | -51.1°C | 1.8% | 158.6hPa | 2.7V | 00:00:00 | 00:00:00 | 00:00:00 | |
| SQ9EZE-13 | 2026-09-02 11:53:14 | 49.08135 | 20.78844 | 78° | 75km/h | 13559m | 4.3m/s | -50.9°C | 1.8% | 158.9hPa | 2.7V | 00:00:00 | 00:00:00 | 00:00:00 | |
| SP9SOS | 2026-09-02 11:53:05 | 49.08093 | 20.78626 | 69° | 69km/h | 13524m | 3.2m/s | -50.8°C | 1.8% | 159.7hPa | 2.7V | 00:00:00 | 00:00:00 | 00:00:00 | |
| SQ9EZE-13 | 2026-09-02 11:52:53 | 49.08028 | 20.78301 | 75° | 66km/h | 13469m | 4.3m/s | -51.2°C | 1.8% | 161.1hPa | 2.7V | 00:00:00 | 00:00:00 | 00:00:00 | |
| GYPAP8-17 | 2026-09-02 11:52:47 | 49.08003 | 20.78181 | 75° | 64km/h | 13447m | 4.3m/s | -51.3°C | 1.9% | 161.6hPa | 2.7V | 00:00:00 | 00:00:00 | 00:00:00 | |
| SQ9EZE-13 | 2026-09-02 11:52:34 | 49.07948 | 20.77834 | 77° | 66km/h | 13390m | 3.9m/s | -51.4°C | 1.9% | 163.1hPa | 2.7V | 00:00:00 | 00:00:00 | 00:00:00 | |
| SP9SOS | 2026-09-02 11:52:31 | 49.07935 | 20.77741 | 77° | 60km/h | 13372m | 4.5m/s | -51.3°C | 1.9% | 163.5hPa | 2.7V | 00:00:00 | 00:00:00 | 00:00:00 | |
| OE3JTB-15 | 2026-09-02 11:52:23 | 49.07916 | 20.77532 | 86° | 71km/h | 13340m | 4.8m/s | -51.3°C | 4.3% | 164.2hPa | 2.7V | 00:00:00 | 01:14:08 | 00:00:00 | |
| SQ9EZE-13 | 2026-09-02 11:52:16 | 49.07907 | 20.77381 | 86° | 62km/h | 13315m | 4.5m/s | -51.3°C | 2.0% | 164.9hPa | 2.7V | 00:00:00 | 00:00:00 | 00:00:00 | |
| SQ9EZE-13 | 2026-09-02 11:52:00 | 49.07886 | 20.76935 | 85° | 73km/h | 13249m | 4.9m/s | -51.1°C | 2.1% | 166.5hPa | 2.7V | 00:00:00 | 00:00:00 | 00:00:00 | |
| OE3JTB-15 | 2026-09-02 11:51:54 | 49.07873 | 20.76749 | 84° | 73km/h | 13219m | 3.9m/s | -50.9°C | 4.4% | 167.4hPa | 2.7V | 00:00:00 | 00:00:00 | 08:30:00 | |
| SQ9EZE-13 | 2026-09-02 11:51:45 | 49.07856 | 20.76529 | 83° | 69km/h | 13187m | 3.8m/s | -50.8°C | 2.1% | 168.2hPa | 2.7V | 00:00:00 | 00:00:00 | 00:00:00 | |
| GYPAP8-17 | 2026-09-02 11:51:44 | 49.07853 | 20.76502 | 83° | 71km/h | 13184m | 4.0m/s | -50.8°C | 2.1% | 168.3hPa | 2.7V | 00:00:00 | 00:00:00 | 00:00:00 | |
| SQ9EZE-13 | 2026-09-02 11:51:27 | 49.07805 | 20.76003 | 80° | 71km/h | 13110m | 4.8m/s | -51.5°C | 2.4% | 170.2hPa | 2.7V | 00:00:00 | 00:00:00 | 00:00:00 | |
| OE3JTB-15 | 2026-09-02 11:51:25 | 49.07798 | 20.75948 | 81° | 78km/h | 13102m | 3.7m/s | -51.5°C | 4.8% | 170.3hPa | 2.7V | 00:00:00 | 00:00:00 | 00:00:00 | |
| HA6NAB-11 | 2026-09-02 11:51:24 | 49.07798 | 20.75948 | 81° | 73km/h | 13102m | 3.7m/s | 0°C | 0% | 170.4hPa | 2.7V | 00:00:00 | 00:00:00 | 00:00:00 | |
| SQ9EZE-14 | 2026-09-02 11:51:21 | 49.07788 | 20.75860 | 82° | 78km/h | 13090m | 4.6m/s | -51.6°C | 2.5% | 170.8hPa | 2.7V | 00:00:00 | 00:00:00 | 00:00:00 | |
| HA6NAB-11 | 2026-09-02 11:51:19 | 49.07782 | 20.75800 | 82° | 80km/h | 13082m | 3.9m/s | 0°C | 0% | 171.0hPa | 2.7V | 00:00:00 | 00:00:00 | 00:00:00 | |
| SP9SOS | 2026-09-02 11:51:15 | 49.07767 | 20.75679 | 79° | 77km/h | 13065m | 3.7m/s | -51.6°C | 2.6% | 171.3hPa | 2.7V | 00:00:00 | 00:00:00 | 00:00:00 | |
| HA6NAB-11 | 2026-09-02 11:51:12 | 49.07754 | 20.75594 | 75° | 75km/h | 13053m | 3.9m/s | 0°C | 0% | 171.7hPa | 2.7V | 00:00:00 | 00:00:00 | 00:00:00 | |
| SQ9EZE-13 | 2026-09-02 11:51:11 | 49.07743 | 20.75540 | 74° | 73km/h | 13045m | 4.2m/s | -51.6°C | 2.6% | 171.9hPa | 2.7V | 00:00:00 | 00:00:00 | 00:00:00 | |
| HA6NAB-11 | 2026-09-02 11:51:07 | 49.07727 | 20.75453 | 76° | 82km/h | 13032m | 3.4m/s | 0°C | 0% | 172.2hPa | 2.7V | 00:00:00 | 00:00:00 | 00:00:00 | |
| SQ9EZE-14 | 2026-09-02 11:51:05 | 49.07717 | 20.75391 | 77° | 82km/h | 13024m | 4.2m/s | -51.7°C | 2.6% | 172.4hPa | 2.7V | 00:00:00 | 00:00:00 | 00:00:00 | |
| HA6NAB-11 | 2026-09-02 11:51:01 | 49.07697 | 20.75273 | 76° | 75km/h | 13007m | 4.2m/s | 0°C | 0% | 172.9hPa | 2.7V | 00:00:00 | 00:00:00 | 00:00:00 | |
| OE3JTB-15 | 2026-09-02 11:50:56 | 49.07662 | 20.75098 | 72° | 84km/h | 12984m | 4.8m/s | -51.9°C | 5.1% | 173.5hPa | 2.7V | 00:00:00 | 01:12:41 | 00:00:00 | |
| HA6NAB-11 | 2026-09-02 11:50:51 | 49.07638 | 20.74978 | 75° | 78km/h | 12967m | 3.6m/s | 0°C | 0% | 174.0hPa | 2.7V | 00:00:00 | 00:00:00 | 00:00:00 | |
| HA6NAB-11 | 2026-09-02 11:50:45 | 49.07608 | 20.74804 | 77° | 82km/h | 12944m | 4.4m/s | 0°C | 0% | 174.6hPa | 2.7V | 00:00:00 | 00:00:00 | 00:00:00 | |
| GYPAP8-17 | 2026-09-02 11:50:40 | 49.07584 | 20.74644 | 78° | 88km/h | 12924m | 4.8m/s | -52.3°C | 2.9% | 175.1hPa | 2.7V | 00:00:00 | 00:00:00 | 00:00:00 | |
| OE3JTB-15 | 2026-09-02 11:50:27 | 49.07524 | 20.74192 | 80° | 80km/h | 12869m | 3.4m/s | -52.0°C | 5.4% | 176.6hPa | 2.7V | 00:00:00 | 00:00:00 | 00:00:00 | |
| OE3JTB-15 | 2026-09-02 11:49:57 | 49.07373 | 20.73309 | 77° | 77km/h | 12751m | 3.4m/s | -52.5°C | 5.7% | 179.8hPa | 2.7V | 00:00:00 | 00:00:00 | 00:00:00 | |
| GYPAP8-17 | 2026-09-02 11:49:37 | 49.07290 | 20.72799 | 79° | 73km/h | 12678m | 5.0m/s | -52.7°C | 3.3% | 181.9hPa | 2.7V | 00:00:00 | 00:00:00 | 00:00:00 | |
| SQ9EZE-13 | 2026-09-02 11:49:10 | 49.07155 | 20.71986 | 74° | 86km/h | 12566m | 5.4m/s | -52.5°C | 3.4% | 185.1hPa | 2.7V | 00:00:00 | 00:00:00 | 00:00:00 | |
| SP9SOS | 2026-09-02 11:48:52 | 49.07068 | 20.71435 | 77° | 80km/h | 12490m | 4.7m/s | -52.5°C | 3.8% | 187.3hPa | 2.7V | 00:00:00 | 00:00:00 | 00:00:00 | |
| SQ9EZE-14 | 2026-09-02 11:48:45 | 49.07036 | 20.71232 | 75° | 75km/h | 12464m | 4.4m/s | -52.5°C | 3.8% | 188.1hPa | 2.7V | 00:00:00 | 00:00:00 | 00:00:00 | |
| HA6NAB-11 | 2026-09-02 11:48:42 | 49.07023 | 20.71149 | 80° | 73km/h | 12452m | 4.2m/s | 0°C | 0% | 188.5hPa | 2.7V | 00:00:00 | 00:00:00 | 00:00:00 | |
| SQ9EZE-13 | 2026-09-02 11:48:40 | 49.07017 | 20.71092 | 82° | 75km/h | 12444m | 4.7m/s | -52.2°C | 3.7% | 188.6hPa | 2.7V | 00:00:00 | 00:00:00 | 00:00:00 | |
| HA6NAB-11 | 2026-09-02 11:48:37 | 49.07008 | 20.71007 | 82° | 75km/h | 12430m | 4.6m/s | 0°C | 0% | 189.0hPa | 2.7V | 00:00:00 | 00:00:00 | 00:00:00 | |
| HA6NAB-11 | 2026-09-02 11:48:31 | 49.06985 | 20.70830 | 78° | 77km/h | 12406m | 3.9m/s | 0°C | 0% | 189.8hPa | 2.7V | 00:00:00 | 00:00:00 | 00:00:00 | |
| SQ9EZE-14 | 2026-09-02 11:48:29 | 49.06976 | 20.70773 | 78° | 77km/h | 12398m | 4.8m/s | -52.3°C | 4.1% | 190.0hPa | 2.7V | 00:00:00 | 00:00:00 | 00:00:00 | |
| SQ9EZE-13 | 2026-09-02 11:48:25 | 49.06953 | 20.70630 | 76° | 78km/h | 12377m | 4.5m/s | -52.5°C | 4.2% | 190.6hPa | 2.7V | 00:00:00 | 00:00:00 | 00:00:00 | |
| GYPAP8-17 | 2026-09-02 11:48:21 | 49.06936 | 20.70540 | 73° | 82km/h | 12364m | 5.1m/s | -52.8°C | 4.4% | 191.0hPa | 2.7V | 00:00:00 | 00:00:00 | 00:00:00 | |
| SQ9EZE-13 | 2026-09-02 11:48:09 | 49.06869 | 20.70168 | 75° | 80km/h | 12310m | 3.7m/s | -53.6°C | 5.3% | 192.6hPa | 2.7V | 00:00:00 | 00:00:00 | 00:00:00 | |
| SP9SOS | 2026-09-02 11:47:59 | 49.06817 | 20.69898 | 76° | 78km/h | 12273m | 4.1m/s | -53.6°C | 5.2% | 193.7hPa | 2.7V | 00:00:00 | 00:00:00 | 00:00:00 | |
| SQ9EZE-13 | 2026-09-02 11:47:54 | 49.06792 | 20.69712 | 81° | 86km/h | 12247m | 4.4m/s | -53.6°C | 5.2% | 194.5hPa | 2.7V | 00:00:00 | 00:00:00 | 00:00:00 | |
| SQ9EZE-13 | 2026-09-02 11:47:37 | 49.06739 | 20.69204 | 84° | 88km/h | 12179m | 3.6m/s | -53.1°C | 5.4% | 196.6hPa | 2.7V | 00:00:00 | 00:00:00 | 00:00:00 | |
| OE3JTB-15 | 2026-09-02 11:47:34 | 49.06730 | 20.69072 | 84° | 82km/h | 12161m | 4.4m/s | -53.0°C | 8.1% | 197.0hPa | 2.7V | 00:00:00 | 00:00:00 | 00:00:00 | |
| SQ9EZE-13 | 2026-09-02 11:47:23 | 49.06702 | 20.68725 | 84° | 88km/h | 12113m | 4.7m/s | -52.8°C | 5.5% | 198.6hPa | 2.7V | 00:00:00 | 00:00:00 | 00:00:00 | |
| GYPAP8-17 | 2026-09-02 11:47:17 | 49.06688 | 20.68560 | 82° | 84km/h | 12092m | 3.8m/s | -52.7°C | 5.8% | 199.3hPa | 2.7V | 00:00:00 | 00:00:00 | 00:00:00 | |
| SP9SOS | 2026-09-02 11:47:08 | 49.06656 | 20.68262 | 85° | 88km/h | 12052m | 4.2m/s | 0°C | 0% | 200.6hPa | 2.7V | 00:00:00 | 00:00:00 | 00:00:00 | |
| SQ9EZE-13 | 2026-09-02 11:47:04 | 49.06643 | 20.68131 | 81° | 84km/h | 12034m | 5.2m/s | -52.8°C | 6.2% | 201.0hPa | 2.7V | 00:00:00 | 00:00:00 | 00:00:00 | |
| OE3JTB-15 | 2026-09-02 11:47:03 | 49.06635 | 20.68068 | 78° | 82km/h | 12024m | 4.8m/s | -52.6°C | 9.1% | 201.3hPa | 2.7V | 00:00:00 | 00:00:00 | 00:00:00 | |
| HA6NAB-11 | 2026-09-02 11:46:53 | 49.06608 | 20.67793 | 85° | 77km/h | 11983m | 5.3m/s | 0°C | 0% | 202.7hPa | 2.7V | 00:00:00 | 00:00:00 | 00:00:00 | |
| SQ9EZE-13 | 2026-09-02 11:46:49 | 49.06588 | 20.67656 | 78° | 71km/h | 11959m | 6.7m/s | -53.1°C | 7.0% | 203.5hPa | 2.7V | 00:00:00 | 00:00:00 | 00:00:00 | |
| HA6NAB-11 | 2026-09-02 11:46:48 | 49.06588 | 20.67656 | 78° | 71km/h | 11959m | 6.7m/s | 0°C | 0% | 0hPa | 2.7V | 00:00:00 | 00:00:00 | 00:00:00 | |
| SQ9EZE-13 | 2026-09-02 11:46:33 | 49.06505 | 20.67206 | 75° | 78km/h | 11883m | 4.9m/s | -52.7°C | 7.3% | 205.8hPa | 2.7V | 00:00:00 | 00:00:00 | 00:00:00 | |
| SQ9EZE-14 | 2026-09-02 11:46:25 | 49.06460 | 20.67001 | 72° | 80km/h | 11851m | 4.0m/s | -52.7°C | 7.6% | 206.9hPa | 2.7V | 00:00:00 | 00:00:00 | 00:00:00 | |
| SQ9EZE-13 | 2026-09-02 11:46:16 | 49.06401 | 20.66732 | 70° | 84km/h | 11814m | 4.8m/s | -52.5°C | 7.9% | 208.1hPa | 2.7V | 00:00:00 | 00:00:00 | 00:00:00 | |
| GYPAP8-17 | 2026-09-02 11:46:15 | 49.06393 | 20.66703 | 70° | 80km/h | 11809m | 4.8m/s | -52.5°C | 8.0% | 208.2hPa | 2.7V | 00:00:00 | 00:00:00 | 00:00:00 | |
| SQ9EZE-14 | 2026-09-02 11:46:09 | 49.06352 | 20.66534 | 70° | 80km/h | 11782m | 5.1m/s | -52.4°C | 8.8% | 209.0hPa | 2.7V | 00:00:00 | 00:00:00 | 00:00:00 | |
| SQ9EZE-13 | 2026-09-02 11:46:00 | 49.06282 | 20.66259 | 72° | 80km/h | 11745m | 4.4m/s | -53.4°C | 9.7% | 210.3hPa | 2.7V | 00:00:00 | 00:00:00 | 00:00:00 | |
| OE3JTB-15 | 2026-09-02 11:45:51 | 49.06236 | 20.65961 | 80° | 80km/h | 11698m | 4.8m/s | -53.4°C | 14.0% | 211.8hPa | 2.7V | 00:00:00 | 01:07:36 | 00:00:00 | |
| SQ9EZE-13 | 2026-09-02 11:45:44 | 49.06213 | 20.65784 | 78° | 75km/h | 11670m | 4.2m/s | -53.7°C | 11.1% | 212.7hPa | 2.7V | 00:00:00 | 00:00:00 | 00:00:00 | |
| SQ9EZE-13 | 2026-09-02 11:45:25 | 49.06124 | 20.65190 | 76° | 84km/h | 11589m | 4.5m/s | -53.5°C | 12.9% | 215.5hPa | 2.7V | 00:00:00 | 00:00:00 | 00:00:00 | |
| OE3JTB-15 | 2026-09-02 11:45:22 | 49.06107 | 20.65097 | 74° | 78km/h | 11577m | 4.7m/s | -53.4°C | 16.8% | 215.9hPa | 2.7V | 00:00:00 | 00:00:00 | 08:30:00 | |
| SQ9EZE-13 | 2026-09-02 11:45:09 | 49.06035 | 20.64757 | 73° | 77km/h | 11530m | 4.5m/s | -54.0°C | 16.4% | 217.4hPa | 0V | 00:00:00 | 00:00:00 | 00:00:00 | |
| SQ9EZE-13 | 2026-09-02 11:44:52 | 49.05921 | 20.64245 | 77° | 78km/h | 11462m | 5.9m/s | -54.9°C | 20.2% | 219.8hPa | 0V | 00:00:00 | 00:00:00 | 00:00:00 | |
| HA6NAB-11 | 2026-09-02 11:44:46 | 49.05881 | 20.64013 | 74° | 80km/h | 11428m | 4.5m/s | 0°C | 0% | 0hPa | 0V | 00:00:00 | 00:00:00 | 00:00:00 | |
| OE3JTB-15 | 2026-09-02 11:44:42 | 49.05862 | 20.63923 | 72° | 78km/h | 11415m | 3.9m/s | -54.7°C | 26.7% | 221.3hPa | 0V | 00:00:00 | 00:00:00 | 00:00:00 | |
| GYPAP8-17 | 2026-09-02 11:44:40 | 49.05856 | 20.63893 | 72° | 82km/h | 11410m | 5.2m/s | -54.8°C | 22.4% | 221.5hPa | 0V | 00:00:00 | 00:00:00 | 00:00:00 | |
| HA6NAB-11 | 2026-09-02 11:44:39 | 49.05841 | 20.63834 | 70° | 80km/h | 11401m | 4.3m/s | 0°C | 0% | 0hPa | 0V | 00:00:00 | 00:00:00 | 00:00:00 | |
| SQ9EZE-13 | 2026-09-02 11:44:36 | 49.05827 | 20.63778 | 69° | 77km/h | 11393m | 3.2m/s | -55.1°C | 24.8% | 222.2hPa | 0V | 00:00:00 | 00:00:00 | 00:00:00 | |
| HA6NAB-11 | 2026-09-02 11:44:32 | 49.05796 | 20.63664 | 70° | 84km/h | 11378m | 3.9m/s | 0°C | 0% | 0hPa | 0V | 00:00:00 | 00:00:00 | 00:00:00 | |
| HA6NAB-11 | 2026-09-02 11:44:26 | 49.05746 | 20.63472 | 69° | 93km/h | 11354m | 3.0m/s | 0°C | 0% | 0hPa | 0V | 00:00:00 | 00:00:00 | 00:00:00 | |
| SQ9EZE-13 | 2026-09-02 11:44:20 | 49.05692 | 20.63289 | 67° | 80km/h | 11332m | 4.4m/s | -55.3°C | 26.9% | 224.3hPa | 0V | 00:00:00 | 00:00:00 | 00:00:00 | |
| SQ9EZE-13 | 2026-09-02 11:44:04 | 49.05575 | 20.62826 | 69° | 73km/h | 11267m | 4.5m/s | -55.1°C | 28.5% | 226.6hPa | 0V | 00:00:00 | 00:00:00 | 00:00:00 | |
| SQ9EZE-14 | 2026-09-02 11:44:02 | 49.05562 | 20.62772 | 72° | 75km/h | 11259m | 4.7m/s | -55.1°C | 28.9% | 226.9hPa | 0V | 00:00:00 | 00:00:00 | 00:00:00 | |
| OE3JTB-15 | 2026-09-02 11:43:48 | 49.05488 | 20.62346 | 75° | 73km/h | 11197m | 5.4m/s | -55.1°C | 35.4% | 229.0hPa | 0V | 00:00:00 | 01:05:33 | 00:00:00 | |
| SQ9EZE-14 | 2026-09-02 11:43:46 | 49.05482 | 20.62319 | 75° | 71km/h | 11193m | 4.3m/s | -55.2°C | 30.8% | 229.2hPa | 0V | 00:00:00 | 00:00:00 | 00:00:00 | |
| GYPAP8-17 | 2026-09-02 11:43:43 | 49.05462 | 20.62215 | 76° | 69km/h | 11176m | 5.0m/s | -55.1°C | 30.6% | 229.9hPa | 0V | 00:00:00 | 00:00:00 | 00:00:00 | |
| SQ9EZE-13 | 2026-09-02 11:43:32 | 49.05415 | 20.61948 | 78° | 75km/h | 11136m | 4.6m/s | -54.7°C | 29.6% | 231.3hPa | 0V | 00:00:00 | 00:00:00 | 00:00:00 | |
| SQ9EZE-14 | 2026-09-02 11:43:30 | 49.05406 | 20.61892 | 79° | 73km/h | 11128m | 3.0m/s | -54.6°C | 29.5% | 231.6hPa | 0V | 00:00:00 | 00:00:00 | 00:00:00 | |
| OE3JTB-15 | 2026-09-02 11:43:19 | 49.05347 | 20.61559 | 76° | 75km/h | 11078m | 4.0m/s | 0°C | 0% | 0hPa | 0V | 00:00:00 | 00:00:00 | 00:00:00 | |
| SQ9EZE-13 | 2026-09-02 11:43:16 | 49.05338 | 20.61505 | 77° | 73km/h | 11069m | 5.0m/s | -54.6°C | 30.0% | 233.7hPa | 0V | 00:00:00 | 00:00:00 | 00:00:00 | |
| SQ9EZE-14 | 2026-09-02 11:43:15 | 49.05333 | 20.61477 | 78° | 75km/h | 11065m | 4.3m/s | -54.5°C | 29.7% | 233.9hPa | 0V | 00:00:00 | 00:00:00 | 00:00:00 | |
| SQ9EZE-14 | 2026-09-02 11:43:00 | 49.05248 | 20.61063 | 74° | 73km/h | 11003m | 4.1m/s | -54.3°C | 30.2% | 236.1hPa | 0V | 00:00:00 | 00:00:00 | 00:00:00 | |
| SQ9EZE-13 | 2026-09-02 11:42:54 | 49.05217 | 20.60902 | 75° | 73km/h | 10977m | 3.8m/s | -54.1°C | 29.4% | 237.1hPa | 0V | 00:00:00 | 00:00:00 | 00:00:00 | |
| GYPAP8-17 | 2026-09-02 11:42:40 | 49.05121 | 20.60531 | 70° | 69km/h | 10918m | 4.0m/s | -53.6°C | 28.6% | 239.2hPa | 0V | 00:00:00 | 00:00:00 | 00:00:00 | |
| SQ9EZE-13 | 2026-09-02 11:42:38 | 49.05108 | 20.60480 | 70° | 71km/h | 10910m | 4.6m/s | -53.6°C | 28.7% | 239.6hPa | 0V | 00:00:00 | 00:00:00 | 00:00:00 | |
| SQ9EZE-13 | 2026-09-02 11:42:16 | 49.04933 | 20.59912 | 62° | 80km/h | 10815m | 5.4m/s | -53.0°C | 27.5% | 243.1hPa | 0V | 00:00:00 | 00:00:00 | 00:00:00 | |
| OE3JTB-15 | 2026-09-02 11:42:04 | 49.04822 | 20.59581 | 62° | 68km/h | 10757m | 4.1m/s | 0°C | 0% | 0hPa | 0V | 00:00:00 | 00:00:00 | 00:00:00 | |
| SQ9EZE-13 | 2026-09-02 11:42:00 | 49.04794 | 20.59506 | 59° | 73km/h | 10744m | 3.7m/s | -52.6°C | 26.9% | 245.9hPa | 0V | 00:00:00 | 00:00:00 | 00:00:00 | |
| SQ9EZE-13 | 2026-09-02 11:41:45 | 49.04662 | 20.59140 | 49° | 64km/h | 10671m | 5.3m/s | -52.1°C | 27.3% | 248.6hPa | 0V | 00:00:00 | 00:00:00 | 00:00:00 | |
| GYPAP8-17 | 2026-09-02 11:41:35 | 49.04574 | 20.58899 | 69° | 71km/h | 10609m | 7.4m/s | -51.7°C | 25.6% | 251.0hPa | 0V | 00:00:00 | 00:00:00 | 00:00:00 | |
| SQ9EZE-13 | 2026-09-02 11:41:29 | 49.04534 | 20.58763 | 70° | 68km/h | 10573m | 4.7m/s | -51.3°C | 26.0% | 252.4hPa | 0V | 00:00:00 | 00:00:00 | 00:00:00 | |
| SQ9EZE-13 | 2026-09-02 11:41:07 | 49.04409 | 20.58197 | 72° | 69km/h | 10439m | 7.9m/s | -50.8°C | 27.5% | 257.7hPa | 0V | 00:00:00 | 00:00:00 | 00:00:00 | |
| SQ9EZE-14 | 2026-09-02 11:41:01 | 49.04380 | 20.58067 | 69° | 75km/h | 10410m | 4.2m/s | -50.7°C | 28.4% | 258.8hPa | 0V | 00:00:00 | 00:00:00 | 00:00:00 | |
| SQ9EZE-13 | 2026-09-02 11:40:45 | 49.04291 | 20.57647 | 71° | 69km/h | 10338m | 5.9m/s | -50.4°C | 28.9% | 261.7hPa | 0V | 00:00:00 | 00:00:00 | 00:00:00 | |
| SQ9EZE-14 | 2026-09-02 11:40:29 | 49.04211 | 20.57254 | 77° | 68km/h | 10266m | 4.7m/s | -50.1°C | 33.6% | 264.6hPa | 0V | 00:00:00 | 00:00:00 | 00:00:00 | |
| SQ9EZE-13 | 2026-09-02 11:40:26 | 49.04193 | 20.57152 | 77° | 73km/h | 10247m | 5.1m/s | -50.0°C | 33.9% | 265.3hPa | 0V | 00:00:00 | 00:00:00 | 00:00:00 | |
| SQ9EZE-14 | 2026-09-02 11:40:13 | 49.04124 | 20.56829 | 62° | 77km/h | 10190m | 3.9m/s | -49.5°C | 41.7% | 267.7hPa | 0V | 00:00:00 | 00:00:00 | 00:00:00 | |
| SQ9EZE-13 | 2026-09-02 11:40:05 | 49.04064 | 20.56575 | 66° | 66km/h | 10140m | 4.8m/s | -49.2°C | 46.8% | 269.8hPa | 0V | 00:00:00 | 00:00:00 | 00:00:00 | |
| SQ9EZE-13 | 2026-09-02 11:39:43 | 49.03913 | 20.56079 | 72° | 69km/h | 10027m | 5.6m/s | -48.5°C | 75.6% | 274.4hPa | 0V | 00:00:00 | 00:00:00 | 00:00:00 | |
| OE3JTB-15 | 2026-09-02 11:39:39 | 49.03884 | 20.55983 | 56° | 68km/h | 10001m | 7.9m/s | 0°C | 0% | 0hPa | 0V | 00:00:00 | 01:01:24 | 00:00:00 | |
| SQ9EZE-13 | 2026-09-02 11:39:27 | 49.03789 | 20.55708 | 64° | 57km/h | 9935m | 4.4m/s | -47.7°C | 75.0% | 278.2hPa | 0V | 00:00:00 | 00:00:00 | 00:00:00 | |
| GYPAP8-17 | 2026-09-02 11:39:24 | 49.03775 | 20.55668 | 62° | 62km/h | 9926m | 5.6m/s | -47.7°C | 75.2% | 278.6hPa | 0V | 00:00:00 | 00:00:00 | 00:00:00 | |
| SQ9EZE-13 | 2026-09-02 11:39:08 | 49.03658 | 20.55315 | 73° | 58km/h | 9840m | 5.4m/s | -47.0°C | 72.8% | 282.2hPa | 0V | 00:00:00 | 00:00:00 | 00:00:00 | |
| SQ9EZE-13 | 2026-09-02 11:38:52 | 49.03565 | 20.54954 | 81° | 57km/h | 9769m | 3.2m/s | -46.3°C | 71.6% | 285.4hPa | 0V | 00:00:00 | 00:00:00 | 00:00:00 | |
| HA6NAB-11 | 2026-09-02 11:38:37 | 49.03489 | 20.54579 | 70° | 71km/h | 9697m | 4.5m/s | 0°C | 0% | 0hPa | 0V | 00:00:00 | 00:00:00 | 00:00:00 | |
| GYPAP8-17 | 2026-09-02 11:38:34 | 49.03473 | 20.54504 | 77° | 64km/h | 9678m | 7.1m/s | -45.5°C | 72.3% | 289.3hPa | 0V | 00:00:00 | 00:00:00 | 00:00:00 | |
| HA6NAB-11 | 2026-09-02 11:38:29 | 49.03453 | 20.54391 | 67° | 69km/h | 9653m | 4.5m/s | 0°C | 0% | 0hPa | 0V | 00:00:00 | 00:00:00 | 00:00:00 | |
| SQ9EZE-13 | 2026-09-02 11:38:22 | 49.03403 | 20.54213 | 73° | 64km/h | 9618m | 6.0m/s | -45.0°C | 68.5% | 291.8hPa | 0V | 00:00:00 | 00:00:00 | 00:00:00 | |
| OE3JTB-15 | 2026-09-02 11:38:14 | 49.03362 | 20.53988 | 74° | 64km/h | 9581m | 4.3m/s | 0°C | 0% | 0hPa | 0V | 00:00:00 | 00:00:00 | 00:00:00 | |
| SQ9EZE-13 | 2026-09-02 11:38:06 | 49.03319 | 20.53827 | 69° | 57km/h | 9552m | 5.7m/s | -44.4°C | 72.2% | 294.7hPa | 0V | 00:00:00 | 00:00:00 | 00:00:00 | |
| SQ9EZE-14 | 2026-09-02 11:38:05 | 49.03314 | 20.53806 | 71° | 58km/h | 9547m | 4.2m/s | -44.3°C | 73.1% | 295.0hPa | 0V | 00:00:00 | 00:00:00 | 00:00:00 | |
| SQ9EZE-14 | 2026-09-02 11:37:50 | 49.03245 | 20.53432 | 76° | 64km/h | 9465m | 5.5m/s | -43.6°C | 76.0% | 298.7hPa | 0V | 00:00:00 | 00:00:00 | 00:00:00 | |
| SQ9EZE-13 | 2026-09-02 11:37:46 | 49.03226 | 20.53342 | 71° | 58km/h | 9441m | 5.4m/s | -43.5°C | 78.4% | 299.7hPa | 0V | 00:00:00 | 00:00:00 | 00:00:00 | |
| OE3JTB-15 | 2026-09-02 11:37:32 | 49.03162 | 20.53002 | 65° | 55km/h | 9362m | 5.9m/s | 0°C | 0% | 0hPa | 0V | 00:00:00 | 00:00:00 | 00:00:00 | |
| GYPAP8-17 | 2026-09-02 11:37:23 | 49.03124 | 20.52845 | 75° | 64km/h | 9317m | 4.2m/s | -42.6°C | 78.1% | 305.3hPa | 0V | 00:00:00 | 00:00:00 | 00:00:00 | |
| SQ9EZE-13 | 2026-09-02 11:37:21 | 49.03116 | 20.52798 | 79° | 60km/h | 9307m | 6.5m/s | -42.5°C | 77.1% | 305.7hPa | 0V | 00:00:00 | 00:00:00 | 00:00:00 | |
| SQ9EZE-13 | 2026-09-02 11:37:05 | 49.03073 | 20.52470 | 90° | 44km/h | 9219m | 6.5m/s | -41.8°C | 76.8% | 309.7hPa | 0V | 00:00:00 | 00:00:00 | 00:00:00 | |
| HA6NAB-11 | 2026-09-02 11:37:00 | 49.03063 | 20.52349 | 71° | 58km/h | 9185m | 4.3m/s | 0°C | 0% | 0hPa | 0V | 00:00:00 | 00:00:00 | 00:00:00 | |
| SQ9EZE-13 | 2026-09-02 11:36:45 | 49.03008 | 20.52073 | 78° | 47km/h | 9116m | 5.5m/s | -40.8°C | 80.7% | 314.6hPa | 0V | 00:00:00 | 00:00:00 | 00:00:00 | |
| SQ9EZE-13 | 2026-09-02 11:36:29 | 49.02967 | 20.51762 | 99° | 44km/h | 9021m | 4.4m/s | -40.1°C | 83.0% | 318.8hPa | 0V | 00:00:00 | 00:00:00 | 00:00:00 | |
| GYPAP8-17 | 2026-09-02 11:36:27 | 49.02971 | 20.51728 | 97° | 46km/h | 9011m | 5.0m/s | -40.1°C | 83.7% | 319.2hPa | 0V | 00:00:00 | 00:00:00 | 00:00:00 | |
| SQ9EZE-13 | 2026-09-02 11:36:14 | 49.02964 | 20.51501 | 88° | 51km/h | 8930m | 5.3m/s | -39.4°C | 81.3% | 323.1hPa | 0V | 00:00:00 | 00:00:00 | 00:00:00 | |
| SQ9EZE-13 | 2026-09-02 11:35:56 | 49.02935 | 20.51158 | 83° | 51km/h | 8829m | 5.5m/s | -38.5°C | 82.1% | 328.0hPa | 0V | 00:00:00 | 00:00:00 | 00:00:00 | |
| SQ9EZE-14 | 2026-09-02 11:35:43 | 49.02905 | 20.50888 | 80° | 57km/h | 8746m | 6.4m/s | -37.9°C | 85.3% | 332.0hPa | 0V | 00:00:00 | 00:00:00 | 00:00:00 | |
| SQ9EZE-13 | 2026-09-02 11:35:39 | 49.02899 | 20.50830 | 85° | 47km/h | 8731m | 6.2m/s | -37.8°C | 84.7% | 332.7hPa | 0V | 00:00:00 | 00:00:00 | 00:00:00 | |
| GYPAP8-17 | 2026-09-02 11:35:29 | 49.02893 | 20.50646 | 80° | 44km/h | 8671m | 4.4m/s | -37.2°C | 82.7% | 335.6hPa | 0V | 00:00:00 | 00:00:00 | 00:00:00 | |
| SQ9EZE-14 | 2026-09-02 11:35:28 | 49.02889 | 20.50609 | 83° | 53km/h | 8662m | 5.5m/s | -37.1°C | 82.0% | 336.0hPa | 0V | 00:00:00 | 00:00:00 | 00:00:00 | |
| SQ9EZE-13 | 2026-09-02 11:35:24 | 49.02886 | 20.50543 | 90° | 57km/h | 8646m | 4.8m/s | -37.0°C | 81.4% | 336.8hPa | 0V | 00:00:00 | 00:00:00 | 00:00:00 | |
| HA6NAB-11 | 2026-09-02 11:35:20 | 49.02887 | 20.50469 | 91° | 44km/h | 8627m | 4.2m/s | 0°C | 0% | 0hPa | 0V | 00:00:00 | 00:00:00 | 00:00:00 | |
| SQ9EZE-13 | 2026-09-02 11:35:08 | 49.02868 | 20.50223 | 86° | 44km/h | 8567m | 3.5m/s | -36.3°C | 78.9% | 340.8hPa | 0V | 00:00:00 | 00:00:00 | 00:00:00 | |
| SQ9EZE-13 | 2026-09-02 11:34:52 | 49.02857 | 20.49917 | 87° | 64km/h | 8488m | 4.2m/s | -35.6°C | 75.4% | 344.9hPa | 0V | 00:00:00 | 00:00:00 | 00:00:00 | |
| OE3JTB-15 | 2026-09-02 11:34:42 | 49.02841 | 20.49675 | 89° | 55km/h | 8427m | 4.9m/s | 0°C | 0% | 0hPa | 0V | 00:00:00 | 00:56:27 | 00:00:00 | |
| SQ9EZE-13 | 2026-09-02 11:34:36 | 49.02854 | 20.49571 | 102° | 55km/h | 8401m | 4.4m/s | -34.7°C | 73.8% | 349.3hPa | 0V | 00:00:00 | 00:00:00 | 00:00:00 | |
| GYPAP8-17 | 2026-09-02 11:34:22 | 49.02839 | 20.49278 | 86° | 46km/h | 8327m | 5.7m/s | -34.1°C | 72.3% | 353.1hPa | 0V | 00:00:00 | 00:00:00 | 00:00:00 | |
| SQ9EZE-13 | 2026-09-02 11:34:20 | 49.02837 | 20.49242 | 84° | 51km/h | 8317m | 4.1m/s | -34.0°C | 74.3% | 353.6hPa | 0V | 00:00:00 | 00:00:00 | 00:00:00 | |
| OE3JTB-15 | 2026-09-02 11:34:12 | 49.02817 | 20.49055 | 75° | 49km/h | 8264m | 7.1m/s | 0°C | 0% | 0hPa | 0V | 00:00:00 | 00:00:00 | 00:00:00 | |
| SQ9EZE-13 | 2026-09-02 11:34:05 | 49.02791 | 20.48944 | 77° | 51km/h | 8235m | 6.4m/s | -33.4°C | 74.8% | 357.8hPa | 0V | 00:00:00 | 00:00:00 | 00:00:00 | |
| SQ9EZE-13 | 2026-09-02 11:33:44 | 49.02772 | 20.48517 | 86° | 60km/h | 8110m | 5.5m/s | -32.3°C | 69.1% | 364.0hPa | 0V | 00:00:00 | 00:00:00 | 00:00:00 | |
| GYPAP8-17 | 2026-09-02 11:33:34 | 49.02775 | 20.48308 | 90° | 53km/h | 8070m | 3.6m/s | -31.9°C | 70.5% | 366.1hPa | 0V | 00:00:00 | 00:00:00 | 00:00:00 | |
| SQ9EZE-13 | 2026-09-02 11:33:29 | 49.02763 | 20.48196 | 85° | 60km/h | 8040m | 6.5m/s | -31.7°C | 67.5% | 367.6hPa | 0V | 00:00:00 | 00:00:00 | 00:00:00 | |
| SQ9EZE-14 | 2026-09-02 11:33:19 | 49.02762 | 20.47969 | 77° | 51km/h | 7984m | 5.5m/s | -31.2°C | 63.2% | 370.4hPa | 0V | 00:00:00 | 00:00:00 | 00:00:00 | |
| SQ9EZE-13 | 2026-09-02 11:33:14 | 49.02755 | 20.47882 | 91° | 40km/h | 7951m | 7.0m/s | -30.9°C | 62.7% | 372.1hPa | 0V | 00:00:00 | 00:00:00 | 00:00:00 | |
| SQ9EZE-14 | 2026-09-02 11:33:05 | 49.02740 | 20.47685 | 101° | 47km/h | 7899m | 4.7m/s | -30.4°C | 59.5% | 374.8hPa | 0V | 00:00:00 | 00:00:00 | 00:00:00 | |
| SQ9EZE-13 | 2026-09-02 11:32:58 | 49.02736 | 20.47577 | 76° | 53km/h | 7866m | 7.4m/s | -30.1°C | 58.4% | 376.6hPa | 0V | 00:00:00 | 00:00:00 | 00:00:00 | |
| SQ9EZE-13 | 2026-09-02 11:32:42 | 49.02722 | 20.47271 | 92° | 55km/h | 7788m | 4.5m/s | -29.4°C | 62.3% | 380.7hPa | 0V | 00:00:00 | 00:00:00 | 00:00:00 | |
| SQ9EZE-13 | 2026-09-02 11:32:21 | 49.02726 | 20.46843 | 89° | 57km/h | 7675m | 5.7m/s | -28.4°C | 59.2% | 386.6hPa | 0V | 00:00:00 | 00:00:00 | 00:00:00 | |
| SQ9EZE-13 | 2026-09-02 11:32:01 | 49.02710 | 20.46453 | 80° | 49km/h | 7576m | 4.2m/s | -27.5°C | 49.6% | 392.0hPa | 0V | 00:00:00 | 00:00:00 | 00:00:00 | |
| GYPAP8-17 | 2026-09-02 11:31:58 | 49.02703 | 20.46394 | 79° | 55km/h | 7563m | 6.1m/s | -27.4°C | 49.2% | 392.8hPa | 0V | 00:00:00 | 00:00:00 | 00:00:00 | |
| SQ9EZE-13 | 2026-09-02 11:31:46 | 49.02723 | 20.46151 | 81° | 49km/h | 7494m | 5.1m/s | -26.7°C | 44.3% | 396.5hPa | 0V | 00:00:00 | 00:00:00 | 00:00:00 | |
| SQ9EZE-13 | 2026-09-02 11:31:30 | 49.02725 | 20.45875 | 96° | 47km/h | 7417m | 5.9m/s | -26.1°C | 41.5% | 400.7hPa | 0V | 00:00:00 | 00:00:00 | 00:00:00 | |
| SQ9EZE-13 | 2026-09-02 11:31:12 | 49.02754 | 20.45533 | 97° | 46km/h | 7324m | 4.6m/s | -25.2°C | 43.1% | 405.9hPa | 0V | 00:00:00 | 00:00:00 | 00:00:00 | |
| GYPAP8-17 | 2026-09-02 11:31:09 | 49.02758 | 20.45478 | 98° | 49km/h | 7311m | 4.1m/s | -25.2°C | 44.5% | 406.6hPa | 0V | 00:00:00 | 00:00:00 | 00:00:00 | |
| SQ9EZE-14 | 2026-09-02 11:30:57 | 49.02773 | 20.45255 | 106° | 37km/h | 7266m | 3.8m/s | -24.8°C | 38.5% | 409.1hPa | 0V | 00:00:00 | 00:00:00 | 00:00:00 | |
| HA6NAB-11 | 2026-09-02 11:30:54 | 49.02776 | 20.45224 | 96° | 46km/h | 7259m | 4.1m/s | 0°C | 0% | 0hPa | 0V | 00:00:00 | 00:00:00 | 00:00:00 | |
| SQ9EZE-14 | 2026-09-02 11:30:41 | 49.02798 | 20.45010 | 101° | 46km/h | 7189m | 4.9m/s | -24.2°C | 35.8% | 413.4hPa | 0V | 00:00:00 | 00:00:00 | 00:00:00 | |
| SQ9EZE-13 | 2026-09-02 11:30:40 | 49.02799 | 20.44992 | 91° | 44km/h | 7184m | 4.7m/s | -24.2°C | 35.5% | 413.6hPa | 0V | 00:00:00 | 00:00:00 | 00:00:00 | |
| SQ9EZE-13 | 2026-09-02 11:30:24 | 49.02819 | 20.44746 | 103° | 37km/h | 7106m | 3.8m/s | -23.7°C | 28.1% | 418.1hPa | 0V | 00:00:00 | 00:00:00 | 00:00:00 | |
| GYPAP8-17 | 2026-09-02 11:30:22 | 49.02823 | 20.44705 | 86° | 33km/h | 7092m | 4.4m/s | -23.6°C | 27.7% | 418.9hPa | 0V | 00:00:00 | 00:00:00 | 00:00:00 | |
| SQ9EZE-13 | 2026-09-02 11:30:09 | 49.02838 | 20.44501 | 114° | 33km/h | 7032m | 6.9m/s | -23.3°C | 21.9% | 422.4hPa | 0V | 00:00:00 | 00:00:00 | 00:00:00 | |
| SQ9EZE-13 | 2026-09-02 11:29:53 | 49.02850 | 20.44282 | 100° | 33km/h | 6963m | 3.9m/s | -22.8°C | 24.7% | 426.4hPa | 0V | 00:00:00 | 00:00:00 | 00:00:00 | |
| SQ9EZE-13 | 2026-09-02 11:29:36 | 49.02867 | 20.44078 | 99° | 29km/h | 6898m | 3.7m/s | -22.2°C | 28.5% | 430.3hPa | 0V | 00:00:00 | 00:00:00 | 00:00:00 | |
| GYPAP8-17 | 2026-09-02 11:29:32 | 49.02863 | 20.44023 | 87° | 44km/h | 6874m | 8.0m/s | -22.2°C | 31.1% | 431.6hPa | 0V | 00:00:00 | 00:00:00 | 00:00:00 | |
| SQ9EZE-13 | 2026-09-02 11:29:20 | 49.02845 | 20.43840 | 102° | 15km/h | 6807m | 6.1m/s | -21.7°C | 35.5% | 435.6hPa | 0V | 00:00:00 | 00:00:00 | 00:00:00 | |
| SQ9EZE-13 | 2026-09-02 11:29:04 | 49.02827 | 20.43683 | 63° | 29km/h | 6723m | 4.3m/s | -21.9°C | 37.6% | 440.6hPa | 0V | 00:00:00 | 00:00:00 | 00:00:00 | |
| OM5KV | 2026-09-02 11:29:02 | 49.02821 | 20.43666 | 71° | 24km/h | 6715m | 6.2m/s | -21.9°C | 37.5% | 441.2hPa | 0V | 00:00:00 | 00:00:00 | 00:00:00 | |
| OM5KV | 2026-09-02 11:28:58 | 49.02815 | 20.43624 | 86° | 13km/h | 6687m | 4.8m/s | -21.6°C | 37.9% | 442.9hPa | 0V | 00:00:00 | 00:00:00 | 00:00:00 | |
| OM5KV | 2026-09-02 11:28:52 | 49.02804 | 20.43616 | 21° | 18km/h | 6667m | 4.4m/s | -21.5°C | 37.9% | 444.0hPa | 0V | 00:00:00 | 00:00:00 | 00:00:00 | |
| OM5KV | 2026-09-02 11:28:46 | 49.02785 | 20.43556 | 115° | 24km/h | 6631m | 4.5m/s | -21.3°C | 38.5% | 446.2hPa | 0V | 00:00:00 | 00:00:00 | 00:00:00 | |
| OM5KV | 2026-09-02 11:28:40 | 49.02784 | 20.43527 | 38° | 24km/h | 6602m | 4.1m/s | -21.1°C | 38.3% | 447.9hPa | 0V | 00:00:00 | 00:00:00 | 00:00:00 | |
| OM5KV | 2026-09-02 11:28:35 | 49.02760 | 20.43495 | 35° | 20km/h | 6573m | 5.1m/s | -20.8°C | 37.0% | 449.6hPa | 0V | 00:00:00 | 00:00:00 | 00:00:00 | |
| SQ9EZE-14 | 2026-09-02 11:28:33 | 49.02756 | 20.43491 | 33° | 13km/h | 6568m | 5.1m/s | -20.7°C | 37.0% | 449.9hPa | 0V | 00:00:00 | 00:00:00 | 00:00:00 | |
| SQ9EZE-13 | 2026-09-02 11:28:32 | 49.02753 | 20.43489 | 31° | 13km/h | 6563m | 6.4m/s | -20.7°C | 37.5% | 450.2hPa | 0V | 00:00:00 | 00:00:00 | 00:00:00 | |
| OM5KV | 2026-09-02 11:28:29 | 49.02748 | 20.43473 | 88° | 24km/h | 6547m | 5.2m/s | -20.7°C | 41.0% | 451.3hPa | 0V | 00:00:00 | 00:00:00 | 00:00:00 | |
| OM5KV | 2026-09-02 11:28:24 | 49.02747 | 20.43412 | 84° | 24km/h | 6516m | 6.3m/s | -20.5°C | 43.8% | 453.2hPa | 0V | 00:00:00 | 00:00:00 | 00:00:00 | |
| OM5KV | 2026-09-02 11:28:19 | 49.02741 | 20.43380 | 78° | 22km/h | 6482m | 5.7m/s | -20.9°C | 57.7% | 455.2hPa | 0V | 00:00:00 | 00:00:00 | 00:00:00 | |
| SQ9EZE-14 | 2026-09-02 11:28:18 | 49.02740 | 20.43371 | 83° | 26km/h | 6475m | 6.2m/s | 0°C | 0% | 455.7hPa | 0V | 00:00:00 | 00:00:00 | 00:00:00 | |
| SQ9EZE-13 | 2026-09-02 11:28:15 | 49.02742 | 20.43341 | 105° | 26km/h | 6460m | 4.9m/s | -21.1°C | 64.3% | 456.8hPa | 0V | 00:00:00 | 00:00:00 | 00:00:00 | |
| OM5KV | 2026-09-02 11:28:14 | 49.02743 | 20.43332 | 109° | 24km/h | 6456m | 4.3m/s | -21.1°C | 64.8% | 457.1hPa | 0V | 00:00:00 | 00:00:00 | 00:00:00 | |
| OM5KV | 2026-09-02 11:28:11 | 49.02749 | 20.43308 | 108° | 20km/h | 6440m | 3.9m/s | -21.0°C | 65.2% | 458.0hPa | 0V | 00:00:00 | 00:00:00 | 00:00:00 | |
| OM5KV | 2026-09-02 11:28:07 | 49.02755 | 20.43281 | 114° | 18km/h | 6422m | 4.0m/s | -20.9°C | 66.0% | 459.0hPa | 0V | 00:00:00 | 00:00:00 | 00:00:00 | |
| GYPAP8-17 | 2026-09-02 11:28:05 | 49.02761 | 20.43256 | 96° | 27km/h | 6410m | 5.0m/s | -20.8°C | 67.5% | 459.8hPa | 0V | 00:00:00 | 00:00:00 | 00:00:00 | |
| SQ9EZE-13 | 2026-09-02 11:28:01 | 49.02761 | 20.43210 | 93° | 26km/h | 6392m | 5.6m/s | -20.8°C | 66.8% | 460.9hPa | 0V | 00:00:00 | 00:00:00 | 00:00:00 | |
| OM5KV | 2026-09-02 11:28:00 | 49.02761 | 20.43210 | 93° | 26km/h | 6392m | 5.6m/s | -20.8°C | 66.8% | 460.9hPa | 0V | 00:00:00 | 00:00:00 | 00:00:00 | |
| OM5KV | 2026-09-02 11:27:53 | 49.02768 | 20.43175 | 87° | 20km/h | 6354m | 7.1m/s | -20.7°C | 66.0% | 463.2hPa | 0V | 00:00:00 | 00:00:00 | 00:00:00 | |
| OM5KV | 2026-09-02 11:27:50 | 49.02766 | 20.43145 | 81° | 29km/h | 6333m | 5.7m/s | -20.6°C | 65.1% | 464.5hPa | 0V | 00:00:00 | 00:00:00 | 00:00:00 | |
| OM5KV | 2026-09-02 11:27:47 | 49.02764 | 20.43118 | 102° | 18km/h | 6315m | 4.6m/s | -20.4°C | 63.1% | 465.7hPa | 0V | 00:00:00 | 00:00:00 | 00:00:00 | |
| SQ9EZE-13 | 2026-09-02 11:27:44 | 49.02771 | 20.43097 | 121° | 24km/h | 6300m | 6.6m/s | -20.4°C | 64.8% | 466.8hPa | 0V | 00:00:00 | 00:00:00 | 00:00:00 | |
| OM5KV | 2026-09-02 11:27:40 | 49.02779 | 20.43061 | 99° | 26km/h | 6280m | 4.4m/s | -20.2°C | 0% | 468.0hPa | 0V | 00:00:00 | 00:00:00 | 00:00:00 | |
| OM5KV | 2026-09-02 11:27:37 | 49.02782 | 20.43037 | 116° | 20km/h | 6265m | 6.1m/s | -20.1°C | 69.4% | 468.9hPa | 0V | 00:00:00 | 00:00:00 | 00:00:00 | |
| OM5KV | 2026-09-02 11:27:30 | 49.02798 | 20.42976 | 107° | 27km/h | 6225m | 7.2m/s | -19.8°C | 68.3% | 471.5hPa | 0V | 00:00:00 | 00:00:00 | 00:00:00 | |
| OM5KV | 2026-09-02 11:27:29 | 49.02802 | 20.42956 | 111° | 26km/h | 6212m | 5.3m/s | 0°C | 0% | 472.2hPa | 0V | 00:00:00 | 00:00:00 | 00:00:00 | |
| OM5KV | 2026-09-02 11:27:24 | 49.02807 | 20.42902 | 95° | 38km/h | 6189m | 3.9m/s | 0°C | 0% | 0hPa | 0V | 00:00:00 | 00:00:00 | 00:00:00 | |
| GYPAP8-17 | 2026-09-02 11:27:19 | 49.02812 | 20.42854 | 111° | 24km/h | 6172m | 4.5m/s | -19.5°C | 72.2% | 474.9hPa | 0V | 00:00:00 | 00:00:00 | 00:00:00 | |
| OM5KV | 2026-09-02 11:27:18 | 49.02814 | 20.42846 | 118° | 22km/h | 6167m | 5.6m/s | -19.5°C | 0% | 0hPa | 0V | 00:00:00 | 00:00:00 | 00:00:00 | |
| OM5KV | 2026-09-02 11:27:16 | 49.02820 | 20.42830 | 115° | 27km/h | 6155m | 6.5m/s | 0°C | 0% | 0hPa | 0V | 00:00:00 | 00:00:00 | 00:00:00 | |
| SQ9EZE-13 | 2026-09-02 11:27:12 | 49.02833 | 20.42780 | 114° | 37km/h | 6130m | 7.0m/s | -19.2°C | 72.1% | 477.6hPa | 0V | 00:00:00 | 00:00:00 | 00:00:00 | |
| OM5KV | 2026-09-02 11:27:10 | 49.02838 | 20.42756 | 100° | 27km/h | 6119m | 3.3m/s | 0°C | 0% | 0hPa | 0V | 00:00:00 | 00:00:00 | 00:00:00 | |
| OM5KV | 2026-09-02 11:27:06 | 49.02839 | 20.42715 | 88° | 27km/h | 6100m | 4.1m/s | -19.0°C | 0% | 0hPa | 0V | 00:00:00 | 00:00:00 | 00:00:00 | |
| OM5KV | 2026-09-02 11:27:04 | 49.02840 | 20.42694 | 104° | 29km/h | 6092m | 4.1m/s | 0°C | 0% | 0hPa | 0V | 00:00:00 | 00:00:00 | 00:00:00 | |
| OM5KV | 2026-09-02 11:26:58 | 49.02863 | 20.42615 | 114° | 42km/h | 6067m | 4.0m/s | 0°C | 0% | 0hPa | 0V | 00:00:00 | 00:00:00 | 00:00:00 | |
| SQ9EZE-13 | 2026-09-02 11:26:56 | 49.02871 | 20.42582 | 106° | 47km/h | 6058m | 6.2m/s | -18.8°C | 77.5% | 482.3hPa | 0V | 00:00:00 | 00:00:00 | 00:00:00 | |
| OM5KV | 2026-09-02 11:26:53 | 49.02875 | 20.42536 | 93° | 33km/h | 6041m | 5.6m/s | -18.7°C | 0% | 0hPa | 0V | 00:00:00 | 00:00:00 | 00:00:00 | |
| OM5KV | 2026-09-02 11:26:47 | 49.02877 | 20.42466 | 99° | 42km/h | 6006m | 6.9m/s | 0°C | 0% | 0hPa | 0V | 00:00:00 | 00:00:00 | 00:00:00 | |
| SQ9EZE-13 | 2026-09-02 11:26:40 | 49.02891 | 20.42352 | 103° | 42km/h | 5959m | 5.2m/s | -18.0°C | 72.1% | 488.5hPa | 0V | 00:00:00 | 00:00:00 | 00:00:00 | |
| GYPAP8-17 | 2026-09-02 11:26:35 | 49.02895 | 20.42273 | 81° | 40km/h | 5939m | 4.6m/s | -17.8°C | 70.9% | 489.9hPa | 0V | 00:00:00 | 00:00:00 | 00:00:00 | |
| OM5KV | 2026-09-02 11:26:30 | 49.02885 | 20.42206 | 79° | 29km/h | 5919m | 3.9m/s | 0°C | 0% | 0hPa | 0V | 00:00:00 | 00:00:00 | 00:00:00 | |
| SQ9EZE-13 | 2026-09-02 11:26:24 | 49.02879 | 20.42115 | 92° | 46km/h | 5884m | 6.7m/s | -17.4°C | 66.6% | 493.6hPa | 0V | 00:00:00 | 00:00:00 | 00:00:00 | |
| SQ9EZE-14 | 2026-09-02 11:26:11 | 49.02907 | 20.41947 | 98° | 37km/h | 5807m | 5.9m/s | 0°C | 0% | 498.5hPa | 0V | 00:00:00 | 00:00:00 | 00:00:00 | |
| SQ9EZE-13 | 2026-09-02 11:26:08 | 49.02910 | 20.41894 | 92° | 53km/h | 5789m | 6.4m/s | -16.6°C | 63.4% | 499.6hPa | 0V | 00:00:00 | 00:00:00 | 00:00:00 | |
| SQ9EZE-14 | 2026-09-02 11:25:55 | 49.02917 | 20.41681 | 93° | 44km/h | 5721m | 3.9m/s | 0°C | 0% | 504.3hPa | 0V | 00:00:00 | 00:00:00 | 00:00:00 | |
| SQ9EZE-13 | 2026-09-02 11:25:52 | 49.02919 | 20.41636 | 102° | 37km/h | 5710m | 3.9m/s | -15.9°C | 67.6% | 505.1hPa | 0V | 00:00:00 | 00:00:00 | 00:00:00 | |
| GYPAP8-17 | 2026-09-02 11:25:51 | 49.02921 | 20.41621 | 103° | 40km/h | 5706m | 4.1m/s | -16.0°C | 67.7% | 505.3hPa | 0V | 00:00:00 | 00:00:00 | 00:00:00 | |
| SQ9EZE-13 | 2026-09-02 11:25:36 | 49.02952 | 20.41353 | 109° | 40km/h | 5640m | 7.8m/s | -15.4°C | 62.9% | 509.7hPa | 0V | 00:00:00 | 00:00:00 | 00:00:00 | |
| SQ9EZE-13 | 2026-09-02 11:25:20 | 49.02972 | 20.41132 | 88° | 37km/h | 5562m | 4.4m/s | -14.7°C | 60.3% | 515.0hPa | 0V | 00:00:00 | 00:00:00 | 00:00:00 | |
| GYPAP8-17 | 2026-09-02 11:25:06 | 49.02969 | 20.40966 | 100° | 29km/h | 5486m | 5.7m/s | -14.0°C | 57.6% | 520.2hPa | 0V | 00:00:00 | 00:00:00 | 00:00:00 | |
| SQ9EZE-13 | 2026-09-02 11:25:04 | 49.02972 | 20.40946 | 107° | 26km/h | 5473m | 6.7m/s | -13.9°C | 57.2% | 521.1hPa | 0V | 00:00:00 | 00:00:00 | 00:00:00 | |
| SQ9EZE-13 | 2026-09-02 11:24:48 | 49.02986 | 20.40755 | 99° | 40km/h | 5396m | 5.1m/s | -13.4°C | 64.5% | 526.2hPa | 0V | 00:00:00 | 00:00:00 | 00:00:00 | |
| SQ9EZE-13 | 2026-09-02 11:24:32 | 49.02981 | 20.40542 | 93° | 38km/h | 5311m | 4.0m/s | -12.8°C | 63.8% | 532.2hPa | 0V | 00:00:00 | 00:00:00 | 00:00:00 | |
| GYPAP8-17 | 2026-09-02 11:24:23 | 49.02988 | 20.40373 | 82° | 40km/h | 5271m | 5.1m/s | -12.5°C | 63.1% | 535.1hPa | 0V | 00:00:00 | 00:00:00 | 00:00:00 | |
| SQ9EZE-13 | 2026-09-02 11:24:08 | 49.03007 | 20.40136 | 111° | 49km/h | 5211m | 2.5m/s | -12.3°C | 63.9% | 539.2hPa | 0V | 00:00:00 | 00:00:00 | 00:00:00 | |
| SQ9EZE-13 | 2026-09-02 11:23:52 | 49.03028 | 20.39862 | 94° | 46km/h | 5136m | 2.6m/s | -11.6°C | 63.3% | 544.3hPa | 0V | 00:00:00 | 00:00:00 | 00:00:00 | |
| SQ9EZE-14 | 2026-09-02 11:23:47 | 49.03035 | 20.39784 | 104° | 38km/h | 5119m | 2.4m/s | 0°C | 0% | 545.6hPa | 0V | 00:00:00 | 00:00:00 | 00:00:00 | |
| GYPAP8-17 | 2026-09-02 11:23:37 | 49.03032 | 20.39603 | 89° | 55km/h | 5085m | 3.6m/s | -11.2°C | 61.2% | 548.0hPa | 0V | 00:00:00 | 00:00:00 | 00:00:00 | |
| SQ9EZE-14 | 2026-09-02 11:23:33 | 49.03029 | 20.39506 | 95° | 42km/h | 5062m | 3.7m/s | 0°C | 0% | 549.7hPa | 0V | 00:00:00 | 00:00:00 | 00:00:00 | |
| SQ9EZE-13 | 2026-09-02 11:23:21 | 49.03052 | 20.39311 | 92° | 37km/h | 5010m | 5.3m/s | -10.6°C | 57.4% | 553.5hPa | 0V | 00:00:00 | 00:00:00 | 00:00:00 | |
| SQ9EZE-13 | 2026-09-02 11:23:05 | 49.03028 | 20.39071 | 69° | 51km/h | 4921m | 3.4m/s | -9.9°C | 52.0% | 559.9hPa | 0V | 00:00:00 | 00:00:00 | 00:00:00 | |
| GYPAP8-17 | 2026-09-02 11:22:52 | 49.03019 | 20.38858 | 85° | 44km/h | 4859m | 7.0m/s | -9.5°C | 54.9% | 564.7hPa | 0V | 00:00:00 | 00:00:00 | 00:00:00 | |
| SQ9EZE-13 | 2026-09-02 11:22:49 | 49.03011 | 20.38809 | 71° | 46km/h | 4842m | 3.6m/s | -9.4°C | 55.6% | 565.7hPa | 0V | 00:00:00 | 00:00:00 | 00:00:00 | |
| SQ9EZE-13 | 2026-09-02 11:22:32 | 49.03006 | 20.38547 | 89° | 40km/h | 4757m | 3.5m/s | 0°C | 0% | 572.0hPa | 0V | 00:00:00 | 00:00:00 | 00:00:00 | |
| SQ9EZE-13 | 2026-09-02 11:22:16 | 49.03006 | 20.38342 | 89° | 47km/h | 4692m | 6.9m/s | 0°C | 0% | 0hPa | 0V | 00:00:00 | 00:00:00 | 00:00:00 | |
| SQ9EZE-13 | 2026-09-02 11:22:00 | 49.03015 | 20.38106 | 112° | 37km/h | 4593m | 3.3m/s | 0°C | 0% | 0hPa | 0V | 00:00:00 | 00:00:00 | 00:00:00 | |
| SQ9EZE-13 | 2026-09-02 11:21:44 | 49.03014 | 20.37858 | 88° | 27km/h | 4511m | 2.9m/s | 0°C | 0% | 0hPa | 0V | 00:00:00 | 00:00:00 | 00:00:00 | |
| SQ9EZE-13 | 2026-09-02 11:21:29 | 49.02986 | 20.37625 | 101° | 49km/h | 4429m | 5.4m/s | 0°C | 0% | 0hPa | 0V | 00:00:00 | 00:00:00 | 00:00:00 | |
| SQ9EZE-14 | 2026-09-02 11:21:28 | 49.02988 | 20.37607 | 100° | 47km/h | 4424m | 5.2m/s | 0°C | 0% | 597.0hPa | 0V | 00:00:00 | 00:00:00 | 00:00:00 | |
| GYPAP8-17 | 2026-09-02 11:21:23 | 49.02988 | 20.37532 | 76° | 42km/h | 4399m | 5.0m/s | -6.8°C | 0% | 0hPa | 0V | 00:00:00 | 00:00:00 | 00:00:00 | |
| SQ9EZE-13 | 2026-09-02 11:21:14 | 49.02954 | 20.37356 | 60° | 42km/h | 4339m | 4.2m/s | 0°C | 0% | 0hPa | 0V | 00:00:00 | 00:00:00 | 00:00:00 | |
| SQ9EZE-14 | 2026-09-02 11:21:12 | 49.02949 | 20.37342 | 61° | 40km/h | 4335m | 3.7m/s | 0°C | 0% | 0hPa | 0V | 00:00:00 | 00:00:00 | 00:00:00 | |
| SQ9EZE-13 | 2026-09-02 11:20:42 | 49.02912 | 20.36920 | 109° | 46km/h | 4179m | 4.2m/s | 0°C | 0% | 0hPa | 0V | 00:00:00 | 00:00:00 | 00:00:00 | |
| GYPAP8-17 | 2026-09-02 11:20:39 | 49.02919 | 20.36865 | 95° | 51km/h | 4168m | 4.0m/s | -4.9°C | 0% | 0hPa | 0V | 00:00:00 | 00:00:00 | 00:00:00 | |
| SQ9EZE-13 | 2026-09-02 11:20:24 | 49.02910 | 20.36604 | 91° | 33km/h | 4093m | 7.1m/s | 0°C | 0% | 0hPa | 0V | 00:00:00 | 00:00:00 | 00:00:00 | |
| SQ9EZE-13 | 2026-09-02 11:20:06 | 49.02894 | 20.36363 | 94° | 49km/h | 4004m | 4.6m/s | 0°C | 0% | 0hPa | 0V | 00:00:00 | 00:00:00 | 00:00:00 | |
| GYPAP8-17 | 2026-09-02 11:19:55 | 49.02914 | 20.36166 | 85° | 42km/h | 3948m | 4.6m/s | 0°C | 0% | 0hPa | 0V | 00:00:00 | 00:00:00 | 00:00:00 | |
| GYPAP8-17 | 2026-09-02 11:19:10 | 49.02947 | 20.35525 | 83° | 44km/h | 3716m | 5.8m/s | 0°C | 0% | 0hPa | 0V | 00:00:00 | 00:00:00 | 00:00:00 |